<?xml version="1.0" encoding="UTF-8" standalone="no" ?>
<gpx xmlns="http://www.topografix.com/GPX/1/1" xmlns:xsi="http://www.w3.org/2001/XMLSchema-instance" xsi:schemaLocation="http://www.topografix.com/GPX/1/1 http://www.topografix.com/GPX/1/1/gpx.xsd" version="1.1" creator="VisuGPX - https://www.visugpx.com">
  <metadata>
    <name>Roc d'Azur 2015 à 2023</name>
    <desc><![CDATA[Tous les ingrédients sont de la partie : sections cassantes, piquantes, rugueuses mais parfois lisses et rapides.

Le Fournel, La Flûte, Les Clapiers, La Bastide Neuve, Le Car Brûlé, Le Bougnon, La Gaillarde, La Dalle en Béton, La plage de La Galiote sont autant de point marquant du parcours qui ne laisseront sans aucun de doute que des souvenirs mémorable d’une belle randonnée surplombant la Méditerranée et retour par le bord de mer.
Superbe et toujours une belle organistaion]]></desc>
  </metadata>
  <trk>
    <name><![CDATA[2019]]></name>
    <extensions>
      <line xmlns="http://www.topografix.com/GPX/gpx_style/0/2">
        <color>00c7fc</color>
        <width>4</width>
      </line>
    </extensions>
    <trkseg>
      <trkpt lat="43.42491" lon="6.73689">
        <ele>7.999</ele>
        <time>2016-10-21T06:04:17Z</time>
      </trkpt>
      <trkpt lat="43.42479" lon="6.73674">
        <ele>8</ele>
        <time>2016-10-21T06:04:21Z</time>
      </trkpt>
      <trkpt lat="43.42447" lon="6.73657">
        <ele>7.655</ele>
        <time>2016-10-21T06:04:30Z</time>
      </trkpt>
      <trkpt lat="43.4244" lon="6.73648">
        <ele>7.497</ele>
        <time>2016-10-21T06:04:32Z</time>
      </trkpt>
      <trkpt lat="43.42417" lon="6.73586">
        <ele>7</ele>
        <time>2016-10-21T06:04:43Z</time>
      </trkpt>
      <trkpt lat="43.42301" lon="6.73383">
        <ele>7</ele>
        <time>2016-10-21T06:05:20Z</time>
      </trkpt>
      <trkpt lat="43.42279" lon="6.73354">
        <ele>6.655</ele>
        <time>2016-10-21T06:05:26Z</time>
      </trkpt>
      <trkpt lat="43.42177" lon="6.7319">
        <ele>6.158</ele>
        <time>2016-10-21T06:05:57Z</time>
      </trkpt>
      <trkpt lat="43.42108" lon="6.73094">
        <ele>6</ele>
        <time>2016-10-21T06:06:16Z</time>
      </trkpt>
      <trkpt lat="43.42091" lon="6.73077">
        <ele>6</ele>
        <time>2016-10-21T06:06:20Z</time>
      </trkpt>
      <trkpt lat="43.41978" lon="6.73004">
        <ele>6</ele>
        <time>2016-10-21T06:06:44Z</time>
      </trkpt>
      <trkpt lat="43.41924" lon="6.72972">
        <ele>6</ele>
        <time>2016-10-21T06:06:55Z</time>
      </trkpt>
      <trkpt lat="43.41848" lon="6.72936">
        <ele>5.324</ele>
        <time>2016-10-21T06:07:10Z</time>
      </trkpt>
      <trkpt lat="43.41808" lon="6.72912">
        <ele>4.277</ele>
        <time>2016-10-21T06:07:18Z</time>
      </trkpt>
      <trkpt lat="43.4179" lon="6.72898">
        <ele>4.072</ele>
        <time>2016-10-21T06:07:22Z</time>
      </trkpt>
      <trkpt lat="43.41657" lon="6.72837">
        <ele>4.255</ele>
        <time>2016-10-21T06:07:49Z</time>
      </trkpt>
      <trkpt lat="43.41637" lon="6.72819">
        <ele>3.991</ele>
        <time>2016-10-21T06:07:54Z</time>
      </trkpt>
      <trkpt lat="43.41618" lon="6.72812">
        <ele>3.896</ele>
        <time>2016-10-21T06:07:58Z</time>
      </trkpt>
      <trkpt lat="43.41605" lon="6.72812">
        <ele>3.904</ele>
        <time>2016-10-21T06:08:01Z</time>
      </trkpt>
      <trkpt lat="43.41567" lon="6.7282">
        <ele>3.414</ele>
        <time>2016-10-21T06:08:09Z</time>
      </trkpt>
      <trkpt lat="43.41558" lon="6.72816">
        <ele>3.165</ele>
        <time>2016-10-21T06:08:12Z</time>
      </trkpt>
      <trkpt lat="43.41557" lon="6.72808">
        <ele>3.013</ele>
        <time>2016-10-21T06:08:14Z</time>
      </trkpt>
      <trkpt lat="43.4156" lon="6.72798">
        <ele>2.92</ele>
        <time>2016-10-21T06:08:17Z</time>
      </trkpt>
      <trkpt lat="43.41554" lon="6.72795">
        <ele>2.735</ele>
        <time>2016-10-21T06:08:19Z</time>
      </trkpt>
      <trkpt lat="43.41521" lon="6.72803">
        <ele>2.864</ele>
        <time>2016-10-21T06:08:29Z</time>
      </trkpt>
      <trkpt lat="43.4152" lon="6.72798">
        <ele>2.794</ele>
        <time>2016-10-21T06:08:31Z</time>
      </trkpt>
      <trkpt lat="43.41546" lon="6.72773">
        <ele>2.351</ele>
        <time>2016-10-21T06:08:40Z</time>
      </trkpt>
      <trkpt lat="43.41568" lon="6.72744">
        <ele>2.254</ele>
        <time>2016-10-21T06:08:48Z</time>
      </trkpt>
      <trkpt lat="43.41565" lon="6.7273">
        <ele>2.149</ele>
        <time>2016-10-21T06:08:51Z</time>
      </trkpt>
      <trkpt lat="43.41583" lon="6.72693">
        <ele>2.007</ele>
        <time>2016-10-21T06:09:00Z</time>
      </trkpt>
      <trkpt lat="43.4158" lon="6.7269">
        <ele>2</ele>
        <time>2016-10-21T06:09:02Z</time>
      </trkpt>
      <trkpt lat="43.41574" lon="6.72701">
        <ele>2.061</ele>
        <time>2016-10-21T06:09:06Z</time>
      </trkpt>
      <trkpt lat="43.41562" lon="6.72712">
        <ele>2.05</ele>
        <time>2016-10-21T06:09:12Z</time>
      </trkpt>
      <trkpt lat="43.41518" lon="6.72688">
        <ele>2</ele>
        <time>2016-10-21T06:09:25Z</time>
      </trkpt>
      <trkpt lat="43.41518" lon="6.72685">
        <ele>2</ele>
        <time>2016-10-21T06:09:26Z</time>
      </trkpt>
      <trkpt lat="43.41535" lon="6.72661">
        <ele>2</ele>
        <time>2016-10-21T06:09:34Z</time>
      </trkpt>
      <trkpt lat="43.41487" lon="6.72645">
        <ele>2.377</ele>
        <time>2016-10-21T06:09:47Z</time>
      </trkpt>
      <trkpt lat="43.41441" lon="6.72607">
        <ele>3</ele>
        <time>2016-10-21T06:10:01Z</time>
      </trkpt>
      <trkpt lat="43.41436" lon="6.72593">
        <ele>3</ele>
        <time>2016-10-21T06:10:04Z</time>
      </trkpt>
      <trkpt lat="43.41411" lon="6.72548">
        <ele>3.357</ele>
        <time>2016-10-21T06:10:13Z</time>
      </trkpt>
      <trkpt lat="43.41406" lon="6.72531">
        <ele>3.487</ele>
        <time>2016-10-21T06:10:16Z</time>
      </trkpt>
      <trkpt lat="43.41378" lon="6.72487">
        <ele>4</ele>
        <time>2016-10-21T06:10:25Z</time>
      </trkpt>
      <trkpt lat="43.41363" lon="6.72471">
        <ele>4</ele>
        <time>2016-10-21T06:10:29Z</time>
      </trkpt>
      <trkpt lat="43.41343" lon="6.72457">
        <ele>4</ele>
        <time>2016-10-21T06:10:34Z</time>
      </trkpt>
      <trkpt lat="43.41325" lon="6.72453">
        <ele>4</ele>
        <time>2016-10-21T06:10:38Z</time>
      </trkpt>
      <trkpt lat="43.41276" lon="6.72472">
        <ele>4.084</ele>
        <time>2016-10-21T06:10:49Z</time>
      </trkpt>
      <trkpt lat="43.41242" lon="6.72475">
        <ele>4.268</ele>
        <time>2016-10-21T06:10:57Z</time>
      </trkpt>
      <trkpt lat="43.41213" lon="6.72473">
        <ele>4.85</ele>
        <time>2016-10-21T06:11:04Z</time>
      </trkpt>
      <trkpt lat="43.41172" lon="6.72456">
        <ele>5</ele>
        <time>2016-10-21T06:11:14Z</time>
      </trkpt>
      <trkpt lat="43.41163" lon="6.72466">
        <ele>5</ele>
        <time>2016-10-21T06:11:24Z</time>
      </trkpt>
      <trkpt lat="43.41157" lon="6.72468">
        <ele>4.928</ele>
        <time>2016-10-21T06:11:31Z</time>
      </trkpt>
      <trkpt lat="43.41159" lon="6.72483">
        <ele>4.847</ele>
        <time>2016-10-21T06:11:36Z</time>
      </trkpt>
      <trkpt lat="43.41166" lon="6.725">
        <ele>4.594</ele>
        <time>2016-10-21T06:11:42Z</time>
      </trkpt>
      <trkpt lat="43.41162" lon="6.72506">
        <ele>4.499</ele>
        <time>2016-10-21T06:11:46Z</time>
      </trkpt>
      <trkpt lat="43.41088" lon="6.72458">
        <ele>4.064</ele>
        <time>2016-10-21T06:12:09Z</time>
      </trkpt>
      <trkpt lat="43.41083" lon="6.72449">
        <ele>4.083</ele>
        <time>2016-10-21T06:12:14Z</time>
      </trkpt>
      <trkpt lat="43.41104" lon="6.72426">
        <ele>4.509</ele>
        <time>2016-10-21T06:12:24Z</time>
      </trkpt>
      <trkpt lat="43.41107" lon="6.72405">
        <ele>4.757</ele>
        <time>2016-10-21T06:12:30Z</time>
      </trkpt>
      <trkpt lat="43.41163" lon="6.72233">
        <ele>5</ele>
        <time>2016-10-21T06:13:04Z</time>
      </trkpt>
      <trkpt lat="43.41187" lon="6.72199">
        <ele>5.329</ele>
        <time>2016-10-21T06:13:14Z</time>
      </trkpt>
      <trkpt lat="43.41205" lon="6.72184">
        <ele>5.208</ele>
        <time>2016-10-21T06:13:20Z</time>
      </trkpt>
      <trkpt lat="43.41226" lon="6.72174">
        <ele>5</ele>
        <time>2016-10-21T06:13:26Z</time>
      </trkpt>
      <trkpt lat="43.41247" lon="6.72169">
        <ele>5.024</ele>
        <time>2016-10-21T06:13:31Z</time>
      </trkpt>
      <trkpt lat="43.4126" lon="6.72133">
        <ele>5.058</ele>
        <time>2016-10-21T06:13:39Z</time>
      </trkpt>
      <trkpt lat="43.41262" lon="6.72117">
        <ele>5.058</ele>
        <time>2016-10-21T06:13:42Z</time>
      </trkpt>
      <trkpt lat="43.4126" lon="6.72113">
        <ele>5.109</ele>
        <time>2016-10-21T06:13:43Z</time>
      </trkpt>
      <trkpt lat="43.41169" lon="6.72059">
        <ele>6</ele>
        <time>2016-10-21T06:14:06Z</time>
      </trkpt>
      <trkpt lat="43.41161" lon="6.72045">
        <ele>6</ele>
        <time>2016-10-21T06:14:09Z</time>
      </trkpt>
      <trkpt lat="43.41168" lon="6.71991">
        <ele>6</ele>
        <time>2016-10-21T06:14:18Z</time>
      </trkpt>
      <trkpt lat="43.41167" lon="6.71985">
        <ele>6</ele>
        <time>2016-10-21T06:14:19Z</time>
      </trkpt>
      <trkpt lat="43.41161" lon="6.71975">
        <ele>6</ele>
        <time>2016-10-21T06:14:21Z</time>
      </trkpt>
      <trkpt lat="43.41121" lon="6.71941">
        <ele>6</ele>
        <time>2016-10-21T06:14:31Z</time>
      </trkpt>
      <trkpt lat="43.41104" lon="6.7192">
        <ele>6</ele>
        <time>2016-10-21T06:14:36Z</time>
      </trkpt>
      <trkpt lat="43.41099" lon="6.71908">
        <ele>6</ele>
        <time>2016-10-21T06:14:38Z</time>
      </trkpt>
      <trkpt lat="43.41095" lon="6.7187">
        <ele>6</ele>
        <time>2016-10-21T06:14:44Z</time>
      </trkpt>
      <trkpt lat="43.4109" lon="6.71853">
        <ele>6.123</ele>
        <time>2016-10-21T06:14:47Z</time>
      </trkpt>
      <trkpt lat="43.41077" lon="6.71844">
        <ele>6.479</ele>
        <time>2016-10-21T06:14:50Z</time>
      </trkpt>
      <trkpt lat="43.41047" lon="6.71852">
        <ele>6.862</ele>
        <time>2016-10-21T06:14:57Z</time>
      </trkpt>
      <trkpt lat="43.40983" lon="6.71838">
        <ele>6.051</ele>
        <time>2016-10-21T06:15:11Z</time>
      </trkpt>
      <trkpt lat="43.40895" lon="6.71824">
        <ele>4.51</ele>
        <time>2016-10-21T06:15:31Z</time>
      </trkpt>
      <trkpt lat="43.40888" lon="6.71819">
        <ele>4.353</ele>
        <time>2016-10-21T06:15:34Z</time>
      </trkpt>
      <trkpt lat="43.40881" lon="6.71801">
        <ele>4.195</ele>
        <time>2016-10-21T06:15:40Z</time>
      </trkpt>
      <trkpt lat="43.40871" lon="6.71785">
        <ele>3.953</ele>
        <time>2016-10-21T06:15:45Z</time>
      </trkpt>
      <trkpt lat="43.4087" lon="6.71777">
        <ele>3.917</ele>
        <time>2016-10-21T06:15:47Z</time>
      </trkpt>
      <trkpt lat="43.4088" lon="6.71724">
        <ele>4.098</ele>
        <time>2016-10-21T06:15:57Z</time>
      </trkpt>
      <trkpt lat="43.40892" lon="6.71627">
        <ele>4.824</ele>
        <time>2016-10-21T06:16:14Z</time>
      </trkpt>
      <trkpt lat="43.40898" lon="6.71605">
        <ele>5.239</ele>
        <time>2016-10-21T06:16:18Z</time>
      </trkpt>
      <trkpt lat="43.40901" lon="6.71583">
        <ele>5.493</ele>
        <time>2016-10-21T06:16:22Z</time>
      </trkpt>
      <trkpt lat="43.40908" lon="6.71567">
        <ele>5.789</ele>
        <time>2016-10-21T06:16:25Z</time>
      </trkpt>
      <trkpt lat="43.4092" lon="6.71551">
        <ele>6.382</ele>
        <time>2016-10-21T06:16:29Z</time>
      </trkpt>
      <trkpt lat="43.40925" lon="6.71534">
        <ele>6.811</ele>
        <time>2016-10-21T06:16:33Z</time>
      </trkpt>
      <trkpt lat="43.40924" lon="6.71525">
        <ele>6.801</ele>
        <time>2016-10-21T06:16:35Z</time>
      </trkpt>
      <trkpt lat="43.40933" lon="6.71492">
        <ele>7.037</ele>
        <time>2016-10-21T06:16:42Z</time>
      </trkpt>
      <trkpt lat="43.40945" lon="6.71491">
        <ele>7.014</ele>
        <time>2016-10-21T06:16:44Z</time>
      </trkpt>
      <trkpt lat="43.40957" lon="6.71473">
        <ele>6.241</ele>
        <time>2016-10-21T06:17:04Z</time>
      </trkpt>
      <trkpt lat="43.41009" lon="6.71441">
        <ele>6.012</ele>
        <time>2016-10-21T06:17:07Z</time>
      </trkpt>
      <trkpt lat="43.41043" lon="6.71405">
        <ele>5.459</ele>
        <time>2016-10-21T06:17:18Z</time>
      </trkpt>
      <trkpt lat="43.41105" lon="6.71297">
        <ele>4.737</ele>
        <time>2016-10-21T06:17:43Z</time>
      </trkpt>
      <trkpt lat="43.41146" lon="6.7127">
        <ele>4.527</ele>
        <time>2016-10-21T06:17:47Z</time>
      </trkpt>
      <trkpt lat="43.41228" lon="6.71173">
        <ele>4.49</ele>
        <time>2016-10-21T06:17:52Z</time>
      </trkpt>
      <trkpt lat="43.41425" lon="6.70829">
        <ele>4.452</ele>
        <time>2016-10-21T06:17:58Z</time>
      </trkpt>
      <trkpt lat="43.41457" lon="6.7069">
        <ele>4.475</ele>
        <time>2016-10-21T06:18:00Z</time>
      </trkpt>
      <trkpt lat="43.41522" lon="6.70578">
        <ele>4.638</ele>
        <time>2016-10-21T06:18:05Z</time>
      </trkpt>
      <trkpt lat="43.41616" lon="6.70503">
        <ele>4.515</ele>
        <time>2016-10-21T06:18:15Z</time>
      </trkpt>
      <trkpt lat="43.41681" lon="6.70356">
        <ele>4.532</ele>
        <time>2016-10-21T06:18:19Z</time>
      </trkpt>
      <trkpt lat="43.41482" lon="6.70128">
        <ele>4.675</ele>
        <time>2016-10-21T06:18:21Z</time>
      </trkpt>
      <trkpt lat="43.41355" lon="6.70132">
        <ele>4.665</ele>
        <time>2016-10-21T06:18:27Z</time>
      </trkpt>
      <trkpt lat="43.41301" lon="6.70114">
        <ele>5.001</ele>
        <time>2016-10-21T06:18:50Z</time>
      </trkpt>
      <trkpt lat="43.41292" lon="6.70115">
        <ele>13.507</ele>
        <time>2016-10-21T06:23:16Z</time>
      </trkpt>
      <trkpt lat="43.41279" lon="6.70086">
        <ele>17.831</ele>
        <time>2016-10-21T06:23:22Z</time>
      </trkpt>
      <trkpt lat="43.4128" lon="6.7005">
        <ele>15.215</ele>
        <time>2016-10-21T06:23:29Z</time>
      </trkpt>
      <trkpt lat="43.41276" lon="6.70006">
        <ele>12.896</ele>
        <time>2016-10-21T06:23:35Z</time>
      </trkpt>
      <trkpt lat="43.4126" lon="6.69926">
        <ele>14.755</ele>
        <time>2016-10-21T06:23:48Z</time>
      </trkpt>
      <trkpt lat="43.41245" lon="6.69868">
        <ele>16.344</ele>
        <time>2016-10-21T06:23:58Z</time>
      </trkpt>
      <trkpt lat="43.41229" lon="6.69833">
        <ele>15.344</ele>
        <time>2016-10-21T06:24:05Z</time>
      </trkpt>
      <trkpt lat="43.4122" lon="6.6982">
        <ele>15.211</ele>
        <time>2016-10-21T06:24:08Z</time>
      </trkpt>
      <trkpt lat="43.41195" lon="6.69739">
        <ele>12.624</ele>
        <time>2016-10-21T06:24:23Z</time>
      </trkpt>
      <trkpt lat="43.4118" lon="6.69712">
        <ele>11.025</ele>
        <time>2016-10-21T06:24:28Z</time>
      </trkpt>
      <trkpt lat="43.4116" lon="6.69686">
        <ele>9.15</ele>
        <time>2016-10-21T06:24:35Z</time>
      </trkpt>
      <trkpt lat="43.41044" lon="6.69645">
        <ele>7.102</ele>
        <time>2016-10-21T06:25:03Z</time>
      </trkpt>
      <trkpt lat="43.40937" lon="6.69614">
        <ele>8.034</ele>
        <time>2016-10-21T06:25:27Z</time>
      </trkpt>
      <trkpt lat="43.409" lon="6.69599">
        <ele>7.628</ele>
        <time>2016-10-21T06:25:35Z</time>
      </trkpt>
      <trkpt lat="43.40461" lon="6.69464">
        <ele>13.238</ele>
        <time>2016-10-21T06:27:22Z</time>
      </trkpt>
      <trkpt lat="43.40452" lon="6.69485">
        <ele>15.93</ele>
        <time>2016-10-21T06:28:45Z</time>
      </trkpt>
      <trkpt lat="43.40451" lon="6.69504">
        <ele>17.813</ele>
        <time>2016-10-21T06:28:54Z</time>
      </trkpt>
      <trkpt lat="43.40435" lon="6.69535">
        <ele>22.163</ele>
        <time>2016-10-21T06:29:10Z</time>
      </trkpt>
      <trkpt lat="43.4043" lon="6.69571">
        <ele>26.429</ele>
        <time>2016-10-21T06:29:28Z</time>
      </trkpt>
      <trkpt lat="43.40424" lon="6.69595">
        <ele>29.32</ele>
        <time>2016-10-21T06:29:44Z</time>
      </trkpt>
      <trkpt lat="43.40385" lon="6.69679">
        <ele>41</ele>
        <time>2016-10-21T06:30:35Z</time>
      </trkpt>
      <trkpt lat="43.40377" lon="6.6973">
        <ele>46.007</ele>
        <time>2016-10-21T06:31:01Z</time>
      </trkpt>
      <trkpt lat="43.40376" lon="6.69772">
        <ele>51.033</ele>
        <time>2016-10-21T06:31:21Z</time>
      </trkpt>
      <trkpt lat="43.40361" lon="6.6983">
        <ele>61.931</ele>
        <time>2016-10-21T06:31:57Z</time>
      </trkpt>
      <trkpt lat="43.40353" lon="6.69879">
        <ele>70.872</ele>
        <time>2016-10-21T06:32:29Z</time>
      </trkpt>
      <trkpt lat="43.40351" lon="6.69911">
        <ele>75.094</ele>
        <time>2016-10-21T06:32:50Z</time>
      </trkpt>
      <trkpt lat="43.40341" lon="6.6996">
        <ele>80.582</ele>
        <time>2016-10-21T06:33:18Z</time>
      </trkpt>
      <trkpt lat="43.40328" lon="6.69987">
        <ele>82.262</ele>
        <time>2016-10-21T06:33:35Z</time>
      </trkpt>
      <trkpt lat="43.4032" lon="6.70016">
        <ele>82.118</ele>
        <time>2016-10-21T06:33:56Z</time>
      </trkpt>
      <trkpt lat="43.40314" lon="6.70023">
        <ele>81.637</ele>
        <time>2016-10-21T06:34:09Z</time>
      </trkpt>
      <trkpt lat="43.40317" lon="6.70027">
        <ele>81.419</ele>
        <time>2019-10-12T10:20:06Z</time>
      </trkpt>
      <trkpt lat="43.40259" lon="6.69965">
        <ele>79.625</ele>
        <time>2019-10-12T10:20:23Z</time>
      </trkpt>
      <trkpt lat="43.40238" lon="6.69948">
        <ele>77.286</ele>
        <time>2019-10-12T10:20:27Z</time>
      </trkpt>
      <trkpt lat="43.40224" lon="6.69943">
        <ele>75.151</ele>
        <time>2019-10-12T10:20:29Z</time>
      </trkpt>
      <trkpt lat="43.4021" lon="6.69948">
        <ele>72.357</ele>
        <time>2019-10-12T10:20:31Z</time>
      </trkpt>
      <trkpt lat="43.40185" lon="6.6997">
        <ele>69.058</ele>
        <time>2019-10-12T10:20:34Z</time>
      </trkpt>
      <trkpt lat="43.40133" lon="6.70031">
        <ele>66.764</ele>
        <time>2019-10-12T10:20:40Z</time>
      </trkpt>
      <trkpt lat="43.40113" lon="6.70059">
        <ele>69.016</ele>
        <time>2019-10-12T10:20:43Z</time>
      </trkpt>
      <trkpt lat="43.40078" lon="6.70122">
        <ele>76.018</ele>
        <time>2019-10-12T10:20:59Z</time>
      </trkpt>
      <trkpt lat="43.40068" lon="6.70131">
        <ele>79.218</ele>
        <time>2019-10-12T10:21:06Z</time>
      </trkpt>
      <trkpt lat="43.40059" lon="6.70131">
        <ele>81.344</ele>
        <time>2019-10-12T10:21:11Z</time>
      </trkpt>
      <trkpt lat="43.40012" lon="6.70105">
        <ele>86.899</ele>
        <time>2019-10-12T10:21:41Z</time>
      </trkpt>
      <trkpt lat="43.39984" lon="6.70111">
        <ele>91.602</ele>
        <time>2019-10-12T10:21:58Z</time>
      </trkpt>
      <trkpt lat="43.3994" lon="6.70128">
        <ele>97.307</ele>
        <time>2019-10-12T10:22:27Z</time>
      </trkpt>
      <trkpt lat="43.39913" lon="6.70133">
        <ele>99.209</ele>
        <time>2019-10-12T10:22:46Z</time>
      </trkpt>
      <trkpt lat="43.399" lon="6.7014">
        <ele>100.437</ele>
        <time>2019-10-12T10:22:56Z</time>
      </trkpt>
      <trkpt lat="43.39885" lon="6.70152">
        <ele>102.062</ele>
        <time>2019-10-12T10:23:06Z</time>
      </trkpt>
      <trkpt lat="43.39866" lon="6.70175">
        <ele>102.443</ele>
        <time>2019-10-12T10:23:17Z</time>
      </trkpt>
      <trkpt lat="43.39847" lon="6.70188">
        <ele>102.719</ele>
        <time>2019-10-12T10:23:25Z</time>
      </trkpt>
      <trkpt lat="43.39743" lon="6.70176">
        <ele>104</ele>
        <time>2019-10-12T10:23:51Z</time>
      </trkpt>
      <trkpt lat="43.3969" lon="6.70157">
        <ele>104.565</ele>
        <time>2019-10-12T10:24:02Z</time>
      </trkpt>
      <trkpt lat="43.39653" lon="6.70119">
        <ele>105.507</ele>
        <time>2019-10-12T10:24:14Z</time>
      </trkpt>
      <trkpt lat="43.39628" lon="6.70072">
        <ele>106.503</ele>
        <time>2019-10-12T10:24:30Z</time>
      </trkpt>
      <trkpt lat="43.39608" lon="6.70062">
        <ele>106.982</ele>
        <time>2019-10-12T10:24:37Z</time>
      </trkpt>
      <trkpt lat="43.39582" lon="6.70069">
        <ele>108.585</ele>
        <time>2019-10-12T10:24:45Z</time>
      </trkpt>
      <trkpt lat="43.39508" lon="6.70106">
        <ele>105.759</ele>
        <time>2019-10-12T10:24:59Z</time>
      </trkpt>
      <trkpt lat="43.3946" lon="6.70106">
        <ele>104.52</ele>
        <time>2019-10-12T10:25:07Z</time>
      </trkpt>
      <trkpt lat="43.39415" lon="6.70095">
        <ele>102.912</ele>
        <time>2019-10-12T10:25:13Z</time>
      </trkpt>
      <trkpt lat="43.39374" lon="6.70079">
        <ele>102.536</ele>
        <time>2019-10-12T10:25:19Z</time>
      </trkpt>
      <trkpt lat="43.39358" lon="6.70065">
        <ele>102.03</ele>
        <time>2019-10-12T10:25:22Z</time>
      </trkpt>
      <trkpt lat="43.39261" lon="6.69944">
        <ele>102.67</ele>
        <time>2019-10-12T10:25:45Z</time>
      </trkpt>
      <trkpt lat="43.39254" lon="6.69938">
        <ele>102.664</ele>
        <time>2019-10-12T10:25:47Z</time>
      </trkpt>
      <trkpt lat="43.39224" lon="6.69927">
        <ele>102.397</ele>
        <time>2019-10-12T10:25:53Z</time>
      </trkpt>
      <trkpt lat="43.39213" lon="6.69918">
        <ele>102.424</ele>
        <time>2019-10-12T10:25:55Z</time>
      </trkpt>
      <trkpt lat="43.3918" lon="6.69873">
        <ele>105.477</ele>
        <time>2019-10-12T10:26:02Z</time>
      </trkpt>
      <trkpt lat="43.39144" lon="6.6985">
        <ele>108.633</ele>
        <time>2019-10-12T10:26:23Z</time>
      </trkpt>
      <trkpt lat="43.39134" lon="6.69833">
        <ele>109.883</ele>
        <time>2019-10-12T10:26:32Z</time>
      </trkpt>
      <trkpt lat="43.39128" lon="6.69787">
        <ele>115.35</ele>
        <time>2019-10-12T10:26:48Z</time>
      </trkpt>
      <trkpt lat="43.39129" lon="6.69729">
        <ele>123.928</ele>
        <time>2019-10-12T10:27:17Z</time>
      </trkpt>
      <trkpt lat="43.39127" lon="6.69709">
        <ele>126.306</ele>
        <time>2019-10-12T10:27:27Z</time>
      </trkpt>
      <trkpt lat="43.39115" lon="6.69665">
        <ele>131.966</ele>
        <time>2019-10-12T10:27:51Z</time>
      </trkpt>
      <trkpt lat="43.39106" lon="6.69619">
        <ele>135.979</ele>
        <time>2019-10-12T10:28:14Z</time>
      </trkpt>
      <trkpt lat="43.39087" lon="6.69554">
        <ele>143.806</ele>
        <time>2019-10-12T10:28:55Z</time>
      </trkpt>
      <trkpt lat="43.39073" lon="6.69533">
        <ele>148.287</ele>
        <time>2019-10-12T10:29:09Z</time>
      </trkpt>
      <trkpt lat="43.39045" lon="6.69518">
        <ele>150.053</ele>
        <time>2019-10-12T10:29:31Z</time>
      </trkpt>
      <trkpt lat="43.38976" lon="6.69459">
        <ele>159.959</ele>
        <time>2019-10-12T10:30:33Z</time>
      </trkpt>
      <trkpt lat="43.38967" lon="6.69444">
        <ele>161.251</ele>
        <time>2019-10-12T10:30:44Z</time>
      </trkpt>
      <trkpt lat="43.3895" lon="6.69388">
        <ele>169.767</ele>
        <time>2019-10-12T10:31:17Z</time>
      </trkpt>
      <trkpt lat="43.38938" lon="6.69359">
        <ele>174.179</ele>
        <time>2019-10-12T10:31:37Z</time>
      </trkpt>
      <trkpt lat="43.38909" lon="6.69309">
        <ele>184.248</ele>
        <time>2019-10-12T10:32:16Z</time>
      </trkpt>
      <trkpt lat="43.38857" lon="6.69284">
        <ele>192.428</ele>
        <time>2019-10-12T10:32:57Z</time>
      </trkpt>
      <trkpt lat="43.38824" lon="6.6926">
        <ele>196.286</ele>
        <time>2019-10-12T10:33:23Z</time>
      </trkpt>
      <trkpt lat="43.38814" lon="6.6925">
        <ele>198.419</ele>
        <time>2019-10-12T10:33:33Z</time>
      </trkpt>
      <trkpt lat="43.38798" lon="6.69222">
        <ele>204.144</ele>
        <time>2019-10-12T10:33:52Z</time>
      </trkpt>
      <trkpt lat="43.38787" lon="6.69209">
        <ele>206.641</ele>
        <time>2019-10-12T10:34:02Z</time>
      </trkpt>
      <trkpt lat="43.38762" lon="6.69189">
        <ele>207.894</ele>
        <time>2019-10-12T10:34:18Z</time>
      </trkpt>
      <trkpt lat="43.38746" lon="6.6917">
        <ele>209.288</ele>
        <time>2019-10-12T10:34:29Z</time>
      </trkpt>
      <trkpt lat="43.38711" lon="6.69137">
        <ele>210.587</ele>
        <time>2019-10-12T10:34:47Z</time>
      </trkpt>
      <trkpt lat="43.38709" lon="6.69125">
        <ele>212.263</ele>
        <time>2019-10-12T10:34:52Z</time>
      </trkpt>
      <trkpt lat="43.38715" lon="6.69118">
        <ele>214.352</ele>
        <time>2019-10-12T10:34:57Z</time>
      </trkpt>
      <trkpt lat="43.3874" lon="6.69103">
        <ele>220.192</ele>
        <time>2019-10-12T10:35:14Z</time>
      </trkpt>
      <trkpt lat="43.38753" lon="6.69107">
        <ele>220.931</ele>
        <time>2019-10-12T10:35:23Z</time>
      </trkpt>
      <trkpt lat="43.38761" lon="6.69114">
        <ele>220.782</ele>
        <time>2019-10-12T10:35:28Z</time>
      </trkpt>
      <trkpt lat="43.38794" lon="6.69129">
        <ele>221.579</ele>
        <time>2019-10-12T10:35:47Z</time>
      </trkpt>
      <trkpt lat="43.388" lon="6.69136">
        <ele>221.139</ele>
        <time>2019-10-12T10:37:07Z</time>
      </trkpt>
      <trkpt lat="43.38802" lon="6.69135">
        <ele>221.361</ele>
        <time>2019-10-12T10:37:46Z</time>
      </trkpt>
      <trkpt lat="43.38805" lon="6.69141">
        <ele>220.893</ele>
        <time>2019-10-12T10:38:31Z</time>
      </trkpt>
      <trkpt lat="43.38811" lon="6.69145">
        <ele>220.897</ele>
        <time>2019-10-12T10:38:34Z</time>
      </trkpt>
      <trkpt lat="43.38817" lon="6.69143">
        <ele>221.303</ele>
        <time>2019-10-12T10:38:36Z</time>
      </trkpt>
      <trkpt lat="43.38868" lon="6.69098">
        <ele>217.87</ele>
        <time>2019-10-12T10:38:48Z</time>
      </trkpt>
      <trkpt lat="43.38882" lon="6.6909">
        <ele>214.937</ele>
        <time>2019-10-12T10:38:50Z</time>
      </trkpt>
      <trkpt lat="43.3891" lon="6.69066">
        <ele>212.185</ele>
        <time>2019-10-12T10:38:54Z</time>
      </trkpt>
      <trkpt lat="43.38933" lon="6.69052">
        <ele>209.056</ele>
        <time>2019-10-12T10:38:57Z</time>
      </trkpt>
      <trkpt lat="43.39025" lon="6.69027">
        <ele>191.339</ele>
        <time>2019-10-12T10:39:11Z</time>
      </trkpt>
      <trkpt lat="43.39069" lon="6.69">
        <ele>184.652</ele>
        <time>2019-10-12T10:39:20Z</time>
      </trkpt>
      <trkpt lat="43.39086" lon="6.68994">
        <ele>181.268</ele>
        <time>2019-10-12T10:39:25Z</time>
      </trkpt>
      <trkpt lat="43.39098" lon="6.68984">
        <ele>179.527</ele>
        <time>2019-10-12T10:39:29Z</time>
      </trkpt>
      <trkpt lat="43.39111" lon="6.68956">
        <ele>175.145</ele>
        <time>2019-10-12T10:39:34Z</time>
      </trkpt>
      <trkpt lat="43.39119" lon="6.68945">
        <ele>172.793</ele>
        <time>2019-10-12T10:39:36Z</time>
      </trkpt>
      <trkpt lat="43.39125" lon="6.68943">
        <ele>171.4</ele>
        <time>2019-10-12T10:39:37Z</time>
      </trkpt>
      <trkpt lat="43.39146" lon="6.68949">
        <ele>165.968</ele>
        <time>2019-10-12T10:39:41Z</time>
      </trkpt>
      <trkpt lat="43.39157" lon="6.68946">
        <ele>163.55</ele>
        <time>2019-10-12T10:39:43Z</time>
      </trkpt>
      <trkpt lat="43.39186" lon="6.6892">
        <ele>158.146</ele>
        <time>2019-10-12T10:39:49Z</time>
      </trkpt>
      <trkpt lat="43.39254" lon="6.68917">
        <ele>149.4</ele>
        <time>2019-10-12T10:39:59Z</time>
      </trkpt>
      <trkpt lat="43.39284" lon="6.6892">
        <ele>145.482</ele>
        <time>2019-10-12T10:40:07Z</time>
      </trkpt>
      <trkpt lat="43.39337" lon="6.68884">
        <ele>139.874</ele>
        <time>2019-10-12T10:40:18Z</time>
      </trkpt>
      <trkpt lat="43.39345" lon="6.68884">
        <ele>138.901</ele>
        <time>2019-10-12T10:40:20Z</time>
      </trkpt>
      <trkpt lat="43.39432" lon="6.68929">
        <ele>119.254</ele>
        <time>2019-10-12T10:40:39Z</time>
      </trkpt>
      <trkpt lat="43.39442" lon="6.6893">
        <ele>117.871</ele>
        <time>2019-10-12T10:40:41Z</time>
      </trkpt>
      <trkpt lat="43.39453" lon="6.68925">
        <ele>117.476</ele>
        <time>2019-10-12T10:40:43Z</time>
      </trkpt>
      <trkpt lat="43.39491" lon="6.68891">
        <ele>115.25</ele>
        <time>2019-10-12T10:40:51Z</time>
      </trkpt>
      <trkpt lat="43.39507" lon="6.6888">
        <ele>111.687</ele>
        <time>2019-10-12T10:40:55Z</time>
      </trkpt>
      <trkpt lat="43.39521" lon="6.68864">
        <ele>108.669</ele>
        <time>2019-10-12T10:40:58Z</time>
      </trkpt>
      <trkpt lat="43.3953" lon="6.68848">
        <ele>107.108</ele>
        <time>2019-10-12T10:41:00Z</time>
      </trkpt>
      <trkpt lat="43.39536" lon="6.68832">
        <ele>106.347</ele>
        <time>2019-10-12T10:41:02Z</time>
      </trkpt>
      <trkpt lat="43.39535" lon="6.68816">
        <ele>105.403</ele>
        <time>2019-10-12T10:41:04Z</time>
      </trkpt>
      <trkpt lat="43.39521" lon="6.68788">
        <ele>105.444</ele>
        <time>2019-10-12T10:41:09Z</time>
      </trkpt>
      <trkpt lat="43.39478" lon="6.68735">
        <ele>106.216</ele>
        <time>2019-10-12T10:41:21Z</time>
      </trkpt>
      <trkpt lat="43.39464" lon="6.68689">
        <ele>101.853</ele>
        <time>2019-10-12T10:41:28Z</time>
      </trkpt>
      <trkpt lat="43.39468" lon="6.6863">
        <ele>94.76</ele>
        <time>2019-10-12T10:41:36Z</time>
      </trkpt>
      <trkpt lat="43.39482" lon="6.68551">
        <ele>87.196</ele>
        <time>2019-10-12T10:41:44Z</time>
      </trkpt>
      <trkpt lat="43.39482" lon="6.68543">
        <ele>87.054</ele>
        <time>2019-10-12T10:41:45Z</time>
      </trkpt>
      <trkpt lat="43.39477" lon="6.68531">
        <ele>87.2</ele>
        <time>2019-10-12T10:41:47Z</time>
      </trkpt>
      <trkpt lat="43.39462" lon="6.68518">
        <ele>86.707</ele>
        <time>2019-10-12T10:41:50Z</time>
      </trkpt>
      <trkpt lat="43.39447" lon="6.68516">
        <ele>86.347</ele>
        <time>2019-10-12T10:41:53Z</time>
      </trkpt>
      <trkpt lat="43.39437" lon="6.68509">
        <ele>86.052</ele>
        <time>2019-10-12T10:41:55Z</time>
      </trkpt>
      <trkpt lat="43.39403" lon="6.68469">
        <ele>81.955</ele>
        <time>2019-10-12T10:42:01Z</time>
      </trkpt>
      <trkpt lat="43.39385" lon="6.68431">
        <ele>78.878</ele>
        <time>2019-10-12T10:42:05Z</time>
      </trkpt>
      <trkpt lat="43.39365" lon="6.68406">
        <ele>77.435</ele>
        <time>2019-10-12T10:42:09Z</time>
      </trkpt>
      <trkpt lat="43.39356" lon="6.68363">
        <ele>74.322</ele>
        <time>2019-10-12T10:42:14Z</time>
      </trkpt>
      <trkpt lat="43.39345" lon="6.68334">
        <ele>71.591</ele>
        <time>2019-10-12T10:42:18Z</time>
      </trkpt>
      <trkpt lat="43.39337" lon="6.6833">
        <ele>71.162</ele>
        <time>2019-10-12T10:42:20Z</time>
      </trkpt>
      <trkpt lat="43.39326" lon="6.68334">
        <ele>71.366</ele>
        <time>2019-10-12T10:42:23Z</time>
      </trkpt>
      <trkpt lat="43.39312" lon="6.68332">
        <ele>71.12</ele>
        <time>2019-10-12T10:42:27Z</time>
      </trkpt>
      <trkpt lat="43.39307" lon="6.68324">
        <ele>70.314</ele>
        <time>2019-10-12T10:42:29Z</time>
      </trkpt>
      <trkpt lat="43.39307" lon="6.68314">
        <ele>70.393</ele>
        <time>2019-10-12T10:42:31Z</time>
      </trkpt>
      <trkpt lat="43.39317" lon="6.6828">
        <ele>71.054</ele>
        <time>2019-10-12T10:42:39Z</time>
      </trkpt>
      <trkpt lat="43.39312" lon="6.68265">
        <ele>72.099</ele>
        <time>2019-10-12T10:42:45Z</time>
      </trkpt>
      <trkpt lat="43.39285" lon="6.68247">
        <ele>77.23</ele>
        <time>2019-10-12T10:43:00Z</time>
      </trkpt>
      <trkpt lat="43.39273" lon="6.68235">
        <ele>79</ele>
        <time>2019-10-12T10:43:09Z</time>
      </trkpt>
      <trkpt lat="43.39273" lon="6.68196">
        <ele>76.148</ele>
        <time>2019-10-12T10:43:21Z</time>
      </trkpt>
      <trkpt lat="43.39281" lon="6.68172">
        <ele>75.104</ele>
        <time>2019-10-12T10:43:27Z</time>
      </trkpt>
      <trkpt lat="43.39294" lon="6.68145">
        <ele>74.606</ele>
        <time>2019-10-12T10:43:34Z</time>
      </trkpt>
      <trkpt lat="43.39326" lon="6.68095">
        <ele>77.283</ele>
        <time>2019-10-12T10:43:49Z</time>
      </trkpt>
      <trkpt lat="43.39327" lon="6.68025">
        <ele>80.287</ele>
        <time>2019-10-12T10:44:08Z</time>
      </trkpt>
      <trkpt lat="43.39333" lon="6.68013">
        <ele>79.993</ele>
        <time>2019-10-12T10:44:11Z</time>
      </trkpt>
      <trkpt lat="43.39336" lon="6.67996">
        <ele>78.277</ele>
        <time>2019-10-12T10:44:14Z</time>
      </trkpt>
      <trkpt lat="43.39332" lon="6.6797">
        <ele>75.948</ele>
        <time>2019-10-12T10:44:18Z</time>
      </trkpt>
      <trkpt lat="43.39321" lon="6.67948">
        <ele>74.303</ele>
        <time>2019-10-12T10:44:22Z</time>
      </trkpt>
      <trkpt lat="43.39312" lon="6.67909">
        <ele>68.493</ele>
        <time>2019-10-12T10:44:29Z</time>
      </trkpt>
      <trkpt lat="43.393" lon="6.67878">
        <ele>63.478</ele>
        <time>2019-10-12T10:44:38Z</time>
      </trkpt>
      <trkpt lat="43.393" lon="6.67868">
        <ele>62.162</ele>
        <time>2019-10-12T10:44:41Z</time>
      </trkpt>
      <trkpt lat="43.39318" lon="6.67845">
        <ele>58.773</ele>
        <time>2019-10-12T10:44:49Z</time>
      </trkpt>
      <trkpt lat="43.3932" lon="6.67838">
        <ele>57.547</ele>
        <time>2019-10-12T10:44:51Z</time>
      </trkpt>
      <trkpt lat="43.39318" lon="6.67818">
        <ele>54.114</ele>
        <time>2019-10-12T10:44:56Z</time>
      </trkpt>
      <trkpt lat="43.39312" lon="6.67803">
        <ele>51.381</ele>
        <time>2019-10-12T10:45:00Z</time>
      </trkpt>
      <trkpt lat="43.39312" lon="6.67788">
        <ele>48.421</ele>
        <time>2019-10-12T10:45:04Z</time>
      </trkpt>
      <trkpt lat="43.39327" lon="6.67776">
        <ele>46.033</ele>
        <time>2019-10-12T10:45:12Z</time>
      </trkpt>
      <trkpt lat="43.39335" lon="6.67741">
        <ele>40.305</ele>
        <time>2019-10-12T10:45:20Z</time>
      </trkpt>
      <trkpt lat="43.39323" lon="6.67719">
        <ele>37.147</ele>
        <time>2019-10-12T10:45:29Z</time>
      </trkpt>
      <trkpt lat="43.39312" lon="6.67706">
        <ele>33.343</ele>
        <time>2019-10-12T10:45:35Z</time>
      </trkpt>
      <trkpt lat="43.39287" lon="6.67692">
        <ele>27.106</ele>
        <time>2019-10-12T10:45:45Z</time>
      </trkpt>
      <trkpt lat="43.39268" lon="6.67663">
        <ele>22.358</ele>
        <time>2019-10-12T10:45:53Z</time>
      </trkpt>
      <trkpt lat="43.39254" lon="6.67659">
        <ele>21.461</ele>
        <time>2019-10-12T10:45:58Z</time>
      </trkpt>
      <trkpt lat="43.39245" lon="6.67665">
        <ele>21.819</ele>
        <time>2019-10-12T10:46:08Z</time>
      </trkpt>
      <trkpt lat="43.39225" lon="6.67665">
        <ele>21.656</ele>
        <time>2019-10-12T10:47:34Z</time>
      </trkpt>
      <trkpt lat="43.3922" lon="6.67658">
        <ele>21.049</ele>
        <time>2019-10-12T10:47:36Z</time>
      </trkpt>
      <trkpt lat="43.39224" lon="6.67644">
        <ele>19.934</ele>
        <time>2019-10-12T10:47:40Z</time>
      </trkpt>
      <trkpt lat="43.39217" lon="6.67639">
        <ele>19.747</ele>
        <time>2019-10-12T10:47:43Z</time>
      </trkpt>
      <trkpt lat="43.39215" lon="6.67628">
        <ele>20.876</ele>
        <time>2019-10-12T10:47:46Z</time>
      </trkpt>
      <trkpt lat="43.39218" lon="6.67623">
        <ele>21.508</ele>
        <time>2019-10-12T10:47:48Z</time>
      </trkpt>
      <trkpt lat="43.39248" lon="6.67627">
        <ele>20.535</ele>
        <time>2019-10-12T10:47:59Z</time>
      </trkpt>
      <trkpt lat="43.39336" lon="6.67618">
        <ele>22.105</ele>
        <time>2019-10-12T10:48:22Z</time>
      </trkpt>
      <trkpt lat="43.39356" lon="6.67604">
        <ele>21.044</ele>
        <time>2019-10-12T10:48:26Z</time>
      </trkpt>
      <trkpt lat="43.3938" lon="6.67592">
        <ele>19.478</ele>
        <time>2019-10-12T10:48:31Z</time>
      </trkpt>
      <trkpt lat="43.39401" lon="6.67577">
        <ele>20.482</ele>
        <time>2019-10-12T10:48:39Z</time>
      </trkpt>
      <trkpt lat="43.39433" lon="6.67586">
        <ele>20.196</ele>
        <time>2019-10-12T10:48:48Z</time>
      </trkpt>
      <trkpt lat="43.39456" lon="6.67584">
        <ele>20.112</ele>
        <time>2019-10-12T10:48:54Z</time>
      </trkpt>
      <trkpt lat="43.3947" lon="6.67576">
        <ele>19.989</ele>
        <time>2019-10-12T10:48:57Z</time>
      </trkpt>
      <trkpt lat="43.39485" lon="6.67557">
        <ele>19.787</ele>
        <time>2019-10-12T10:49:01Z</time>
      </trkpt>
      <trkpt lat="43.395" lon="6.67553">
        <ele>19.53</ele>
        <time>2019-10-12T10:49:04Z</time>
      </trkpt>
      <trkpt lat="43.39514" lon="6.67554">
        <ele>19.312</ele>
        <time>2019-10-12T10:49:07Z</time>
      </trkpt>
      <trkpt lat="43.39526" lon="6.67534">
        <ele>18.795</ele>
        <time>2019-10-12T10:49:12Z</time>
      </trkpt>
      <trkpt lat="43.39557" lon="6.67508">
        <ele>18.58</ele>
        <time>2019-10-12T10:49:20Z</time>
      </trkpt>
      <trkpt lat="43.39617" lon="6.67485">
        <ele>18</ele>
        <time>2019-10-12T10:49:33Z</time>
      </trkpt>
      <trkpt lat="43.3966" lon="6.67475">
        <ele>18</ele>
        <time>2019-10-12T10:49:42Z</time>
      </trkpt>
      <trkpt lat="43.39688" lon="6.67472">
        <ele>18</ele>
        <time>2019-10-12T10:49:49Z</time>
      </trkpt>
      <trkpt lat="43.39704" lon="6.67475">
        <ele>18</ele>
        <time>2019-10-12T10:49:52Z</time>
      </trkpt>
      <trkpt lat="43.39722" lon="6.67495">
        <ele>17.951</ele>
        <time>2019-10-12T10:49:57Z</time>
      </trkpt>
      <trkpt lat="43.39733" lon="6.67491">
        <ele>17.991</ele>
        <time>2019-10-12T10:50:02Z</time>
      </trkpt>
      <trkpt lat="43.39739" lon="6.67461">
        <ele>18</ele>
        <time>2019-10-12T10:50:08Z</time>
      </trkpt>
      <trkpt lat="43.39738" lon="6.67426">
        <ele>17.994</ele>
        <time>2019-10-12T10:50:16Z</time>
      </trkpt>
      <trkpt lat="43.39744" lon="6.67386">
        <ele>17.97</ele>
        <time>2019-10-12T10:50:23Z</time>
      </trkpt>
      <trkpt lat="43.39747" lon="6.67333">
        <ele>17.416</ele>
        <time>2019-10-12T10:50:32Z</time>
      </trkpt>
      <trkpt lat="43.39739" lon="6.67284">
        <ele>17.253</ele>
        <time>2019-10-12T10:50:41Z</time>
      </trkpt>
      <trkpt lat="43.39723" lon="6.67252">
        <ele>17.309</ele>
        <time>2019-10-12T10:50:49Z</time>
      </trkpt>
      <trkpt lat="43.3968" lon="6.67207">
        <ele>16.365</ele>
        <time>2019-10-12T10:55:38Z</time>
      </trkpt>
      <trkpt lat="43.39659" lon="6.67199">
        <ele>16.043</ele>
        <time>2019-10-12T10:55:44Z</time>
      </trkpt>
      <trkpt lat="43.39627" lon="6.67206">
        <ele>16.426</ele>
        <time>2019-10-12T10:55:52Z</time>
      </trkpt>
      <trkpt lat="43.39585" lon="6.67224">
        <ele>18.229</ele>
        <time>2019-10-12T10:56:03Z</time>
      </trkpt>
      <trkpt lat="43.39572" lon="6.67222">
        <ele>18.78</ele>
        <time>2019-10-12T10:56:06Z</time>
      </trkpt>
      <trkpt lat="43.39564" lon="6.67215">
        <ele>19.067</ele>
        <time>2019-10-12T10:56:08Z</time>
      </trkpt>
      <trkpt lat="43.39527" lon="6.67151">
        <ele>18.406</ele>
        <time>2019-10-12T10:56:23Z</time>
      </trkpt>
      <trkpt lat="43.39496" lon="6.67129">
        <ele>18.046</ele>
        <time>2019-10-12T10:56:32Z</time>
      </trkpt>
      <trkpt lat="43.39491" lon="6.67113">
        <ele>16.921</ele>
        <time>2019-10-12T10:56:35Z</time>
      </trkpt>
      <trkpt lat="43.39486" lon="6.67106">
        <ele>16.431</ele>
        <time>2019-10-12T10:56:37Z</time>
      </trkpt>
      <trkpt lat="43.39453" lon="6.67086">
        <ele>16.427</ele>
        <time>2019-10-12T10:56:49Z</time>
      </trkpt>
      <trkpt lat="43.39419" lon="6.67026">
        <ele>15.705</ele>
        <time>2019-10-12T10:57:05Z</time>
      </trkpt>
      <trkpt lat="43.39405" lon="6.66994">
        <ele>16.019</ele>
        <time>2019-10-12T10:57:12Z</time>
      </trkpt>
      <trkpt lat="43.39385" lon="6.66961">
        <ele>16.806</ele>
        <time>2019-10-12T10:57:20Z</time>
      </trkpt>
      <trkpt lat="43.39352" lon="6.66934">
        <ele>17.835</ele>
        <time>2019-10-12T10:57:29Z</time>
      </trkpt>
      <trkpt lat="43.39301" lon="6.66898">
        <ele>17.304</ele>
        <time>2019-10-12T10:57:43Z</time>
      </trkpt>
      <trkpt lat="43.39287" lon="6.66894">
        <ele>17.456</ele>
        <time>2019-10-12T10:57:46Z</time>
      </trkpt>
      <trkpt lat="43.39277" lon="6.66886">
        <ele>17.304</ele>
        <time>2019-10-12T10:57:48Z</time>
      </trkpt>
      <trkpt lat="43.39264" lon="6.66867">
        <ele>16.518</ele>
        <time>2019-10-12T10:57:51Z</time>
      </trkpt>
      <trkpt lat="43.39242" lon="6.66814">
        <ele>15.202</ele>
        <time>2019-10-12T10:58:01Z</time>
      </trkpt>
      <trkpt lat="43.39276" lon="6.66731">
        <ele>19.265</ele>
        <time>2019-10-12T10:58:21Z</time>
      </trkpt>
      <trkpt lat="43.39282" lon="6.6671">
        <ele>20.937</ele>
        <time>2019-10-12T10:58:29Z</time>
      </trkpt>
      <trkpt lat="43.3928" lon="6.66695">
        <ele>21.709</ele>
        <time>2019-10-12T10:58:36Z</time>
      </trkpt>
      <trkpt lat="43.39266" lon="6.66658">
        <ele>26.654</ele>
        <time>2019-10-12T10:58:54Z</time>
      </trkpt>
      <trkpt lat="43.3927" lon="6.6664">
        <ele>28.577</ele>
        <time>2019-10-12T10:58:58Z</time>
      </trkpt>
      <trkpt lat="43.39299" lon="6.66579">
        <ele>32.53</ele>
        <time>2019-10-12T10:59:13Z</time>
      </trkpt>
      <trkpt lat="43.39313" lon="6.66543">
        <ele>33.196</ele>
        <time>2019-10-12T10:59:18Z</time>
      </trkpt>
      <trkpt lat="43.39323" lon="6.66529">
        <ele>31.789</ele>
        <time>2019-10-12T10:59:21Z</time>
      </trkpt>
      <trkpt lat="43.39327" lon="6.66516">
        <ele>31.483</ele>
        <time>2019-10-12T10:59:25Z</time>
      </trkpt>
      <trkpt lat="43.39334" lon="6.66504">
        <ele>31.184</ele>
        <time>2019-10-12T10:59:32Z</time>
      </trkpt>
      <trkpt lat="43.39364" lon="6.66497">
        <ele>33.353</ele>
        <time>2019-10-12T10:59:51Z</time>
      </trkpt>
      <trkpt lat="43.39456" lon="6.66459">
        <ele>42.792</ele>
        <time>2019-10-12T11:00:34Z</time>
      </trkpt>
      <trkpt lat="43.39534" lon="6.66436">
        <ele>48.608</ele>
        <time>2019-10-12T11:01:13Z</time>
      </trkpt>
      <trkpt lat="43.39568" lon="6.66436">
        <ele>51.885</ele>
        <time>2019-10-12T11:01:30Z</time>
      </trkpt>
      <trkpt lat="43.39595" lon="6.66443">
        <ele>53.425</ele>
        <time>2019-10-12T11:01:39Z</time>
      </trkpt>
      <trkpt lat="43.39645" lon="6.66431">
        <ele>56.206</ele>
        <time>2019-10-12T11:01:57Z</time>
      </trkpt>
      <trkpt lat="43.39659" lon="6.66419">
        <ele>56.504</ele>
        <time>2019-10-12T11:02:04Z</time>
      </trkpt>
      <trkpt lat="43.39677" lon="6.66419">
        <ele>58.678</ele>
        <time>2019-10-12T11:02:13Z</time>
      </trkpt>
      <trkpt lat="43.39699" lon="6.66447">
        <ele>60.904</ele>
        <time>2019-10-12T11:02:27Z</time>
      </trkpt>
      <trkpt lat="43.39703" lon="6.66445">
        <ele>61.231</ele>
        <time>2019-10-12T11:02:29Z</time>
      </trkpt>
      <trkpt lat="43.39699" lon="6.66406">
        <ele>61.308</ele>
        <time>2019-10-12T11:02:42Z</time>
      </trkpt>
      <trkpt lat="43.39708" lon="6.66391">
        <ele>62.325</ele>
        <time>2019-10-12T11:02:49Z</time>
      </trkpt>
      <trkpt lat="43.39726" lon="6.66387">
        <ele>64.68</ele>
        <time>2019-10-12T11:02:58Z</time>
      </trkpt>
      <trkpt lat="43.39759" lon="6.66406">
        <ele>66.432</ele>
        <time>2019-10-12T11:03:17Z</time>
      </trkpt>
      <trkpt lat="43.39777" lon="6.66407">
        <ele>67.081</ele>
        <time>2019-10-12T11:03:27Z</time>
      </trkpt>
      <trkpt lat="43.39787" lon="6.66395">
        <ele>68.155</ele>
        <time>2019-10-12T11:03:34Z</time>
      </trkpt>
      <trkpt lat="43.39797" lon="6.66369">
        <ele>69.607</ele>
        <time>2019-10-12T11:03:45Z</time>
      </trkpt>
      <trkpt lat="43.39801" lon="6.66336">
        <ele>72.817</ele>
        <time>2019-10-12T11:03:56Z</time>
      </trkpt>
      <trkpt lat="43.39793" lon="6.66309">
        <ele>76.449</ele>
        <time>2019-10-12T11:04:03Z</time>
      </trkpt>
      <trkpt lat="43.39777" lon="6.66291">
        <ele>77.295</ele>
        <time>2019-10-12T11:04:12Z</time>
      </trkpt>
      <trkpt lat="43.39765" lon="6.66273">
        <ele>78.275</ele>
        <time>2019-10-12T11:04:21Z</time>
      </trkpt>
      <trkpt lat="43.3977" lon="6.66262">
        <ele>80.207</ele>
        <time>2019-10-12T11:04:26Z</time>
      </trkpt>
      <trkpt lat="43.39788" lon="6.66261">
        <ele>82.43</ele>
        <time>2019-10-12T11:04:36Z</time>
      </trkpt>
      <trkpt lat="43.3979" lon="6.66256">
        <ele>83.309</ele>
        <time>2019-10-12T11:04:39Z</time>
      </trkpt>
      <trkpt lat="43.3977" lon="6.6622">
        <ele>85.141</ele>
        <time>2019-10-12T11:04:57Z</time>
      </trkpt>
      <trkpt lat="43.39771" lon="6.66205">
        <ele>87.018</ele>
        <time>2019-10-12T11:05:03Z</time>
      </trkpt>
      <trkpt lat="43.39782" lon="6.66203">
        <ele>88.733</ele>
        <time>2019-10-12T11:05:09Z</time>
      </trkpt>
      <trkpt lat="43.39799" lon="6.66207">
        <ele>89.922</ele>
        <time>2019-10-12T11:05:19Z</time>
      </trkpt>
      <trkpt lat="43.39818" lon="6.66199">
        <ele>90.746</ele>
        <time>2019-10-12T11:05:29Z</time>
      </trkpt>
      <trkpt lat="43.39836" lon="6.66184">
        <ele>92.9</ele>
        <time>2019-10-12T11:05:38Z</time>
      </trkpt>
      <trkpt lat="43.39869" lon="6.66139">
        <ele>96.47</ele>
        <time>2019-10-12T11:05:55Z</time>
      </trkpt>
      <trkpt lat="43.39923" lon="6.66107">
        <ele>92.94</ele>
        <time>2019-10-12T11:06:09Z</time>
      </trkpt>
      <trkpt lat="43.39951" lon="6.66075">
        <ele>92.832</ele>
        <time>2019-10-12T11:06:18Z</time>
      </trkpt>
      <trkpt lat="43.39972" lon="6.66037">
        <ele>93.726</ele>
        <time>2019-10-12T11:06:27Z</time>
      </trkpt>
      <trkpt lat="43.39986" lon="6.66003">
        <ele>95.126</ele>
        <time>2019-10-12T11:06:35Z</time>
      </trkpt>
      <trkpt lat="43.4002" lon="6.65941">
        <ele>96.611</ele>
        <time>2019-10-12T11:06:51Z</time>
      </trkpt>
      <trkpt lat="43.4003" lon="6.65908">
        <ele>99.009</ele>
        <time>2019-10-12T11:07:00Z</time>
      </trkpt>
      <trkpt lat="43.40062" lon="6.65839">
        <ele>105.973</ele>
        <time>2019-10-12T11:07:27Z</time>
      </trkpt>
      <trkpt lat="43.40084" lon="6.65755">
        <ele>111.898</ele>
        <time>2019-10-12T11:07:57Z</time>
      </trkpt>
      <trkpt lat="43.40093" lon="6.65731">
        <ele>114.877</ele>
        <time>2019-10-12T11:08:06Z</time>
      </trkpt>
      <trkpt lat="43.40105" lon="6.65685">
        <ele>118.313</ele>
        <time>2019-10-12T11:08:23Z</time>
      </trkpt>
      <trkpt lat="43.40119" lon="6.65675">
        <ele>117.188</ele>
        <time>2019-10-12T11:08:29Z</time>
      </trkpt>
      <trkpt lat="43.40124" lon="6.65679">
        <ele>116.221</ele>
        <time>2019-10-12T11:08:31Z</time>
      </trkpt>
      <trkpt lat="43.40128" lon="6.6569">
        <ele>115.174</ele>
        <time>2019-10-12T11:08:34Z</time>
      </trkpt>
      <trkpt lat="43.40133" lon="6.65745">
        <ele>114.472</ele>
        <time>2019-10-12T11:08:51Z</time>
      </trkpt>
      <trkpt lat="43.40129" lon="6.65793">
        <ele>112.913</ele>
        <time>2019-10-12T11:09:04Z</time>
      </trkpt>
      <trkpt lat="43.40134" lon="6.6582">
        <ele>113.705</ele>
        <time>2019-10-12T11:09:08Z</time>
      </trkpt>
      <trkpt lat="43.40152" lon="6.65851">
        <ele>116.86</ele>
        <time>2019-10-12T11:09:14Z</time>
      </trkpt>
      <trkpt lat="43.40155" lon="6.65866">
        <ele>118.254</ele>
        <time>2019-10-12T11:09:17Z</time>
      </trkpt>
      <trkpt lat="43.40154" lon="6.65879">
        <ele>119.091</ele>
        <time>2019-10-12T11:09:21Z</time>
      </trkpt>
      <trkpt lat="43.40149" lon="6.65896">
        <ele>119.379</ele>
        <time>2019-10-12T11:09:28Z</time>
      </trkpt>
      <trkpt lat="43.40144" lon="6.65947">
        <ele>120.995</ele>
        <time>2019-10-12T11:09:43Z</time>
      </trkpt>
      <trkpt lat="43.40144" lon="6.65999">
        <ele>121.492</ele>
        <time>2019-10-12T11:10:00Z</time>
      </trkpt>
      <trkpt lat="43.40155" lon="6.6601">
        <ele>123.47</ele>
        <time>2019-10-12T11:10:08Z</time>
      </trkpt>
      <trkpt lat="43.40182" lon="6.66009">
        <ele>129.109</ele>
        <time>2019-10-12T11:10:29Z</time>
      </trkpt>
      <trkpt lat="43.40194" lon="6.66013">
        <ele>131.219</ele>
        <time>2019-10-12T11:10:39Z</time>
      </trkpt>
      <trkpt lat="43.40212" lon="6.66042">
        <ele>131.252</ele>
        <time>2019-10-12T11:10:52Z</time>
      </trkpt>
      <trkpt lat="43.40285" lon="6.66098">
        <ele>131.287</ele>
        <time>2019-10-12T11:11:12Z</time>
      </trkpt>
      <trkpt lat="43.40298" lon="6.66112">
        <ele>128.718</ele>
        <time>2019-10-12T11:11:16Z</time>
      </trkpt>
      <trkpt lat="43.40307" lon="6.66118">
        <ele>126.975</ele>
        <time>2019-10-12T11:11:18Z</time>
      </trkpt>
      <trkpt lat="43.40327" lon="6.66114">
        <ele>126.292</ele>
        <time>2019-10-12T11:11:21Z</time>
      </trkpt>
      <trkpt lat="43.40347" lon="6.66099">
        <ele>127.813</ele>
        <time>2019-10-12T11:11:24Z</time>
      </trkpt>
      <trkpt lat="43.40369" lon="6.66093">
        <ele>126.684</ele>
        <time>2019-10-12T11:11:27Z</time>
      </trkpt>
      <trkpt lat="43.40383" lon="6.66086">
        <ele>126.68</ele>
        <time>2019-10-12T11:11:29Z</time>
      </trkpt>
      <trkpt lat="43.40411" lon="6.66051">
        <ele>128.51</ele>
        <time>2019-10-12T11:11:36Z</time>
      </trkpt>
      <trkpt lat="43.40422" lon="6.66024">
        <ele>132.23</ele>
        <time>2019-10-12T11:11:41Z</time>
      </trkpt>
      <trkpt lat="43.40428" lon="6.66016">
        <ele>132.999</ele>
        <time>2019-10-12T11:11:43Z</time>
      </trkpt>
      <trkpt lat="43.40436" lon="6.66013">
        <ele>132.973</ele>
        <time>2019-10-12T11:11:45Z</time>
      </trkpt>
      <trkpt lat="43.40469" lon="6.66013">
        <ele>130.911</ele>
        <time>2019-10-12T11:11:57Z</time>
      </trkpt>
      <trkpt lat="43.40485" lon="6.65996">
        <ele>134.164</ele>
        <time>2019-10-12T11:12:05Z</time>
      </trkpt>
      <trkpt lat="43.40503" lon="6.65965">
        <ele>140.298</ele>
        <time>2019-10-12T11:12:15Z</time>
      </trkpt>
      <trkpt lat="43.40513" lon="6.65957">
        <ele>141.235</ele>
        <time>2019-10-12T11:12:19Z</time>
      </trkpt>
      <trkpt lat="43.40518" lon="6.65962">
        <ele>140.315</ele>
        <time>2019-10-12T11:12:21Z</time>
      </trkpt>
      <trkpt lat="43.4053" lon="6.66005">
        <ele>137.429</ele>
        <time>2019-10-12T11:12:32Z</time>
      </trkpt>
      <trkpt lat="43.40549" lon="6.66032">
        <ele>137.148</ele>
        <time>2019-10-12T11:12:41Z</time>
      </trkpt>
      <trkpt lat="43.40567" lon="6.66043">
        <ele>138.87</ele>
        <time>2019-10-12T11:12:49Z</time>
      </trkpt>
      <trkpt lat="43.40591" lon="6.66042">
        <ele>143.337</ele>
        <time>2019-10-12T11:12:59Z</time>
      </trkpt>
      <trkpt lat="43.40634" lon="6.66063">
        <ele>147.373</ele>
        <time>2019-10-12T11:13:17Z</time>
      </trkpt>
      <trkpt lat="43.40659" lon="6.66102">
        <ele>147.579</ele>
        <time>2019-10-12T11:13:32Z</time>
      </trkpt>
      <trkpt lat="43.40676" lon="6.66119">
        <ele>150.044</ele>
        <time>2019-10-12T11:13:42Z</time>
      </trkpt>
      <trkpt lat="43.40704" lon="6.66155">
        <ele>151.108</ele>
        <time>2019-10-12T11:14:01Z</time>
      </trkpt>
      <trkpt lat="43.40721" lon="6.66171">
        <ele>150.043</ele>
        <time>2019-10-12T11:14:11Z</time>
      </trkpt>
      <trkpt lat="43.4074" lon="6.6618">
        <ele>149.996</ele>
        <time>2019-10-12T11:14:19Z</time>
      </trkpt>
      <trkpt lat="43.40757" lon="6.66196">
        <ele>147.649</ele>
        <time>2019-10-12T11:14:25Z</time>
      </trkpt>
      <trkpt lat="43.4077" lon="6.66222">
        <ele>145.486</ele>
        <time>2019-10-12T11:14:31Z</time>
      </trkpt>
      <trkpt lat="43.40795" lon="6.66249">
        <ele>144.753</ele>
        <time>2019-10-12T11:14:37Z</time>
      </trkpt>
      <trkpt lat="43.40866" lon="6.66358">
        <ele>141.784</ele>
        <time>2019-10-12T11:14:52Z</time>
      </trkpt>
      <trkpt lat="43.40908" lon="6.66442">
        <ele>131.44</ele>
        <time>2019-10-12T11:15:02Z</time>
      </trkpt>
      <trkpt lat="43.4092" lon="6.66454">
        <ele>129.331</ele>
        <time>2019-10-12T11:15:04Z</time>
      </trkpt>
      <trkpt lat="43.4096" lon="6.66472">
        <ele>126.7</ele>
        <time>2019-10-12T11:15:09Z</time>
      </trkpt>
      <trkpt lat="43.40992" lon="6.66493">
        <ele>121.63</ele>
        <time>2019-10-12T11:15:13Z</time>
      </trkpt>
      <trkpt lat="43.41046" lon="6.66505">
        <ele>113.475</ele>
        <time>2019-10-12T11:15:19Z</time>
      </trkpt>
      <trkpt lat="43.41074" lon="6.66504">
        <ele>109.203</ele>
        <time>2019-10-12T11:15:22Z</time>
      </trkpt>
      <trkpt lat="43.41092" lon="6.66498">
        <ele>107.483</ele>
        <time>2019-10-12T11:15:24Z</time>
      </trkpt>
      <trkpt lat="43.41106" lon="6.66485">
        <ele>108.029</ele>
        <time>2019-10-12T11:15:26Z</time>
      </trkpt>
      <trkpt lat="43.41112" lon="6.66476">
        <ele>107.719</ele>
        <time>2019-10-12T11:15:27Z</time>
      </trkpt>
      <trkpt lat="43.41135" lon="6.66409">
        <ele>103.211</ele>
        <time>2019-10-12T11:15:33Z</time>
      </trkpt>
      <trkpt lat="43.41181" lon="6.66322">
        <ele>92.649</ele>
        <time>2019-10-12T11:15:41Z</time>
      </trkpt>
      <trkpt lat="43.4121" lon="6.66297">
        <ele>89.605</ele>
        <time>2019-10-12T11:15:45Z</time>
      </trkpt>
      <trkpt lat="43.41227" lon="6.66272">
        <ele>85.461</ele>
        <time>2019-10-12T11:15:48Z</time>
      </trkpt>
      <trkpt lat="43.41253" lon="6.66247">
        <ele>80.458</ele>
        <time>2019-10-12T11:15:52Z</time>
      </trkpt>
      <trkpt lat="43.41275" lon="6.66245">
        <ele>80.708</ele>
        <time>2019-10-12T11:15:55Z</time>
      </trkpt>
      <trkpt lat="43.41323" lon="6.66259">
        <ele>71.374</ele>
        <time>2019-10-12T11:16:02Z</time>
      </trkpt>
      <trkpt lat="43.41339" lon="6.66279">
        <ele>69.78</ele>
        <time>2019-10-12T11:16:05Z</time>
      </trkpt>
      <trkpt lat="43.41345" lon="6.6631">
        <ele>67.679</ele>
        <time>2019-10-12T11:16:08Z</time>
      </trkpt>
      <trkpt lat="43.4134" lon="6.6635">
        <ele>68.064</ele>
        <time>2019-10-12T11:16:12Z</time>
      </trkpt>
      <trkpt lat="43.41353" lon="6.66399">
        <ele>64.456</ele>
        <time>2019-10-12T11:16:19Z</time>
      </trkpt>
      <trkpt lat="43.41363" lon="6.66413">
        <ele>63.208</ele>
        <time>2019-10-12T11:16:24Z</time>
      </trkpt>
      <trkpt lat="43.41422" lon="6.66445">
        <ele>54.102</ele>
        <time>2019-10-12T11:16:39Z</time>
      </trkpt>
      <trkpt lat="43.41429" lon="6.66454">
        <ele>53.171</ele>
        <time>2019-10-12T11:16:41Z</time>
      </trkpt>
      <trkpt lat="43.41438" lon="6.66481">
        <ele>55.106</ele>
        <time>2019-10-12T11:16:45Z</time>
      </trkpt>
      <trkpt lat="43.41442" lon="6.66485">
        <ele>55.249</ele>
        <time>2019-10-12T11:16:46Z</time>
      </trkpt>
      <trkpt lat="43.41461" lon="6.66485">
        <ele>54.121</ele>
        <time>2019-10-12T11:16:50Z</time>
      </trkpt>
      <trkpt lat="43.41528" lon="6.66498">
        <ele>54.221</ele>
        <time>2019-10-12T11:17:11Z</time>
      </trkpt>
      <trkpt lat="43.41547" lon="6.66492">
        <ele>52.074</ele>
        <time>2019-10-12T11:17:18Z</time>
      </trkpt>
      <trkpt lat="43.41571" lon="6.66505">
        <ele>56.935</ele>
        <time>2019-10-12T11:17:29Z</time>
      </trkpt>
      <trkpt lat="43.41591" lon="6.66485">
        <ele>49.539</ele>
        <time>2019-10-12T11:17:37Z</time>
      </trkpt>
      <trkpt lat="43.41612" lon="6.66476">
        <ele>45.647</ele>
        <time>2019-10-12T11:17:42Z</time>
      </trkpt>
      <trkpt lat="43.41624" lon="6.66476">
        <ele>45.61</ele>
        <time>2019-10-12T11:17:44Z</time>
      </trkpt>
      <trkpt lat="43.41631" lon="6.6648">
        <ele>46.502</ele>
        <time>2019-10-12T11:17:45Z</time>
      </trkpt>
      <trkpt lat="43.41638" lon="6.66495">
        <ele>50.17</ele>
        <time>2019-10-12T11:17:47Z</time>
      </trkpt>
      <trkpt lat="43.41641" lon="6.66518">
        <ele>55.775</ele>
        <time>2019-10-12T11:17:50Z</time>
      </trkpt>
      <trkpt lat="43.41644" lon="6.66521">
        <ele>56.664</ele>
        <time>2019-10-12T11:17:51Z</time>
      </trkpt>
      <trkpt lat="43.41684" lon="6.66493">
        <ele>50.933</ele>
        <time>2019-10-12T11:18:02Z</time>
      </trkpt>
      <trkpt lat="43.4174" lon="6.66477">
        <ele>46.071</ele>
        <time>2019-10-12T11:18:14Z</time>
      </trkpt>
      <trkpt lat="43.41748" lon="6.66482">
        <ele>46.638</ele>
        <time>2019-10-12T11:18:16Z</time>
      </trkpt>
      <trkpt lat="43.4175" lon="6.66493">
        <ele>48.705</ele>
        <time>2019-10-12T11:18:18Z</time>
      </trkpt>
      <trkpt lat="43.41741" lon="6.66524">
        <ele>55.413</ele>
        <time>2019-10-12T11:18:24Z</time>
      </trkpt>
      <trkpt lat="43.41744" lon="6.66534">
        <ele>56.809</ele>
        <time>2019-10-12T11:18:26Z</time>
      </trkpt>
      <trkpt lat="43.41756" lon="6.66547">
        <ele>57.09</ele>
        <time>2019-10-12T11:18:30Z</time>
      </trkpt>
      <trkpt lat="43.41762" lon="6.66565">
        <ele>58.753</ele>
        <time>2019-10-12T11:18:34Z</time>
      </trkpt>
      <trkpt lat="43.41772" lon="6.66565">
        <ele>58.735</ele>
        <time>2019-10-12T11:18:37Z</time>
      </trkpt>
      <trkpt lat="43.41806" lon="6.66524">
        <ele>52.69</ele>
        <time>2019-10-12T11:18:48Z</time>
      </trkpt>
      <trkpt lat="43.41831" lon="6.66508">
        <ele>48.942</ele>
        <time>2019-10-12T11:18:53Z</time>
      </trkpt>
      <trkpt lat="43.41844" lon="6.66507">
        <ele>48.334</ele>
        <time>2019-10-12T11:18:55Z</time>
      </trkpt>
      <trkpt lat="43.41869" lon="6.66518">
        <ele>48.718</ele>
        <time>2019-10-12T11:18:59Z</time>
      </trkpt>
      <trkpt lat="43.41887" lon="6.66512">
        <ele>46.609</ele>
        <time>2019-10-12T11:19:02Z</time>
      </trkpt>
      <trkpt lat="43.41899" lon="6.66512">
        <ele>45.756</ele>
        <time>2019-10-12T11:19:04Z</time>
      </trkpt>
      <trkpt lat="43.41912" lon="6.66508">
        <ele>44.049</ele>
        <time>2019-10-12T11:19:06Z</time>
      </trkpt>
      <trkpt lat="43.41994" lon="6.66457">
        <ele>32.036</ele>
        <time>2019-10-12T11:19:16Z</time>
      </trkpt>
      <trkpt lat="43.42007" lon="6.66436">
        <ele>28.453</ele>
        <time>2019-10-12T11:19:19Z</time>
      </trkpt>
      <trkpt lat="43.42038" lon="6.6641">
        <ele>25.018</ele>
        <time>2019-10-12T11:19:23Z</time>
      </trkpt>
      <trkpt lat="43.42115" lon="6.66409">
        <ele>23.552</ele>
        <time>2019-10-12T11:19:32Z</time>
      </trkpt>
      <trkpt lat="43.42145" lon="6.66402">
        <ele>22.184</ele>
        <time>2019-10-12T11:19:36Z</time>
      </trkpt>
      <trkpt lat="43.42166" lon="6.66405">
        <ele>21.877</ele>
        <time>2019-10-12T11:19:39Z</time>
      </trkpt>
      <trkpt lat="43.42192" lon="6.66418">
        <ele>21.699</ele>
        <time>2019-10-12T11:19:43Z</time>
      </trkpt>
      <trkpt lat="43.42229" lon="6.66431">
        <ele>20.837</ele>
        <time>2019-10-12T11:19:48Z</time>
      </trkpt>
      <trkpt lat="43.42252" lon="6.66453">
        <ele>20.883</ele>
        <time>2019-10-12T11:19:52Z</time>
      </trkpt>
      <trkpt lat="43.42274" lon="6.6649">
        <ele>22.033</ele>
        <time>2019-10-12T11:19:59Z</time>
      </trkpt>
      <trkpt lat="43.42286" lon="6.66489">
        <ele>20.991</ele>
        <time>2019-10-12T11:20:03Z</time>
      </trkpt>
      <trkpt lat="43.42298" lon="6.66466">
        <ele>19.498</ele>
        <time>2019-10-12T11:20:07Z</time>
      </trkpt>
      <trkpt lat="43.42308" lon="6.66469">
        <ele>19.232</ele>
        <time>2019-10-12T11:20:10Z</time>
      </trkpt>
      <trkpt lat="43.42346" lon="6.6651">
        <ele>18.08</ele>
        <time>2019-10-12T11:20:21Z</time>
      </trkpt>
      <trkpt lat="43.42383" lon="6.66526">
        <ele>18.503</ele>
        <time>2019-10-12T11:20:28Z</time>
      </trkpt>
      <trkpt lat="43.4244" lon="6.66528">
        <ele>19.981</ele>
        <time>2019-10-12T11:20:38Z</time>
      </trkpt>
      <trkpt lat="43.42451" lon="6.66525">
        <ele>19.977</ele>
        <time>2019-10-12T11:20:40Z</time>
      </trkpt>
      <trkpt lat="43.42542" lon="6.66479">
        <ele>17.455</ele>
        <time>2019-10-12T11:20:59Z</time>
      </trkpt>
      <trkpt lat="43.42593" lon="6.66464">
        <ele>13.842</ele>
        <time>2019-10-12T11:21:10Z</time>
      </trkpt>
      <trkpt lat="43.42601" lon="6.66456">
        <ele>13.275</ele>
        <time>2019-10-12T11:21:12Z</time>
      </trkpt>
      <trkpt lat="43.42603" lon="6.66443">
        <ele>12.758</ele>
        <time>2019-10-12T11:21:14Z</time>
      </trkpt>
      <trkpt lat="43.42589" lon="6.66392">
        <ele>12.529</ele>
        <time>2019-10-12T11:21:22Z</time>
      </trkpt>
      <trkpt lat="43.42583" lon="6.66359">
        <ele>12.868</ele>
        <time>2019-10-12T11:21:28Z</time>
      </trkpt>
      <trkpt lat="43.42585" lon="6.66346">
        <ele>12.895</ele>
        <time>2019-10-12T11:21:30Z</time>
      </trkpt>
      <trkpt lat="43.42616" lon="6.6629">
        <ele>14.175</ele>
        <time>2019-10-12T11:21:41Z</time>
      </trkpt>
      <trkpt lat="43.42642" lon="6.66249">
        <ele>14.902</ele>
        <time>2019-10-12T11:21:50Z</time>
      </trkpt>
      <trkpt lat="43.42692" lon="6.66184">
        <ele>17.385</ele>
        <time>2019-10-12T11:22:05Z</time>
      </trkpt>
      <trkpt lat="43.427" lon="6.66178">
        <ele>17.42</ele>
        <time>2019-10-12T11:22:07Z</time>
      </trkpt>
      <trkpt lat="43.42754" lon="6.66167">
        <ele>15.201</ele>
        <time>2019-10-12T11:22:17Z</time>
      </trkpt>
      <trkpt lat="43.42804" lon="6.66133">
        <ele>14.806</ele>
        <time>2019-10-12T11:22:26Z</time>
      </trkpt>
      <trkpt lat="43.4291" lon="6.66067">
        <ele>17.152</ele>
        <time>2019-10-12T11:22:50Z</time>
      </trkpt>
      <trkpt lat="43.4291" lon="6.66059">
        <ele>17.588</ele>
        <time>2019-10-12T11:22:52Z</time>
      </trkpt>
      <trkpt lat="43.42879" lon="6.66037">
        <ele>19.695</ele>
        <time>2019-10-12T11:23:03Z</time>
      </trkpt>
      <trkpt lat="43.42867" lon="6.66023">
        <ele>20.712</ele>
        <time>2019-10-12T11:23:09Z</time>
      </trkpt>
      <trkpt lat="43.42849" lon="6.65995">
        <ele>25.735</ele>
        <time>2019-10-12T11:23:26Z</time>
      </trkpt>
      <trkpt lat="43.42837" lon="6.6597">
        <ele>31.576</ele>
        <time>2019-10-12T11:23:42Z</time>
      </trkpt>
      <trkpt lat="43.42826" lon="6.65956">
        <ele>34.347</ele>
        <time>2019-10-12T11:23:53Z</time>
      </trkpt>
      <trkpt lat="43.42816" lon="6.65928">
        <ele>36.825</ele>
        <time>2019-10-12T11:24:11Z</time>
      </trkpt>
      <trkpt lat="43.42804" lon="6.65919">
        <ele>38.47</ele>
        <time>2019-10-12T11:24:21Z</time>
      </trkpt>
      <trkpt lat="43.42792" lon="6.6592">
        <ele>39.715</ele>
        <time>2019-10-12T11:24:29Z</time>
      </trkpt>
      <trkpt lat="43.42789" lon="6.65931">
        <ele>40.047</ele>
        <time>2019-10-12T11:24:35Z</time>
      </trkpt>
      <trkpt lat="43.42789" lon="6.65953">
        <ele>39.57</ele>
        <time>2019-10-12T11:24:45Z</time>
      </trkpt>
      <trkpt lat="43.42785" lon="6.65957">
        <ele>39.954</ele>
        <time>2019-10-12T11:24:49Z</time>
      </trkpt>
      <trkpt lat="43.42776" lon="6.65946">
        <ele>41.52</ele>
        <time>2019-10-12T11:24:57Z</time>
      </trkpt>
      <trkpt lat="43.42761" lon="6.65904">
        <ele>41.673</ele>
        <time>2019-10-12T11:25:11Z</time>
      </trkpt>
      <trkpt lat="43.42734" lon="6.65862">
        <ele>41.92</ele>
        <time>2019-10-12T11:25:35Z</time>
      </trkpt>
      <trkpt lat="43.42729" lon="6.65848">
        <ele>42.357</ele>
        <time>2019-10-12T11:25:41Z</time>
      </trkpt>
      <trkpt lat="43.42725" lon="6.65846">
        <ele>42.757</ele>
        <time>2019-10-12T11:25:43Z</time>
      </trkpt>
      <trkpt lat="43.42708" lon="6.65856">
        <ele>43.94</ele>
        <time>2019-10-12T11:25:51Z</time>
      </trkpt>
      <trkpt lat="43.42697" lon="6.65847">
        <ele>45.156</ele>
        <time>2019-10-12T11:25:55Z</time>
      </trkpt>
      <trkpt lat="43.42691" lon="6.65834">
        <ele>46.543</ele>
        <time>2019-10-12T11:25:59Z</time>
      </trkpt>
      <trkpt lat="43.42682" lon="6.6575">
        <ele>54.551</ele>
        <time>2019-10-12T11:26:24Z</time>
      </trkpt>
      <trkpt lat="43.42664" lon="6.65628">
        <ele>62.235</ele>
        <time>2019-10-12T11:27:04Z</time>
      </trkpt>
      <trkpt lat="43.42652" lon="6.65618">
        <ele>63</ele>
        <time>2019-10-12T11:27:11Z</time>
      </trkpt>
      <trkpt lat="43.42626" lon="6.65569">
        <ele>65.966</ele>
        <time>2019-10-12T11:27:36Z</time>
      </trkpt>
      <trkpt lat="43.4261" lon="6.65546">
        <ele>68.088</ele>
        <time>2019-10-12T11:27:47Z</time>
      </trkpt>
      <trkpt lat="43.42609" lon="6.65539">
        <ele>68.595</ele>
        <time>2019-10-12T11:27:49Z</time>
      </trkpt>
      <trkpt lat="43.42611" lon="6.65533">
        <ele>68.935</ele>
        <time>2019-10-12T11:27:51Z</time>
      </trkpt>
      <trkpt lat="43.42624" lon="6.6552">
        <ele>68.973</ele>
        <time>2019-10-12T11:27:58Z</time>
      </trkpt>
      <trkpt lat="43.42655" lon="6.65479">
        <ele>69.533</ele>
        <time>2019-10-12T11:28:15Z</time>
      </trkpt>
      <trkpt lat="43.42677" lon="6.65463">
        <ele>68.91</ele>
        <time>2019-10-12T11:28:23Z</time>
      </trkpt>
      <trkpt lat="43.42689" lon="6.65463">
        <ele>68.257</ele>
        <time>2019-10-12T11:28:26Z</time>
      </trkpt>
      <trkpt lat="43.42697" lon="6.65459">
        <ele>67.907</ele>
        <time>2019-10-12T11:28:28Z</time>
      </trkpt>
      <trkpt lat="43.42714" lon="6.65434">
        <ele>67.589</ele>
        <time>2019-10-12T11:28:37Z</time>
      </trkpt>
      <trkpt lat="43.42712" lon="6.65424">
        <ele>67.316</ele>
        <time>2019-10-12T11:28:40Z</time>
      </trkpt>
      <trkpt lat="43.42709" lon="6.65418">
        <ele>67.224</ele>
        <time>2019-10-12T11:28:42Z</time>
      </trkpt>
      <trkpt lat="43.42685" lon="6.65402">
        <ele>68.465</ele>
        <time>2019-10-12T11:28:52Z</time>
      </trkpt>
      <trkpt lat="43.42638" lon="6.65393">
        <ele>73.303</ele>
        <time>2019-10-12T11:29:10Z</time>
      </trkpt>
      <trkpt lat="43.4262" lon="6.65394">
        <ele>75.575</ele>
        <time>2019-10-12T11:29:17Z</time>
      </trkpt>
      <trkpt lat="43.42594" lon="6.65387">
        <ele>78.358</ele>
        <time>2019-10-12T11:29:27Z</time>
      </trkpt>
      <trkpt lat="43.42511" lon="6.65348">
        <ele>87.016</ele>
        <time>2019-10-12T11:30:04Z</time>
      </trkpt>
      <trkpt lat="43.42495" lon="6.65332">
        <ele>88.645</ele>
        <time>2019-10-12T11:30:13Z</time>
      </trkpt>
      <trkpt lat="43.42482" lon="6.65313">
        <ele>90.85</ele>
        <time>2019-10-12T11:30:21Z</time>
      </trkpt>
      <trkpt lat="43.42474" lon="6.65295">
        <ele>92.706</ele>
        <time>2019-10-12T11:30:29Z</time>
      </trkpt>
      <trkpt lat="43.42415" lon="6.65221">
        <ele>101.433</ele>
        <time>2019-10-12T11:31:19Z</time>
      </trkpt>
      <trkpt lat="43.42407" lon="6.65194">
        <ele>102.107</ele>
        <time>2019-10-12T11:31:33Z</time>
      </trkpt>
      <trkpt lat="43.42369" lon="6.65143">
        <ele>102.544</ele>
        <time>2019-10-12T11:31:50Z</time>
      </trkpt>
      <trkpt lat="43.42358" lon="6.65112">
        <ele>102.254</ele>
        <time>2019-10-12T11:31:58Z</time>
      </trkpt>
      <trkpt lat="43.42291" lon="6.64999">
        <ele>107.621</ele>
        <time>2019-10-12T11:32:41Z</time>
      </trkpt>
      <trkpt lat="43.42279" lon="6.64967">
        <ele>111.654</ele>
        <time>2019-10-12T11:32:55Z</time>
      </trkpt>
      <trkpt lat="43.42268" lon="6.6495">
        <ele>115.004</ele>
        <time>2019-10-12T11:33:02Z</time>
      </trkpt>
      <trkpt lat="43.42249" lon="6.64945">
        <ele>117.208</ele>
        <time>2019-10-12T11:33:08Z</time>
      </trkpt>
      <trkpt lat="43.4221" lon="6.64984">
        <ele>113.948</ele>
        <time>2019-10-12T11:33:25Z</time>
      </trkpt>
      <trkpt lat="43.42199" lon="6.64999">
        <ele>112.291</ele>
        <time>2019-10-12T11:33:30Z</time>
      </trkpt>
      <trkpt lat="43.42192" lon="6.65003">
        <ele>112.188</ele>
        <time>2019-10-12T11:33:32Z</time>
      </trkpt>
      <trkpt lat="43.42185" lon="6.65002">
        <ele>113.033</ele>
        <time>2019-10-12T11:33:34Z</time>
      </trkpt>
      <trkpt lat="43.42151" lon="6.64955">
        <ele>116.732</ele>
        <time>2019-10-12T11:33:47Z</time>
      </trkpt>
      <trkpt lat="43.42133" lon="6.64921">
        <ele>117.593</ele>
        <time>2019-10-12T11:33:55Z</time>
      </trkpt>
      <trkpt lat="43.42123" lon="6.64891">
        <ele>120.031</ele>
        <time>2019-10-12T11:34:02Z</time>
      </trkpt>
      <trkpt lat="43.42113" lon="6.64885">
        <ele>120.103</ele>
        <time>2019-10-12T11:34:05Z</time>
      </trkpt>
      <trkpt lat="43.42083" lon="6.64904">
        <ele>115.75</ele>
        <time>2019-10-12T11:34:14Z</time>
      </trkpt>
      <trkpt lat="43.4206" lon="6.64913">
        <ele>114.037</ele>
        <time>2019-10-12T11:34:20Z</time>
      </trkpt>
      <trkpt lat="43.42044" lon="6.64897">
        <ele>115.662</ele>
        <time>2019-10-12T11:34:25Z</time>
      </trkpt>
      <trkpt lat="43.42008" lon="6.64853">
        <ele>117.545</ele>
        <time>2019-10-12T11:34:37Z</time>
      </trkpt>
      <trkpt lat="43.41991" lon="6.64838">
        <ele>116.809</ele>
        <time>2019-10-12T11:34:42Z</time>
      </trkpt>
      <trkpt lat="43.41954" lon="6.64797">
        <ele>115.826</ele>
        <time>2019-10-12T11:34:53Z</time>
      </trkpt>
      <trkpt lat="43.41934" lon="6.64789">
        <ele>112.625</ele>
        <time>2019-10-12T11:34:58Z</time>
      </trkpt>
      <trkpt lat="43.41922" lon="6.64779">
        <ele>111.919</ele>
        <time>2019-10-12T11:35:01Z</time>
      </trkpt>
      <trkpt lat="43.41903" lon="6.64745">
        <ele>111.813</ele>
        <time>2019-10-12T11:35:08Z</time>
      </trkpt>
      <trkpt lat="43.41894" lon="6.64713">
        <ele>112.211</ele>
        <time>2019-10-12T11:35:13Z</time>
      </trkpt>
      <trkpt lat="43.41894" lon="6.64699">
        <ele>113.209</ele>
        <time>2019-10-12T11:35:15Z</time>
      </trkpt>
      <trkpt lat="43.41898" lon="6.64687">
        <ele>114.37</ele>
        <time>2019-10-12T11:35:17Z</time>
      </trkpt>
      <trkpt lat="43.41916" lon="6.64651">
        <ele>115.802</ele>
        <time>2019-10-12T11:35:23Z</time>
      </trkpt>
      <trkpt lat="43.41922" lon="6.64618">
        <ele>114.576</ele>
        <time>2019-10-12T11:35:28Z</time>
      </trkpt>
      <trkpt lat="43.41931" lon="6.64602">
        <ele>114.624</ele>
        <time>2019-10-12T11:35:31Z</time>
      </trkpt>
      <trkpt lat="43.41958" lon="6.64582">
        <ele>117.256</ele>
        <time>2019-10-12T11:35:37Z</time>
      </trkpt>
      <trkpt lat="43.41983" lon="6.64514">
        <ele>120.217</ele>
        <time>2019-10-12T11:35:49Z</time>
      </trkpt>
      <trkpt lat="43.4198" lon="6.64503">
        <ele>121.112</ele>
        <time>2019-10-12T11:35:51Z</time>
      </trkpt>
      <trkpt lat="43.41941" lon="6.645">
        <ele>118.378</ele>
        <time>2019-10-12T11:36:01Z</time>
      </trkpt>
      <trkpt lat="43.41921" lon="6.64512">
        <ele>114.592</ele>
        <time>2019-10-12T11:36:06Z</time>
      </trkpt>
      <trkpt lat="43.41903" lon="6.64515">
        <ele>112.404</ele>
        <time>2019-10-12T11:36:10Z</time>
      </trkpt>
      <trkpt lat="43.41894" lon="6.64511">
        <ele>111.952</ele>
        <time>2019-10-12T11:36:12Z</time>
      </trkpt>
      <trkpt lat="43.41888" lon="6.64501">
        <ele>112.544</ele>
        <time>2019-10-12T11:36:14Z</time>
      </trkpt>
      <trkpt lat="43.41882" lon="6.64482">
        <ele>115.39</ele>
        <time>2019-10-12T11:36:17Z</time>
      </trkpt>
      <trkpt lat="43.41874" lon="6.64473">
        <ele>117.29</ele>
        <time>2019-10-12T11:36:19Z</time>
      </trkpt>
      <trkpt lat="43.4187" lon="6.64473">
        <ele>117.53</ele>
        <time>2019-10-12T11:36:20Z</time>
      </trkpt>
      <trkpt lat="43.41847" lon="6.64508">
        <ele>114.344</ele>
        <time>2019-10-12T11:36:27Z</time>
      </trkpt>
      <trkpt lat="43.41824" lon="6.64526">
        <ele>111.52</ele>
        <time>2019-10-12T11:36:33Z</time>
      </trkpt>
      <trkpt lat="43.41797" lon="6.6453">
        <ele>111.712</ele>
        <time>2019-10-12T11:36:39Z</time>
      </trkpt>
      <trkpt lat="43.4178" lon="6.64526">
        <ele>111.978</ele>
        <time>2019-10-12T11:36:43Z</time>
      </trkpt>
      <trkpt lat="43.41758" lon="6.64509">
        <ele>113.425</ele>
        <time>2019-10-12T11:36:48Z</time>
      </trkpt>
      <trkpt lat="43.41741" lon="6.64505">
        <ele>112.197</ele>
        <time>2019-10-12T11:36:51Z</time>
      </trkpt>
      <trkpt lat="43.41736" lon="6.64501">
        <ele>112.196</ele>
        <time>2019-10-12T11:36:52Z</time>
      </trkpt>
      <trkpt lat="43.41714" lon="6.64454">
        <ele>114.931</ele>
        <time>2019-10-12T11:36:59Z</time>
      </trkpt>
      <trkpt lat="43.41704" lon="6.64445">
        <ele>114.722</ele>
        <time>2019-10-12T11:37:01Z</time>
      </trkpt>
      <trkpt lat="43.41677" lon="6.6445">
        <ele>111.267</ele>
        <time>2019-10-12T11:37:06Z</time>
      </trkpt>
      <trkpt lat="43.41666" lon="6.64436">
        <ele>112.849</ele>
        <time>2019-10-12T11:37:09Z</time>
      </trkpt>
      <trkpt lat="43.41656" lon="6.64436">
        <ele>111.775</ele>
        <time>2019-10-12T11:37:11Z</time>
      </trkpt>
      <trkpt lat="43.41645" lon="6.64453">
        <ele>105.666</ele>
        <time>2019-10-12T11:37:15Z</time>
      </trkpt>
      <trkpt lat="43.41636" lon="6.6445">
        <ele>104.736</ele>
        <time>2019-10-12T11:37:18Z</time>
      </trkpt>
      <trkpt lat="43.41618" lon="6.64429">
        <ele>108.627</ele>
        <time>2019-10-12T11:37:23Z</time>
      </trkpt>
      <trkpt lat="43.41598" lon="6.64414">
        <ele>107.707</ele>
        <time>2019-10-12T11:37:27Z</time>
      </trkpt>
      <trkpt lat="43.41545" lon="6.6439">
        <ele>107.14</ele>
        <time>2019-10-12T11:37:37Z</time>
      </trkpt>
      <trkpt lat="43.41517" lon="6.64384">
        <ele>104.341</ele>
        <time>2019-10-12T11:37:42Z</time>
      </trkpt>
      <trkpt lat="43.41476" lon="6.64348">
        <ele>104.003</ele>
        <time>2019-10-12T11:37:50Z</time>
      </trkpt>
      <trkpt lat="43.41469" lon="6.64336">
        <ele>102.986</ele>
        <time>2019-10-12T11:37:52Z</time>
      </trkpt>
      <trkpt lat="43.41463" lon="6.64307">
        <ele>104.723</ele>
        <time>2019-10-12T11:37:56Z</time>
      </trkpt>
      <trkpt lat="43.41463" lon="6.6426">
        <ele>105.787</ele>
        <time>2019-10-12T11:38:02Z</time>
      </trkpt>
      <trkpt lat="43.41465" lon="6.64233">
        <ele>104.835</ele>
        <time>2019-10-12T11:38:06Z</time>
      </trkpt>
      <trkpt lat="43.41464" lon="6.64213">
        <ele>105.866</ele>
        <time>2019-10-12T11:38:09Z</time>
      </trkpt>
      <trkpt lat="43.41456" lon="6.64207">
        <ele>105.551</ele>
        <time>2019-10-12T11:38:11Z</time>
      </trkpt>
      <trkpt lat="43.41435" lon="6.64229">
        <ele>101.23</ele>
        <time>2019-10-12T11:38:17Z</time>
      </trkpt>
      <trkpt lat="43.41427" lon="6.64232">
        <ele>101.2</ele>
        <time>2019-10-12T11:38:19Z</time>
      </trkpt>
      <trkpt lat="43.41412" lon="6.64231">
        <ele>101.275</ele>
        <time>2019-10-12T11:38:22Z</time>
      </trkpt>
      <trkpt lat="43.41391" lon="6.64208">
        <ele>103.43</ele>
        <time>2019-10-12T11:38:27Z</time>
      </trkpt>
      <trkpt lat="43.41366" lon="6.64197">
        <ele>103.209</ele>
        <time>2019-10-12T11:38:32Z</time>
      </trkpt>
      <trkpt lat="43.41319" lon="6.64159">
        <ele>103.945</ele>
        <time>2019-10-12T11:38:42Z</time>
      </trkpt>
      <trkpt lat="43.41298" lon="6.64134">
        <ele>105.483</ele>
        <time>2019-10-12T11:38:48Z</time>
      </trkpt>
      <trkpt lat="43.41277" lon="6.64135">
        <ele>105.197</ele>
        <time>2019-10-12T11:38:53Z</time>
      </trkpt>
      <trkpt lat="43.41258" lon="6.64127">
        <ele>107.157</ele>
        <time>2019-10-12T11:38:58Z</time>
      </trkpt>
      <trkpt lat="43.41201" lon="6.64112">
        <ele>112.354</ele>
        <time>2019-10-12T11:39:16Z</time>
      </trkpt>
      <trkpt lat="43.41134" lon="6.6409">
        <ele>115.26</ele>
        <time>2019-10-12T11:39:37Z</time>
      </trkpt>
      <trkpt lat="43.41053" lon="6.64086">
        <ele>116.795</ele>
        <time>2019-10-12T11:40:02Z</time>
      </trkpt>
      <trkpt lat="43.40986" lon="6.64068">
        <ele>117.153</ele>
        <time>2019-10-12T11:40:27Z</time>
      </trkpt>
      <trkpt lat="43.40963" lon="6.64049">
        <ele>119.637</ele>
        <time>2019-10-12T11:40:37Z</time>
      </trkpt>
      <trkpt lat="43.40947" lon="6.64039">
        <ele>121.545</ele>
        <time>2019-10-12T11:40:44Z</time>
      </trkpt>
      <trkpt lat="43.40918" lon="6.64033">
        <ele>123.388</ele>
        <time>2019-10-12T11:40:54Z</time>
      </trkpt>
      <trkpt lat="43.40894" lon="6.64037">
        <ele>124.269</ele>
        <time>2019-10-12T11:41:02Z</time>
      </trkpt>
      <trkpt lat="43.40857" lon="6.64054">
        <ele>121.913</ele>
        <time>2019-10-12T11:41:15Z</time>
      </trkpt>
      <trkpt lat="43.40798" lon="6.64069">
        <ele>127.574</ele>
        <time>2019-10-12T11:41:36Z</time>
      </trkpt>
      <trkpt lat="43.40757" lon="6.64072">
        <ele>129.922</ele>
        <time>2019-10-12T11:41:50Z</time>
      </trkpt>
      <trkpt lat="43.40733" lon="6.64067">
        <ele>131.049</ele>
        <time>2019-10-12T11:41:59Z</time>
      </trkpt>
      <trkpt lat="43.40721" lon="6.64053">
        <ele>131.476</ele>
        <time>2019-10-12T11:42:05Z</time>
      </trkpt>
      <trkpt lat="43.40673" lon="6.63974">
        <ele>143.629</ele>
        <time>2019-10-12T11:42:40Z</time>
      </trkpt>
      <trkpt lat="43.40666" lon="6.63979">
        <ele>143.823</ele>
        <time>2019-10-12T11:42:43Z</time>
      </trkpt>
      <trkpt lat="43.40662" lon="6.63992">
        <ele>142.896</ele>
        <time>2019-10-12T11:42:47Z</time>
      </trkpt>
      <trkpt lat="43.40657" lon="6.64027">
        <ele>139.925</ele>
        <time>2019-10-12T11:42:58Z</time>
      </trkpt>
      <trkpt lat="43.4064" lon="6.64039">
        <ele>142.339</ele>
        <time>2019-10-12T11:43:05Z</time>
      </trkpt>
      <trkpt lat="43.40603" lon="6.6404">
        <ele>150.079</ele>
        <time>2019-10-12T11:43:23Z</time>
      </trkpt>
      <trkpt lat="43.40574" lon="6.64032">
        <ele>154.748</ele>
        <time>2019-10-12T11:43:40Z</time>
      </trkpt>
      <trkpt lat="43.40504" lon="6.6403">
        <ele>159.721</ele>
        <time>2019-10-12T11:44:23Z</time>
      </trkpt>
      <trkpt lat="43.40465" lon="6.64041">
        <ele>160.052</ele>
        <time>2019-10-12T11:44:44Z</time>
      </trkpt>
      <trkpt lat="43.40417" lon="6.64043">
        <ele>166.234</ele>
        <time>2019-10-12T11:45:06Z</time>
      </trkpt>
      <trkpt lat="43.40386" lon="6.64053">
        <ele>165.457</ele>
        <time>2019-10-12T11:45:22Z</time>
      </trkpt>
      <trkpt lat="43.40349" lon="6.64045">
        <ele>169.977</ele>
        <time>2019-10-12T11:45:44Z</time>
      </trkpt>
      <trkpt lat="43.40307" lon="6.64057">
        <ele>167.258</ele>
        <time>2019-10-12T11:46:06Z</time>
      </trkpt>
      <trkpt lat="43.40272" lon="6.6405">
        <ele>169.145</ele>
        <time>2019-10-12T11:46:22Z</time>
      </trkpt>
      <trkpt lat="43.40245" lon="6.64058">
        <ele>167.947</ele>
        <time>2019-10-12T11:46:36Z</time>
      </trkpt>
      <trkpt lat="43.40229" lon="6.64056">
        <ele>169.516</ele>
        <time>2019-10-12T11:46:45Z</time>
      </trkpt>
      <trkpt lat="43.40212" lon="6.6405">
        <ele>172.519</ele>
        <time>2019-10-12T11:46:54Z</time>
      </trkpt>
      <trkpt lat="43.40188" lon="6.64037">
        <ele>178.43</ele>
        <time>2019-10-12T11:47:06Z</time>
      </trkpt>
      <trkpt lat="43.40177" lon="6.6404">
        <ele>179.749</ele>
        <time>2019-10-12T11:47:11Z</time>
      </trkpt>
      <trkpt lat="43.40148" lon="6.64069">
        <ele>180.021</ele>
        <time>2019-10-12T11:47:31Z</time>
      </trkpt>
      <trkpt lat="43.40083" lon="6.64098">
        <ele>189.178</ele>
        <time>2019-10-12T11:48:08Z</time>
      </trkpt>
      <trkpt lat="43.40066" lon="6.64112">
        <ele>190.086</ele>
        <time>2019-10-12T11:48:19Z</time>
      </trkpt>
      <trkpt lat="43.40034" lon="6.6416">
        <ele>189.164</ele>
        <time>2019-10-12T11:59:12Z</time>
      </trkpt>
      <trkpt lat="43.4003" lon="6.64159">
        <ele>189.167</ele>
        <time>2019-10-12T11:59:42Z</time>
      </trkpt>
      <trkpt lat="43.40031" lon="6.6416">
        <ele>189.11</ele>
        <time>2019-10-12T12:01:00Z</time>
      </trkpt>
      <trkpt lat="43.39995" lon="6.64142">
        <ele>187.498</ele>
        <time>2019-10-12T12:01:22Z</time>
      </trkpt>
      <trkpt lat="43.39955" lon="6.64115">
        <ele>183.404</ele>
        <time>2019-10-12T12:01:29Z</time>
      </trkpt>
      <trkpt lat="43.39939" lon="6.64094">
        <ele>184.05</ele>
        <time>2019-10-12T12:01:32Z</time>
      </trkpt>
      <trkpt lat="43.39913" lon="6.64079">
        <ele>182.061</ele>
        <time>2019-10-12T12:01:36Z</time>
      </trkpt>
      <trkpt lat="43.39885" lon="6.64048">
        <ele>182.614</ele>
        <time>2019-10-12T12:01:42Z</time>
      </trkpt>
      <trkpt lat="43.39874" lon="6.64044">
        <ele>183.052</ele>
        <time>2019-10-12T12:01:44Z</time>
      </trkpt>
      <trkpt lat="43.39869" lon="6.64047">
        <ele>183.28</ele>
        <time>2019-10-12T12:01:45Z</time>
      </trkpt>
      <trkpt lat="43.39857" lon="6.64062">
        <ele>181.291</ele>
        <time>2019-10-12T12:01:48Z</time>
      </trkpt>
      <trkpt lat="43.39847" lon="6.6407">
        <ele>180.376</ele>
        <time>2019-10-12T12:01:50Z</time>
      </trkpt>
      <trkpt lat="43.39832" lon="6.64075">
        <ele>179.947</ele>
        <time>2019-10-12T12:01:53Z</time>
      </trkpt>
      <trkpt lat="43.39788" lon="6.64073">
        <ele>180.241</ele>
        <time>2019-10-12T12:02:03Z</time>
      </trkpt>
      <trkpt lat="43.39745" lon="6.64049">
        <ele>186.796</ele>
        <time>2019-10-12T12:02:14Z</time>
      </trkpt>
      <trkpt lat="43.39708" lon="6.64053">
        <ele>183.704</ele>
        <time>2019-10-12T12:02:28Z</time>
      </trkpt>
      <trkpt lat="43.39694" lon="6.64049">
        <ele>183.932</ele>
        <time>2019-10-12T12:02:31Z</time>
      </trkpt>
      <trkpt lat="43.39655" lon="6.64024">
        <ele>185.981</ele>
        <time>2019-10-12T12:02:39Z</time>
      </trkpt>
      <trkpt lat="43.39631" lon="6.64019">
        <ele>185.769</ele>
        <time>2019-10-12T12:02:48Z</time>
      </trkpt>
      <trkpt lat="43.39617" lon="6.64008">
        <ele>186.352</ele>
        <time>2019-10-12T12:02:55Z</time>
      </trkpt>
      <trkpt lat="43.39606" lon="6.63985">
        <ele>186.598</ele>
        <time>2019-10-12T12:03:03Z</time>
      </trkpt>
      <trkpt lat="43.39597" lon="6.63951">
        <ele>189.253</ele>
        <time>2019-10-12T12:03:11Z</time>
      </trkpt>
      <trkpt lat="43.39583" lon="6.6393">
        <ele>190.946</ele>
        <time>2019-10-12T12:03:17Z</time>
      </trkpt>
      <trkpt lat="43.39562" lon="6.63924">
        <ele>191.158</ele>
        <time>2019-10-12T12:03:22Z</time>
      </trkpt>
      <trkpt lat="43.39553" lon="6.63928">
        <ele>191.122</ele>
        <time>2019-10-12T12:03:24Z</time>
      </trkpt>
      <trkpt lat="43.39538" lon="6.63947">
        <ele>187.348</ele>
        <time>2019-10-12T12:03:29Z</time>
      </trkpt>
      <trkpt lat="43.39512" lon="6.63959">
        <ele>185.594</ele>
        <time>2019-10-12T12:03:36Z</time>
      </trkpt>
      <trkpt lat="43.39501" lon="6.63961">
        <ele>185.304</ele>
        <time>2019-10-12T12:03:39Z</time>
      </trkpt>
      <trkpt lat="43.39487" lon="6.63956">
        <ele>187.058</ele>
        <time>2019-10-12T12:03:42Z</time>
      </trkpt>
      <trkpt lat="43.39471" lon="6.63941">
        <ele>191.772</ele>
        <time>2019-10-12T12:03:47Z</time>
      </trkpt>
      <trkpt lat="43.39453" lon="6.6394">
        <ele>191.509</ele>
        <time>2019-10-12T12:03:54Z</time>
      </trkpt>
      <trkpt lat="43.39438" lon="6.63949">
        <ele>187.58</ele>
        <time>2019-10-12T12:03:59Z</time>
      </trkpt>
      <trkpt lat="43.39429" lon="6.63949">
        <ele>187.49</ele>
        <time>2019-10-12T12:04:01Z</time>
      </trkpt>
      <trkpt lat="43.3938" lon="6.63935">
        <ele>194.961</ele>
        <time>2019-10-12T12:04:17Z</time>
      </trkpt>
      <trkpt lat="43.39362" lon="6.63935">
        <ele>196.913</ele>
        <time>2019-10-12T12:04:25Z</time>
      </trkpt>
      <trkpt lat="43.39325" lon="6.63946">
        <ele>200.354</ele>
        <time>2019-10-12T12:04:44Z</time>
      </trkpt>
      <trkpt lat="43.39297" lon="6.63961">
        <ele>205.512</ele>
        <time>2019-10-12T12:04:56Z</time>
      </trkpt>
      <trkpt lat="43.39283" lon="6.63978">
        <ele>205.769</ele>
        <time>2019-10-12T12:05:04Z</time>
      </trkpt>
      <trkpt lat="43.39276" lon="6.64003">
        <ele>204.385</ele>
        <time>2019-10-12T12:05:13Z</time>
      </trkpt>
      <trkpt lat="43.39265" lon="6.64008">
        <ele>204.827</ele>
        <time>2019-10-12T12:05:19Z</time>
      </trkpt>
      <trkpt lat="43.39212" lon="6.63984">
        <ele>209.631</ele>
        <time>2019-10-12T12:05:45Z</time>
      </trkpt>
      <trkpt lat="43.392" lon="6.63966">
        <ele>211.024</ele>
        <time>2019-10-12T12:05:53Z</time>
      </trkpt>
      <trkpt lat="43.39202" lon="6.63942">
        <ele>212.443</ele>
        <time>2019-10-12T12:05:59Z</time>
      </trkpt>
      <trkpt lat="43.39228" lon="6.6388">
        <ele>213.463</ele>
        <time>2019-10-12T12:06:09Z</time>
      </trkpt>
      <trkpt lat="43.39228" lon="6.63871">
        <ele>213.556</ele>
        <time>2019-10-12T12:06:10Z</time>
      </trkpt>
      <trkpt lat="43.39209" lon="6.63802">
        <ele>205.253</ele>
        <time>2019-10-12T12:06:17Z</time>
      </trkpt>
      <trkpt lat="43.39163" lon="6.63706">
        <ele>192.051</ele>
        <time>2019-10-12T12:06:26Z</time>
      </trkpt>
      <trkpt lat="43.39151" lon="6.63673">
        <ele>189.862</ele>
        <time>2019-10-12T12:06:31Z</time>
      </trkpt>
      <trkpt lat="43.39144" lon="6.63676">
        <ele>188.376</ele>
        <time>2019-10-12T12:06:33Z</time>
      </trkpt>
      <trkpt lat="43.3914" lon="6.63686">
        <ele>187.222</ele>
        <time>2019-10-12T12:06:35Z</time>
      </trkpt>
      <trkpt lat="43.39139" lon="6.63698">
        <ele>186.241</ele>
        <time>2019-10-12T12:06:37Z</time>
      </trkpt>
      <trkpt lat="43.39158" lon="6.63756">
        <ele>188.825</ele>
        <time>2019-10-12T12:06:46Z</time>
      </trkpt>
      <trkpt lat="43.3916" lon="6.63799">
        <ele>189.481</ele>
        <time>2019-10-12T12:06:52Z</time>
      </trkpt>
      <trkpt lat="43.39154" lon="6.63811">
        <ele>189.687</ele>
        <time>2019-10-12T12:06:54Z</time>
      </trkpt>
      <trkpt lat="43.39142" lon="6.63815">
        <ele>188.911</ele>
        <time>2019-10-12T12:06:57Z</time>
      </trkpt>
      <trkpt lat="43.39118" lon="6.63815">
        <ele>186.174</ele>
        <time>2019-10-12T12:07:03Z</time>
      </trkpt>
      <trkpt lat="43.39109" lon="6.63822">
        <ele>187.037</ele>
        <time>2019-10-12T12:07:05Z</time>
      </trkpt>
      <trkpt lat="43.39098" lon="6.63838">
        <ele>189.655</ele>
        <time>2019-10-12T12:07:08Z</time>
      </trkpt>
      <trkpt lat="43.39082" lon="6.63843">
        <ele>189.385</ele>
        <time>2019-10-12T12:07:11Z</time>
      </trkpt>
      <trkpt lat="43.39069" lon="6.63838">
        <ele>187.36</ele>
        <time>2019-10-12T12:07:14Z</time>
      </trkpt>
      <trkpt lat="43.3906" lon="6.63831">
        <ele>185.658</ele>
        <time>2019-10-12T12:07:16Z</time>
      </trkpt>
      <trkpt lat="43.39019" lon="6.63781">
        <ele>176.603</ele>
        <time>2019-10-12T12:07:24Z</time>
      </trkpt>
      <trkpt lat="43.38992" lon="6.63742">
        <ele>169.777</ele>
        <time>2019-10-12T12:07:29Z</time>
      </trkpt>
      <trkpt lat="43.3896" lon="6.63721">
        <ele>166.954</ele>
        <time>2019-10-12T12:07:34Z</time>
      </trkpt>
      <trkpt lat="43.38948" lon="6.63706">
        <ele>165.854</ele>
        <time>2019-10-12T12:07:36Z</time>
      </trkpt>
      <trkpt lat="43.38941" lon="6.63687">
        <ele>164.598</ele>
        <time>2019-10-12T12:07:38Z</time>
      </trkpt>
      <trkpt lat="43.38929" lon="6.63632">
        <ele>162.17</ele>
        <time>2019-10-12T12:07:43Z</time>
      </trkpt>
      <trkpt lat="43.38902" lon="6.63564">
        <ele>159.721</ele>
        <time>2019-10-12T12:07:49Z</time>
      </trkpt>
      <trkpt lat="43.38868" lon="6.63515">
        <ele>154.79</ele>
        <time>2019-10-12T12:07:55Z</time>
      </trkpt>
      <trkpt lat="43.38862" lon="6.63509">
        <ele>154.087</ele>
        <time>2019-10-12T12:07:56Z</time>
      </trkpt>
      <trkpt lat="43.38839" lon="6.63501">
        <ele>152.517</ele>
        <time>2019-10-12T12:07:59Z</time>
      </trkpt>
      <trkpt lat="43.38791" lon="6.63501">
        <ele>148.585</ele>
        <time>2019-10-12T12:08:05Z</time>
      </trkpt>
      <trkpt lat="43.38777" lon="6.63487">
        <ele>146.553</ele>
        <time>2019-10-12T12:08:08Z</time>
      </trkpt>
      <trkpt lat="43.38765" lon="6.63481">
        <ele>144.574</ele>
        <time>2019-10-12T12:08:10Z</time>
      </trkpt>
      <trkpt lat="43.38753" lon="6.63481">
        <ele>142.698</ele>
        <time>2019-10-12T12:08:12Z</time>
      </trkpt>
      <trkpt lat="43.38744" lon="6.63485">
        <ele>141.422</ele>
        <time>2019-10-12T12:08:14Z</time>
      </trkpt>
      <trkpt lat="43.38724" lon="6.63509">
        <ele>137.428</ele>
        <time>2019-10-12T12:08:22Z</time>
      </trkpt>
      <trkpt lat="43.38673" lon="6.6348">
        <ele>127.954</ele>
        <time>2019-10-12T12:08:34Z</time>
      </trkpt>
      <trkpt lat="43.38666" lon="6.63472">
        <ele>127.262</ele>
        <time>2019-10-12T12:08:36Z</time>
      </trkpt>
      <trkpt lat="43.38656" lon="6.63447">
        <ele>124.937</ele>
        <time>2019-10-12T12:08:40Z</time>
      </trkpt>
      <trkpt lat="43.38644" lon="6.63403">
        <ele>118.052</ele>
        <time>2019-10-12T12:08:46Z</time>
      </trkpt>
      <trkpt lat="43.38639" lon="6.63395">
        <ele>115.916</ele>
        <time>2019-10-12T12:08:48Z</time>
      </trkpt>
      <trkpt lat="43.38626" lon="6.63392">
        <ele>112.392</ele>
        <time>2019-10-12T12:08:54Z</time>
      </trkpt>
      <trkpt lat="43.38614" lon="6.63403">
        <ele>110.752</ele>
        <time>2019-10-12T12:09:00Z</time>
      </trkpt>
      <trkpt lat="43.38566" lon="6.63395">
        <ele>101.8</ele>
        <time>2019-10-12T12:09:16Z</time>
      </trkpt>
      <trkpt lat="43.3855" lon="6.63387">
        <ele>100.322</ele>
        <time>2019-10-12T12:09:21Z</time>
      </trkpt>
      <trkpt lat="43.38543" lon="6.63391">
        <ele>100.071</ele>
        <time>2019-10-12T12:09:23Z</time>
      </trkpt>
      <trkpt lat="43.38528" lon="6.6341">
        <ele>100.536</ele>
        <time>2019-10-12T12:09:29Z</time>
      </trkpt>
      <trkpt lat="43.38506" lon="6.63428">
        <ele>100.492</ele>
        <time>2019-10-12T12:09:35Z</time>
      </trkpt>
      <trkpt lat="43.38478" lon="6.63466">
        <ele>101.395</ele>
        <time>2019-10-12T12:09:43Z</time>
      </trkpt>
      <trkpt lat="43.38433" lon="6.63516">
        <ele>99.743</ele>
        <time>2019-10-12T12:09:54Z</time>
      </trkpt>
      <trkpt lat="43.38427" lon="6.63528">
        <ele>98.929</ele>
        <time>2019-10-12T12:09:56Z</time>
      </trkpt>
      <trkpt lat="43.38416" lon="6.63569">
        <ele>95.961</ele>
        <time>2019-10-12T12:10:02Z</time>
      </trkpt>
      <trkpt lat="43.38371" lon="6.63635">
        <ele>94.187</ele>
        <time>2019-10-12T12:10:15Z</time>
      </trkpt>
      <trkpt lat="43.38355" lon="6.63647">
        <ele>93.985</ele>
        <time>2019-10-12T12:10:19Z</time>
      </trkpt>
      <trkpt lat="43.38343" lon="6.6365">
        <ele>93.162</ele>
        <time>2019-10-12T12:10:24Z</time>
      </trkpt>
      <trkpt lat="43.38292" lon="6.63706">
        <ele>89.716</ele>
        <time>2019-10-12T12:10:55Z</time>
      </trkpt>
      <trkpt lat="43.38279" lon="6.63716">
        <ele>89.736</ele>
        <time>2019-10-12T12:11:03Z</time>
      </trkpt>
      <trkpt lat="43.38261" lon="6.63722">
        <ele>89.426</ele>
        <time>2019-10-12T12:11:13Z</time>
      </trkpt>
      <trkpt lat="43.38262" lon="6.6372">
        <ele>89.667</ele>
        <time>2019-10-12T12:12:19Z</time>
      </trkpt>
      <trkpt lat="43.38229" lon="6.63706">
        <ele>92.324</ele>
        <time>2019-10-12T12:12:35Z</time>
      </trkpt>
      <trkpt lat="43.38183" lon="6.63668">
        <ele>91.888</ele>
        <time>2019-10-12T12:12:51Z</time>
      </trkpt>
      <trkpt lat="43.38166" lon="6.63639">
        <ele>96.728</ele>
        <time>2019-10-12T12:12:57Z</time>
      </trkpt>
      <trkpt lat="43.38161" lon="6.63612">
        <ele>97.515</ele>
        <time>2019-10-12T12:13:01Z</time>
      </trkpt>
      <trkpt lat="43.38158" lon="6.63606">
        <ele>97.056</ele>
        <time>2019-10-12T12:13:02Z</time>
      </trkpt>
      <trkpt lat="43.38148" lon="6.63601">
        <ele>95.208</ele>
        <time>2019-10-12T12:13:04Z</time>
      </trkpt>
      <trkpt lat="43.38143" lon="6.63602">
        <ele>94.221</ele>
        <time>2019-10-12T12:13:05Z</time>
      </trkpt>
      <trkpt lat="43.38139" lon="6.63611">
        <ele>94.771</ele>
        <time>2019-10-12T12:13:07Z</time>
      </trkpt>
      <trkpt lat="43.38137" lon="6.63667">
        <ele>99.673</ele>
        <time>2019-10-12T12:13:16Z</time>
      </trkpt>
      <trkpt lat="43.38142" lon="6.63703">
        <ele>101.2</ele>
        <time>2019-10-12T12:13:22Z</time>
      </trkpt>
      <trkpt lat="43.38165" lon="6.63761">
        <ele>103.425</ele>
        <time>2019-10-12T12:13:38Z</time>
      </trkpt>
      <trkpt lat="43.382" lon="6.63824">
        <ele>110.028</ele>
        <time>2019-10-12T12:14:07Z</time>
      </trkpt>
      <trkpt lat="43.38211" lon="6.63839">
        <ele>110.971</ele>
        <time>2019-10-12T12:14:15Z</time>
      </trkpt>
      <trkpt lat="43.38209" lon="6.63844">
        <ele>112.723</ele>
        <time>2019-10-12T12:14:18Z</time>
      </trkpt>
      <trkpt lat="43.38147" lon="6.63809">
        <ele>117.34</ele>
        <time>2019-10-12T12:15:00Z</time>
      </trkpt>
      <trkpt lat="43.38086" lon="6.63789">
        <ele>124.226</ele>
        <time>2019-10-12T12:15:33Z</time>
      </trkpt>
      <trkpt lat="43.38066" lon="6.63777">
        <ele>125.571</ele>
        <time>2019-10-12T12:15:44Z</time>
      </trkpt>
      <trkpt lat="43.37992" lon="6.63755">
        <ele>132.285</ele>
        <time>2019-10-12T12:16:24Z</time>
      </trkpt>
      <trkpt lat="43.37952" lon="6.63756">
        <ele>136.624</ele>
        <time>2019-10-12T12:16:44Z</time>
      </trkpt>
      <trkpt lat="43.37887" lon="6.63764">
        <ele>145.628</ele>
        <time>2019-10-12T12:17:15Z</time>
      </trkpt>
      <trkpt lat="43.3787" lon="6.63764">
        <ele>147.352</ele>
        <time>2019-10-12T12:17:23Z</time>
      </trkpt>
      <trkpt lat="43.37853" lon="6.63758">
        <ele>148.64</ele>
        <time>2019-10-12T12:17:32Z</time>
      </trkpt>
      <trkpt lat="43.378" lon="6.63754">
        <ele>155.439</ele>
        <time>2019-10-12T12:18:01Z</time>
      </trkpt>
      <trkpt lat="43.37758" lon="6.6374">
        <ele>159.25</ele>
        <time>2019-10-12T12:18:26Z</time>
      </trkpt>
      <trkpt lat="43.37753" lon="6.63729">
        <ele>158.689</ele>
        <time>2019-10-12T12:18:30Z</time>
      </trkpt>
      <trkpt lat="43.37752" lon="6.63719">
        <ele>157.388</ele>
        <time>2019-10-12T12:18:33Z</time>
      </trkpt>
      <trkpt lat="43.37746" lon="6.63699">
        <ele>155.881</ele>
        <time>2019-10-12T12:18:40Z</time>
      </trkpt>
      <trkpt lat="43.37729" lon="6.63677">
        <ele>157.07</ele>
        <time>2019-10-12T12:18:47Z</time>
      </trkpt>
      <trkpt lat="43.37705" lon="6.63626">
        <ele>157.939</ele>
        <time>2019-10-12T12:18:59Z</time>
      </trkpt>
      <trkpt lat="43.37706" lon="6.6361">
        <ele>158.294</ele>
        <time>2019-10-12T12:19:01Z</time>
      </trkpt>
      <trkpt lat="43.37724" lon="6.63583">
        <ele>155.262</ele>
        <time>2019-10-12T12:19:05Z</time>
      </trkpt>
      <trkpt lat="43.37728" lon="6.63566">
        <ele>155.301</ele>
        <time>2019-10-12T12:19:07Z</time>
      </trkpt>
      <trkpt lat="43.37729" lon="6.63524">
        <ele>158.503</ele>
        <time>2019-10-12T12:19:12Z</time>
      </trkpt>
      <trkpt lat="43.37739" lon="6.63476">
        <ele>158.758</ele>
        <time>2019-10-12T12:19:19Z</time>
      </trkpt>
      <trkpt lat="43.37741" lon="6.63445">
        <ele>159.809</ele>
        <time>2019-10-12T12:19:25Z</time>
      </trkpt>
      <trkpt lat="43.37714" lon="6.63368">
        <ele>163.316</ele>
        <time>2019-10-12T12:19:52Z</time>
      </trkpt>
      <trkpt lat="43.37699" lon="6.63361">
        <ele>164.412</ele>
        <time>2019-10-12T12:20:00Z</time>
      </trkpt>
      <trkpt lat="43.37655" lon="6.63366">
        <ele>167.403</ele>
        <time>2019-10-12T12:20:20Z</time>
      </trkpt>
      <trkpt lat="43.37645" lon="6.63373">
        <ele>169.179</ele>
        <time>2019-10-12T12:20:25Z</time>
      </trkpt>
      <trkpt lat="43.37646" lon="6.63378">
        <ele>169.941</ele>
        <time>2019-10-12T12:20:27Z</time>
      </trkpt>
      <trkpt lat="43.37665" lon="6.63408">
        <ele>171.455</ele>
        <time>2019-10-12T12:20:40Z</time>
      </trkpt>
      <trkpt lat="43.37676" lon="6.63431">
        <ele>171.87</ele>
        <time>2019-10-12T12:20:49Z</time>
      </trkpt>
      <trkpt lat="43.37678" lon="6.63476">
        <ele>172.832</ele>
        <time>2019-10-12T12:21:05Z</time>
      </trkpt>
      <trkpt lat="43.37671" lon="6.63505">
        <ele>174.192</ele>
        <time>2019-10-12T12:21:13Z</time>
      </trkpt>
      <trkpt lat="43.3766" lon="6.63532">
        <ele>174.278</ele>
        <time>2019-10-12T12:21:21Z</time>
      </trkpt>
      <trkpt lat="43.37644" lon="6.63559">
        <ele>174.409</ele>
        <time>2019-10-12T12:21:30Z</time>
      </trkpt>
      <trkpt lat="43.37608" lon="6.63604">
        <ele>182.355</ele>
        <time>2019-10-12T12:21:49Z</time>
      </trkpt>
      <trkpt lat="43.37602" lon="6.63622">
        <ele>184.122</ele>
        <time>2019-10-12T12:21:55Z</time>
      </trkpt>
      <trkpt lat="43.37605" lon="6.63647">
        <ele>185.264</ele>
        <time>2019-10-12T12:22:05Z</time>
      </trkpt>
      <trkpt lat="43.37613" lon="6.63671">
        <ele>185.643</ele>
        <time>2019-10-12T12:22:15Z</time>
      </trkpt>
      <trkpt lat="43.37633" lon="6.63715">
        <ele>185.321</ele>
        <time>2019-10-12T12:22:32Z</time>
      </trkpt>
      <trkpt lat="43.37632" lon="6.63731">
        <ele>187.105</ele>
        <time>2019-10-12T12:22:39Z</time>
      </trkpt>
      <trkpt lat="43.37624" lon="6.63748">
        <ele>191.606</ele>
        <time>2019-10-12T12:22:47Z</time>
      </trkpt>
      <trkpt lat="43.37623" lon="6.63764">
        <ele>194.671</ele>
        <time>2019-10-12T12:22:54Z</time>
      </trkpt>
      <trkpt lat="43.37629" lon="6.63782">
        <ele>196.422</ele>
        <time>2019-10-12T12:23:03Z</time>
      </trkpt>
      <trkpt lat="43.37658" lon="6.6384">
        <ele>199.247</ele>
        <time>2019-10-12T12:23:32Z</time>
      </trkpt>
      <trkpt lat="43.37665" lon="6.6386">
        <ele>201.186</ele>
        <time>2019-10-12T12:23:40Z</time>
      </trkpt>
      <trkpt lat="43.37677" lon="6.63907">
        <ele>203.847</ele>
        <time>2019-10-12T12:24:01Z</time>
      </trkpt>
      <trkpt lat="43.37687" lon="6.63924">
        <ele>203.268</ele>
        <time>2019-10-12T12:24:52Z</time>
      </trkpt>
      <trkpt lat="43.37705" lon="6.63943">
        <ele>202.108</ele>
        <time>2019-10-12T12:25:01Z</time>
      </trkpt>
      <trkpt lat="43.37734" lon="6.63948">
        <ele>198.279</ele>
        <time>2019-10-12T12:25:10Z</time>
      </trkpt>
      <trkpt lat="43.37749" lon="6.63962">
        <ele>194.319</ele>
        <time>2019-10-12T12:25:15Z</time>
      </trkpt>
      <trkpt lat="43.37731" lon="6.63995">
        <ele>192.348</ele>
        <time>2019-10-12T12:25:23Z</time>
      </trkpt>
      <trkpt lat="43.37711" lon="6.64011">
        <ele>191.81</ele>
        <time>2019-10-12T12:25:33Z</time>
      </trkpt>
      <trkpt lat="43.37701" lon="6.64011">
        <ele>192.831</ele>
        <time>2019-10-12T12:26:10Z</time>
      </trkpt>
      <trkpt lat="43.3768" lon="6.64025">
        <ele>191.701</ele>
        <time>2019-10-12T12:27:39Z</time>
      </trkpt>
      <trkpt lat="43.37676" lon="6.64038">
        <ele>188.964</ele>
        <time>2019-10-12T12:27:44Z</time>
      </trkpt>
      <trkpt lat="43.37683" lon="6.64051">
        <ele>185.247</ele>
        <time>2019-10-12T12:27:54Z</time>
      </trkpt>
      <trkpt lat="43.37682" lon="6.64058">
        <ele>183.509</ele>
        <time>2019-10-12T12:27:57Z</time>
      </trkpt>
      <trkpt lat="43.37641" lon="6.64098">
        <ele>178.545</ele>
        <time>2019-10-12T12:28:08Z</time>
      </trkpt>
      <trkpt lat="43.37631" lon="6.64112">
        <ele>176.096</ele>
        <time>2019-10-12T12:28:12Z</time>
      </trkpt>
      <trkpt lat="43.37634" lon="6.64115">
        <ele>175.023</ele>
        <time>2019-10-12T12:28:13Z</time>
      </trkpt>
      <trkpt lat="43.37677" lon="6.64121">
        <ele>167.63</ele>
        <time>2019-10-12T12:28:22Z</time>
      </trkpt>
      <trkpt lat="43.377" lon="6.64106">
        <ele>168.219</ele>
        <time>2019-10-12T12:28:27Z</time>
      </trkpt>
      <trkpt lat="43.37732" lon="6.64104">
        <ele>163.996</ele>
        <time>2019-10-12T12:28:34Z</time>
      </trkpt>
      <trkpt lat="43.37772" lon="6.64094">
        <ele>161.427</ele>
        <time>2019-10-12T12:28:40Z</time>
      </trkpt>
      <trkpt lat="43.37785" lon="6.64096">
        <ele>159.323</ele>
        <time>2019-10-12T12:28:42Z</time>
      </trkpt>
      <trkpt lat="43.37831" lon="6.64088">
        <ele>156.438</ele>
        <time>2019-10-12T12:28:50Z</time>
      </trkpt>
      <trkpt lat="43.37857" lon="6.64077">
        <ele>157.245</ele>
        <time>2019-10-12T12:28:55Z</time>
      </trkpt>
      <trkpt lat="43.37883" lon="6.64085">
        <ele>153.639</ele>
        <time>2019-10-12T12:29:02Z</time>
      </trkpt>
      <trkpt lat="43.3791" lon="6.64088">
        <ele>151.707</ele>
        <time>2019-10-12T12:29:14Z</time>
      </trkpt>
      <trkpt lat="43.37962" lon="6.64106">
        <ele>145.514</ele>
        <time>2019-10-12T12:29:35Z</time>
      </trkpt>
      <trkpt lat="43.38018" lon="6.64146">
        <ele>136.526</ele>
        <time>2019-10-12T12:29:49Z</time>
      </trkpt>
      <trkpt lat="43.38044" lon="6.64169">
        <ele>133.385</ele>
        <time>2019-10-12T12:29:55Z</time>
      </trkpt>
      <trkpt lat="43.38058" lon="6.64188">
        <ele>130.775</ele>
        <time>2019-10-12T12:30:01Z</time>
      </trkpt>
      <trkpt lat="43.38067" lon="6.6423">
        <ele>124.481</ele>
        <time>2019-10-12T12:30:24Z</time>
      </trkpt>
      <trkpt lat="43.38063" lon="6.64253">
        <ele>120.68</ele>
        <time>2019-10-12T12:30:35Z</time>
      </trkpt>
      <trkpt lat="43.38064" lon="6.64261">
        <ele>119.407</ele>
        <time>2019-10-12T12:30:41Z</time>
      </trkpt>
      <trkpt lat="43.38073" lon="6.64278">
        <ele>117.013</ele>
        <time>2019-10-12T12:31:57Z</time>
      </trkpt>
      <trkpt lat="43.38096" lon="6.64283">
        <ele>114</ele>
        <time>2019-10-12T12:32:14Z</time>
      </trkpt>
      <trkpt lat="43.3811" lon="6.64272">
        <ele>114.387</ele>
        <time>2019-10-12T12:32:28Z</time>
      </trkpt>
      <trkpt lat="43.38129" lon="6.64265">
        <ele>112.337</ele>
        <time>2019-10-12T12:32:36Z</time>
      </trkpt>
      <trkpt lat="43.38147" lon="6.64266">
        <ele>108.909</ele>
        <time>2019-10-12T12:32:42Z</time>
      </trkpt>
      <trkpt lat="43.38177" lon="6.64246">
        <ele>106.457</ele>
        <time>2019-10-12T12:32:54Z</time>
      </trkpt>
      <trkpt lat="43.38206" lon="6.64221">
        <ele>103.615</ele>
        <time>2019-10-12T12:33:05Z</time>
      </trkpt>
      <trkpt lat="43.38218" lon="6.64231">
        <ele>102.642</ele>
        <time>2019-10-12T12:33:09Z</time>
      </trkpt>
      <trkpt lat="43.38223" lon="6.6424">
        <ele>102.054</ele>
        <time>2019-10-12T12:33:11Z</time>
      </trkpt>
      <trkpt lat="43.38222" lon="6.64276">
        <ele>99.976</ele>
        <time>2019-10-12T12:33:17Z</time>
      </trkpt>
      <trkpt lat="43.38225" lon="6.64296">
        <ele>99.682</ele>
        <time>2019-10-12T12:33:22Z</time>
      </trkpt>
      <trkpt lat="43.38215" lon="6.64323">
        <ele>98.215</ele>
        <time>2019-10-12T12:33:28Z</time>
      </trkpt>
      <trkpt lat="43.38208" lon="6.64332">
        <ele>96.981</ele>
        <time>2019-10-12T12:33:30Z</time>
      </trkpt>
      <trkpt lat="43.38186" lon="6.64346">
        <ele>95.868</ele>
        <time>2019-10-12T12:33:34Z</time>
      </trkpt>
      <trkpt lat="43.38163" lon="6.64366">
        <ele>93.932</ele>
        <time>2019-10-12T12:33:38Z</time>
      </trkpt>
      <trkpt lat="43.3815" lon="6.64387">
        <ele>91.874</ele>
        <time>2019-10-12T12:33:41Z</time>
      </trkpt>
      <trkpt lat="43.38133" lon="6.64429">
        <ele>86.122</ele>
        <time>2019-10-12T12:33:46Z</time>
      </trkpt>
      <trkpt lat="43.38128" lon="6.64436">
        <ele>84.486</ele>
        <time>2019-10-12T12:33:47Z</time>
      </trkpt>
      <trkpt lat="43.38114" lon="6.64445">
        <ele>81.127</ele>
        <time>2019-10-12T12:33:49Z</time>
      </trkpt>
      <trkpt lat="43.38107" lon="6.64445">
        <ele>80.231</ele>
        <time>2019-10-12T12:33:50Z</time>
      </trkpt>
      <trkpt lat="43.38082" lon="6.64428">
        <ele>82.698</ele>
        <time>2019-10-12T12:33:54Z</time>
      </trkpt>
      <trkpt lat="43.38061" lon="6.64424">
        <ele>83.143</ele>
        <time>2019-10-12T12:33:57Z</time>
      </trkpt>
      <trkpt lat="43.38049" lon="6.6443">
        <ele>82.076</ele>
        <time>2019-10-12T12:33:59Z</time>
      </trkpt>
      <trkpt lat="43.38028" lon="6.64452">
        <ele>76.872</ele>
        <time>2019-10-12T12:34:03Z</time>
      </trkpt>
      <trkpt lat="43.38009" lon="6.64457">
        <ele>76.191</ele>
        <time>2019-10-12T12:34:06Z</time>
      </trkpt>
      <trkpt lat="43.3795" lon="6.64446">
        <ele>79.794</ele>
        <time>2019-10-12T12:34:16Z</time>
      </trkpt>
      <trkpt lat="43.37872" lon="6.64457">
        <ele>83.467</ele>
        <time>2019-10-12T12:34:31Z</time>
      </trkpt>
      <trkpt lat="43.37837" lon="6.64486">
        <ele>86.444</ele>
        <time>2019-10-12T12:34:41Z</time>
      </trkpt>
      <trkpt lat="43.3778" lon="6.64516">
        <ele>91.533</ele>
        <time>2019-10-12T12:34:57Z</time>
      </trkpt>
      <trkpt lat="43.37761" lon="6.64532">
        <ele>93.544</ele>
        <time>2019-10-12T12:35:04Z</time>
      </trkpt>
      <trkpt lat="43.37743" lon="6.64574">
        <ele>94.557</ele>
        <time>2019-10-12T12:35:21Z</time>
      </trkpt>
      <trkpt lat="43.37728" lon="6.64588">
        <ele>95.699</ele>
        <time>2019-10-12T12:35:31Z</time>
      </trkpt>
      <trkpt lat="43.37711" lon="6.64594">
        <ele>96.235</ele>
        <time>2019-10-12T12:35:38Z</time>
      </trkpt>
      <trkpt lat="43.37677" lon="6.64598">
        <ele>96.706</ele>
        <time>2019-10-12T12:35:48Z</time>
      </trkpt>
      <trkpt lat="43.37646" lon="6.64582">
        <ele>97.943</ele>
        <time>2019-10-12T12:36:01Z</time>
      </trkpt>
      <trkpt lat="43.37618" lon="6.64578">
        <ele>98.814</ele>
        <time>2019-10-12T12:36:08Z</time>
      </trkpt>
      <trkpt lat="43.37573" lon="6.64595">
        <ele>98.817</ele>
        <time>2019-10-12T12:36:19Z</time>
      </trkpt>
      <trkpt lat="43.37415" lon="6.64722">
        <ele>99.202</ele>
        <time>2019-10-12T12:37:14Z</time>
      </trkpt>
      <trkpt lat="43.3739" lon="6.64745">
        <ele>100.664</ele>
        <time>2019-10-12T12:37:23Z</time>
      </trkpt>
      <trkpt lat="43.37361" lon="6.64766">
        <ele>99.658</ele>
        <time>2019-10-12T12:37:32Z</time>
      </trkpt>
      <trkpt lat="43.373" lon="6.64769">
        <ele>100.033</ele>
        <time>2019-10-12T12:37:50Z</time>
      </trkpt>
      <trkpt lat="43.37277" lon="6.64765">
        <ele>101.54</ele>
        <time>2019-10-12T12:37:56Z</time>
      </trkpt>
      <trkpt lat="43.3726" lon="6.64745">
        <ele>102.564</ele>
        <time>2019-10-12T12:38:04Z</time>
      </trkpt>
      <trkpt lat="43.37237" lon="6.64706">
        <ele>99.905</ele>
        <time>2019-10-12T12:38:15Z</time>
      </trkpt>
      <trkpt lat="43.37224" lon="6.64692">
        <ele>102.485</ele>
        <time>2019-10-12T12:38:20Z</time>
      </trkpt>
      <trkpt lat="43.37203" lon="6.64695">
        <ele>102.705</ele>
        <time>2019-10-12T12:38:27Z</time>
      </trkpt>
      <trkpt lat="43.37115" lon="6.64736">
        <ele>106.105</ele>
        <time>2019-10-12T12:38:55Z</time>
      </trkpt>
      <trkpt lat="43.37062" lon="6.64768">
        <ele>104.844</ele>
        <time>2019-10-12T12:39:12Z</time>
      </trkpt>
      <trkpt lat="43.37032" lon="6.64774">
        <ele>105.705</ele>
        <time>2019-10-12T12:39:21Z</time>
      </trkpt>
      <trkpt lat="43.36965" lon="6.64757">
        <ele>104.756</ele>
        <time>2019-10-12T12:39:40Z</time>
      </trkpt>
      <trkpt lat="43.36937" lon="6.64762">
        <ele>108.015</ele>
        <time>2019-10-12T12:39:48Z</time>
      </trkpt>
      <trkpt lat="43.36908" lon="6.64775">
        <ele>111.589</ele>
        <time>2019-10-12T12:39:56Z</time>
      </trkpt>
      <trkpt lat="43.36885" lon="6.64793">
        <ele>111.014</ele>
        <time>2019-10-12T12:40:04Z</time>
      </trkpt>
      <trkpt lat="43.36873" lon="6.64816">
        <ele>112.074</ele>
        <time>2019-10-12T12:40:10Z</time>
      </trkpt>
      <trkpt lat="43.36864" lon="6.64856">
        <ele>113.677</ele>
        <time>2019-10-12T12:40:23Z</time>
      </trkpt>
      <trkpt lat="43.3685" lon="6.64863">
        <ele>111.912</ele>
        <time>2019-10-12T12:40:29Z</time>
      </trkpt>
      <trkpt lat="43.36773" lon="6.64878">
        <ele>118.439</ele>
        <time>2019-10-12T12:40:56Z</time>
      </trkpt>
      <trkpt lat="43.36739" lon="6.64879">
        <ele>119.365</ele>
        <time>2019-10-12T12:41:07Z</time>
      </trkpt>
      <trkpt lat="43.36682" lon="6.64901">
        <ele>121.919</ele>
        <time>2019-10-12T12:41:29Z</time>
      </trkpt>
      <trkpt lat="43.36602" lon="6.64946">
        <ele>123.106</ele>
        <time>2019-10-12T12:41:56Z</time>
      </trkpt>
      <trkpt lat="43.36581" lon="6.64965">
        <ele>122.643</ele>
        <time>2019-10-12T12:42:05Z</time>
      </trkpt>
      <trkpt lat="43.36569" lon="6.64981">
        <ele>121.712</ele>
        <time>2019-10-12T12:42:12Z</time>
      </trkpt>
      <trkpt lat="43.36566" lon="6.65005">
        <ele>122.459</ele>
        <time>2019-10-12T12:42:19Z</time>
      </trkpt>
      <trkpt lat="43.36571" lon="6.65087">
        <ele>127.111</ele>
        <time>2019-10-12T12:42:39Z</time>
      </trkpt>
      <trkpt lat="43.36585" lon="6.65154">
        <ele>127.786</ele>
        <time>2019-10-12T12:42:58Z</time>
      </trkpt>
      <trkpt lat="43.36589" lon="6.65202">
        <ele>127.478</ele>
        <time>2019-10-12T12:43:15Z</time>
      </trkpt>
      <trkpt lat="43.36582" lon="6.65278">
        <ele>131.254</ele>
        <time>2019-10-12T12:43:35Z</time>
      </trkpt>
      <trkpt lat="43.36585" lon="6.65313">
        <ele>133.03</ele>
        <time>2019-10-12T12:43:45Z</time>
      </trkpt>
      <trkpt lat="43.36595" lon="6.65349">
        <ele>136.294</ele>
        <time>2019-10-12T12:43:54Z</time>
      </trkpt>
      <trkpt lat="43.36596" lon="6.65458">
        <ele>141.212</ele>
        <time>2019-10-12T12:44:20Z</time>
      </trkpt>
      <trkpt lat="43.36598" lon="6.65473">
        <ele>141.854</ele>
        <time>2019-10-12T12:44:25Z</time>
      </trkpt>
      <trkpt lat="43.36615" lon="6.65527">
        <ele>140.03</ele>
        <time>2019-10-12T12:44:39Z</time>
      </trkpt>
      <trkpt lat="43.36611" lon="6.65552">
        <ele>141.349</ele>
        <time>2019-10-12T12:44:45Z</time>
      </trkpt>
      <trkpt lat="43.36612" lon="6.65595">
        <ele>141.659</ele>
        <time>2019-10-12T12:44:53Z</time>
      </trkpt>
      <trkpt lat="43.36642" lon="6.65674">
        <ele>146.707</ele>
        <time>2019-10-12T12:45:15Z</time>
      </trkpt>
      <trkpt lat="43.36674" lon="6.65739">
        <ele>151.288</ele>
        <time>2019-10-12T12:45:35Z</time>
      </trkpt>
      <trkpt lat="43.36681" lon="6.65763">
        <ele>153.028</ele>
        <time>2019-10-12T12:45:44Z</time>
      </trkpt>
      <trkpt lat="43.36676" lon="6.6579">
        <ele>153.21</ele>
        <time>2019-10-12T12:45:53Z</time>
      </trkpt>
      <trkpt lat="43.36666" lon="6.65809">
        <ele>153.114</ele>
        <time>2019-10-12T12:46:00Z</time>
      </trkpt>
      <trkpt lat="43.36659" lon="6.65815">
        <ele>152.93</ele>
        <time>2019-10-12T12:46:03Z</time>
      </trkpt>
      <trkpt lat="43.36649" lon="6.65853">
        <ele>156.877</ele>
        <time>2019-10-12T12:46:14Z</time>
      </trkpt>
      <trkpt lat="43.36653" lon="6.65872">
        <ele>157.008</ele>
        <time>2019-10-12T12:46:19Z</time>
      </trkpt>
      <trkpt lat="43.36666" lon="6.65873">
        <ele>157.11</ele>
        <time>2019-10-12T12:46:25Z</time>
      </trkpt>
      <trkpt lat="43.36705" lon="6.65857">
        <ele>159.369</ele>
        <time>2019-10-12T12:46:39Z</time>
      </trkpt>
      <trkpt lat="43.36719" lon="6.65877">
        <ele>162.029</ele>
        <time>2019-10-12T12:46:47Z</time>
      </trkpt>
      <trkpt lat="43.36732" lon="6.65925">
        <ele>167.289</ele>
        <time>2019-10-12T12:47:05Z</time>
      </trkpt>
      <trkpt lat="43.3674" lon="6.65965">
        <ele>172.416</ele>
        <time>2019-10-12T12:47:20Z</time>
      </trkpt>
      <trkpt lat="43.36749" lon="6.65994">
        <ele>174.853</ele>
        <time>2019-10-12T12:47:30Z</time>
      </trkpt>
      <trkpt lat="43.36758" lon="6.6604">
        <ele>178.393</ele>
        <time>2019-10-12T12:47:46Z</time>
      </trkpt>
      <trkpt lat="43.36757" lon="6.66091">
        <ele>179.774</ele>
        <time>2019-10-12T12:48:02Z</time>
      </trkpt>
      <trkpt lat="43.36763" lon="6.66147">
        <ele>181.415</ele>
        <time>2019-10-12T12:48:19Z</time>
      </trkpt>
      <trkpt lat="43.36757" lon="6.6618">
        <ele>182.071</ele>
        <time>2019-10-12T12:48:30Z</time>
      </trkpt>
      <trkpt lat="43.36748" lon="6.66207">
        <ele>183.379</ele>
        <time>2019-10-12T12:48:40Z</time>
      </trkpt>
      <trkpt lat="43.36736" lon="6.66231">
        <ele>185.216</ele>
        <time>2019-10-12T12:48:51Z</time>
      </trkpt>
      <trkpt lat="43.36726" lon="6.66244">
        <ele>185.959</ele>
        <time>2019-10-12T12:49:04Z</time>
      </trkpt>
      <trkpt lat="43.36723" lon="6.66251">
        <ele>185.92</ele>
        <time>2019-10-12T12:57:43Z</time>
      </trkpt>
      <trkpt lat="43.36712" lon="6.6625">
        <ele>186.637</ele>
        <time>2019-10-12T12:58:29Z</time>
      </trkpt>
      <trkpt lat="43.36707" lon="6.66253">
        <ele>186.865</ele>
        <time>2019-10-12T13:01:15Z</time>
      </trkpt>
      <trkpt lat="43.36701" lon="6.66252">
        <ele>187.224</ele>
        <time>2019-10-12T13:01:18Z</time>
      </trkpt>
      <trkpt lat="43.36698" lon="6.66254">
        <ele>187.268</ele>
        <time>2019-10-12T13:01:20Z</time>
      </trkpt>
      <trkpt lat="43.36689" lon="6.66287">
        <ele>185.14</ele>
        <time>2019-10-12T13:01:29Z</time>
      </trkpt>
      <trkpt lat="43.36674" lon="6.66293">
        <ele>187.029</ele>
        <time>2019-10-12T13:01:34Z</time>
      </trkpt>
      <trkpt lat="43.3667" lon="6.66302">
        <ele>187.041</ele>
        <time>2019-10-12T13:01:36Z</time>
      </trkpt>
      <trkpt lat="43.36666" lon="6.66375">
        <ele>183.593</ele>
        <time>2019-10-12T13:01:46Z</time>
      </trkpt>
      <trkpt lat="43.36679" lon="6.66442">
        <ele>173.03</ele>
        <time>2019-10-12T13:02:01Z</time>
      </trkpt>
      <trkpt lat="43.36683" lon="6.66502">
        <ele>167.23</ele>
        <time>2019-10-12T13:02:22Z</time>
      </trkpt>
      <trkpt lat="43.3669" lon="6.66527">
        <ele>162.221</ele>
        <time>2019-10-12T13:02:30Z</time>
      </trkpt>
      <trkpt lat="43.36693" lon="6.6655">
        <ele>159.127</ele>
        <time>2019-10-12T13:02:35Z</time>
      </trkpt>
      <trkpt lat="43.36708" lon="6.66584">
        <ele>146.802</ele>
        <time>2019-10-12T13:02:44Z</time>
      </trkpt>
      <trkpt lat="43.36719" lon="6.66623">
        <ele>140.886</ele>
        <time>2019-10-12T13:02:56Z</time>
      </trkpt>
      <trkpt lat="43.36726" lon="6.66656">
        <ele>140.734</ele>
        <time>2019-10-12T13:03:07Z</time>
      </trkpt>
      <trkpt lat="43.36729" lon="6.66692">
        <ele>138.83</ele>
        <time>2019-10-12T13:03:18Z</time>
      </trkpt>
      <trkpt lat="43.36724" lon="6.66789">
        <ele>127.726</ele>
        <time>2019-10-12T13:03:36Z</time>
      </trkpt>
      <trkpt lat="43.36728" lon="6.66811">
        <ele>124.352</ele>
        <time>2019-10-12T13:03:40Z</time>
      </trkpt>
      <trkpt lat="43.3673" lon="6.66845">
        <ele>120.502</ele>
        <time>2019-10-12T13:03:46Z</time>
      </trkpt>
      <trkpt lat="43.36725" lon="6.6686">
        <ele>119.705</ele>
        <time>2019-10-12T13:03:49Z</time>
      </trkpt>
      <trkpt lat="43.3672" lon="6.66867">
        <ele>119.562</ele>
        <time>2019-10-12T13:03:51Z</time>
      </trkpt>
      <trkpt lat="43.36713" lon="6.6687">
        <ele>119.916</ele>
        <time>2019-10-12T13:03:53Z</time>
      </trkpt>
      <trkpt lat="43.36699" lon="6.66868">
        <ele>122.29</ele>
        <time>2019-10-12T13:03:58Z</time>
      </trkpt>
      <trkpt lat="43.36696" lon="6.6688">
        <ele>122.82</ele>
        <time>2019-10-12T13:04:04Z</time>
      </trkpt>
      <trkpt lat="43.36704" lon="6.66898">
        <ele>120.213</ele>
        <time>2019-10-12T13:04:19Z</time>
      </trkpt>
      <trkpt lat="43.3671" lon="6.66934">
        <ele>121.36</ele>
        <time>2019-10-12T13:04:35Z</time>
      </trkpt>
      <trkpt lat="43.3671" lon="6.66978">
        <ele>122.17</ele>
        <time>2019-10-12T13:04:52Z</time>
      </trkpt>
      <trkpt lat="43.367" lon="6.67033">
        <ele>122.286</ele>
        <time>2019-10-12T13:05:08Z</time>
      </trkpt>
      <trkpt lat="43.36691" lon="6.67059">
        <ele>122.237</ele>
        <time>2019-10-12T13:05:13Z</time>
      </trkpt>
      <trkpt lat="43.36684" lon="6.67096">
        <ele>119.811</ele>
        <time>2019-10-12T13:05:20Z</time>
      </trkpt>
      <trkpt lat="43.36692" lon="6.67131">
        <ele>114.219</ele>
        <time>2019-10-12T13:05:25Z</time>
      </trkpt>
      <trkpt lat="43.36691" lon="6.67199">
        <ele>110.397</ele>
        <time>2019-10-12T13:05:31Z</time>
      </trkpt>
      <trkpt lat="43.36687" lon="6.67215">
        <ele>110.415</ele>
        <time>2019-10-12T13:05:33Z</time>
      </trkpt>
      <trkpt lat="43.36683" lon="6.6722">
        <ele>110.802</ele>
        <time>2019-10-12T13:05:34Z</time>
      </trkpt>
      <trkpt lat="43.36667" lon="6.67224">
        <ele>113.12</ele>
        <time>2019-10-12T13:05:38Z</time>
      </trkpt>
      <trkpt lat="43.36665" lon="6.67227">
        <ele>113.357</ele>
        <time>2019-10-12T13:05:39Z</time>
      </trkpt>
      <trkpt lat="43.36659" lon="6.67256">
        <ele>113.075</ele>
        <time>2019-10-12T13:05:43Z</time>
      </trkpt>
      <trkpt lat="43.36661" lon="6.67275">
        <ele>113.258</ele>
        <time>2019-10-12T13:05:46Z</time>
      </trkpt>
      <trkpt lat="43.36656" lon="6.67298">
        <ele>114.741</ele>
        <time>2019-10-12T13:05:50Z</time>
      </trkpt>
      <trkpt lat="43.36661" lon="6.67313">
        <ele>114.582</ele>
        <time>2019-10-12T13:05:53Z</time>
      </trkpt>
      <trkpt lat="43.36699" lon="6.67351">
        <ele>112.766</ele>
        <time>2019-10-12T13:06:13Z</time>
      </trkpt>
      <trkpt lat="43.36707" lon="6.67378">
        <ele>114.221</ele>
        <time>2019-10-12T13:06:23Z</time>
      </trkpt>
      <trkpt lat="43.36707" lon="6.67411">
        <ele>116.381</ele>
        <time>2019-10-12T13:06:33Z</time>
      </trkpt>
      <trkpt lat="43.36724" lon="6.67476">
        <ele>114.935</ele>
        <time>2019-10-12T13:06:48Z</time>
      </trkpt>
      <trkpt lat="43.36753" lon="6.67547">
        <ele>116.443</ele>
        <time>2019-10-12T13:07:06Z</time>
      </trkpt>
      <trkpt lat="43.36765" lon="6.67597">
        <ele>118.673</ele>
        <time>2019-10-12T13:07:19Z</time>
      </trkpt>
      <trkpt lat="43.3675" lon="6.67667">
        <ele>127.586</ele>
        <time>2019-10-12T13:07:45Z</time>
      </trkpt>
      <trkpt lat="43.36747" lon="6.67705">
        <ele>133.366</ele>
        <time>2019-10-12T13:08:00Z</time>
      </trkpt>
      <trkpt lat="43.36751" lon="6.67748">
        <ele>138.58</ele>
        <time>2019-10-12T13:08:21Z</time>
      </trkpt>
      <trkpt lat="43.36765" lon="6.67828">
        <ele>147.174</ele>
        <time>2019-10-12T13:09:04Z</time>
      </trkpt>
      <trkpt lat="43.36766" lon="6.67846">
        <ele>150.447</ele>
        <time>2019-10-12T13:09:14Z</time>
      </trkpt>
      <trkpt lat="43.36763" lon="6.67877">
        <ele>155.182</ele>
        <time>2019-10-12T13:09:33Z</time>
      </trkpt>
      <trkpt lat="43.36768" lon="6.67924">
        <ele>158.757</ele>
        <time>2019-10-12T13:10:03Z</time>
      </trkpt>
      <trkpt lat="43.36767" lon="6.67943">
        <ele>159.647</ele>
        <time>2019-10-12T13:10:13Z</time>
      </trkpt>
      <trkpt lat="43.36759" lon="6.67965">
        <ele>157.798</ele>
        <time>2019-10-12T13:10:31Z</time>
      </trkpt>
      <trkpt lat="43.36761" lon="6.67964">
        <ele>157.813</ele>
        <time>2019-10-12T13:11:16Z</time>
      </trkpt>
      <trkpt lat="43.36762" lon="6.67978">
        <ele>156.41</ele>
        <time>2019-10-12T13:11:30Z</time>
      </trkpt>
      <trkpt lat="43.36759" lon="6.67998">
        <ele>154.493</ele>
        <time>2019-10-12T13:11:33Z</time>
      </trkpt>
      <trkpt lat="43.36753" lon="6.68011">
        <ele>153.435</ele>
        <time>2019-10-12T13:11:35Z</time>
      </trkpt>
      <trkpt lat="43.36728" lon="6.68023">
        <ele>156.948</ele>
        <time>2019-10-12T13:11:40Z</time>
      </trkpt>
      <trkpt lat="43.36724" lon="6.68028">
        <ele>157.453</ele>
        <time>2019-10-12T13:11:41Z</time>
      </trkpt>
      <trkpt lat="43.36723" lon="6.68042">
        <ele>156.612</ele>
        <time>2019-10-12T13:11:43Z</time>
      </trkpt>
      <trkpt lat="43.36727" lon="6.6805">
        <ele>155.28</ele>
        <time>2019-10-12T13:11:44Z</time>
      </trkpt>
      <trkpt lat="43.36748" lon="6.68069">
        <ele>149.312</ele>
        <time>2019-10-12T13:11:47Z</time>
      </trkpt>
      <trkpt lat="43.36761" lon="6.68086">
        <ele>147.116</ele>
        <time>2019-10-12T13:11:49Z</time>
      </trkpt>
      <trkpt lat="43.36784" lon="6.68127">
        <ele>140.374</ele>
        <time>2019-10-12T13:11:53Z</time>
      </trkpt>
      <trkpt lat="43.36803" lon="6.68155">
        <ele>136.13</ele>
        <time>2019-10-12T13:11:56Z</time>
      </trkpt>
      <trkpt lat="43.36818" lon="6.68168">
        <ele>134.725</ele>
        <time>2019-10-12T13:11:58Z</time>
      </trkpt>
      <trkpt lat="43.36834" lon="6.68177">
        <ele>133.54</ele>
        <time>2019-10-12T13:12:00Z</time>
      </trkpt>
      <trkpt lat="43.36855" lon="6.6818">
        <ele>136.601</ele>
        <time>2019-10-12T13:12:03Z</time>
      </trkpt>
      <trkpt lat="43.36889" lon="6.68174">
        <ele>142.767</ele>
        <time>2019-10-12T13:12:10Z</time>
      </trkpt>
      <trkpt lat="43.36931" lon="6.68132">
        <ele>153.578</ele>
        <time>2019-10-12T13:12:44Z</time>
      </trkpt>
      <trkpt lat="43.36945" lon="6.68133">
        <ele>156.949</ele>
        <time>2019-10-12T13:12:56Z</time>
      </trkpt>
      <trkpt lat="43.36948" lon="6.68148">
        <ele>156.822</ele>
        <time>2019-10-12T13:13:06Z</time>
      </trkpt>
      <trkpt lat="43.36944" lon="6.68173">
        <ele>157.47</ele>
        <time>2019-10-12T13:13:19Z</time>
      </trkpt>
      <trkpt lat="43.36962" lon="6.68249">
        <ele>170.845</ele>
        <time>2019-10-12T13:14:05Z</time>
      </trkpt>
      <trkpt lat="43.36953" lon="6.68286">
        <ele>171.1</ele>
        <time>2019-10-12T13:14:24Z</time>
      </trkpt>
      <trkpt lat="43.3692" lon="6.6833">
        <ele>166.125</ele>
        <time>2019-10-12T13:14:41Z</time>
      </trkpt>
      <trkpt lat="43.36916" lon="6.68347">
        <ele>164.16</ele>
        <time>2019-10-12T13:14:44Z</time>
      </trkpt>
      <trkpt lat="43.3692" lon="6.6836">
        <ele>164.189</ele>
        <time>2019-10-12T13:14:46Z</time>
      </trkpt>
      <trkpt lat="43.36928" lon="6.68371">
        <ele>164.423</ele>
        <time>2019-10-12T13:14:48Z</time>
      </trkpt>
      <trkpt lat="43.36946" lon="6.68388">
        <ele>164.866</ele>
        <time>2019-10-12T13:14:52Z</time>
      </trkpt>
      <trkpt lat="43.3696" lon="6.6839">
        <ele>166.001</ele>
        <time>2019-10-12T13:14:55Z</time>
      </trkpt>
      <trkpt lat="43.36993" lon="6.68374">
        <ele>171.547</ele>
        <time>2019-10-12T13:15:12Z</time>
      </trkpt>
      <trkpt lat="43.37022" lon="6.68368">
        <ele>175.428</ele>
        <time>2019-10-12T13:15:30Z</time>
      </trkpt>
      <trkpt lat="43.37051" lon="6.68369">
        <ele>177.888</ele>
        <time>2019-10-12T13:15:46Z</time>
      </trkpt>
      <trkpt lat="43.37065" lon="6.68366">
        <ele>179.747</ele>
        <time>2019-10-12T13:15:55Z</time>
      </trkpt>
      <trkpt lat="43.37092" lon="6.6835">
        <ele>186.473</ele>
        <time>2019-10-12T13:16:16Z</time>
      </trkpt>
      <trkpt lat="43.3713" lon="6.68341">
        <ele>192.965</ele>
        <time>2019-10-12T13:16:45Z</time>
      </trkpt>
      <trkpt lat="43.37169" lon="6.68357">
        <ele>193.79</ele>
        <time>2019-10-12T13:17:04Z</time>
      </trkpt>
      <trkpt lat="43.3719" lon="6.68385">
        <ele>192.367</ele>
        <time>2019-10-12T13:17:14Z</time>
      </trkpt>
      <trkpt lat="43.37196" lon="6.684">
        <ele>191.561</ele>
        <time>2019-10-12T13:17:17Z</time>
      </trkpt>
      <trkpt lat="43.37209" lon="6.68458">
        <ele>188.527</ele>
        <time>2019-10-12T13:17:23Z</time>
      </trkpt>
      <trkpt lat="43.37224" lon="6.68491">
        <ele>188.709</ele>
        <time>2019-10-12T13:17:27Z</time>
      </trkpt>
      <trkpt lat="43.37242" lon="6.68523">
        <ele>188.496</ele>
        <time>2019-10-12T13:17:33Z</time>
      </trkpt>
      <trkpt lat="43.37256" lon="6.6854">
        <ele>188.819</ele>
        <time>2019-10-12T13:17:37Z</time>
      </trkpt>
      <trkpt lat="43.37283" lon="6.68561">
        <ele>189.581</ele>
        <time>2019-10-12T13:17:43Z</time>
      </trkpt>
      <trkpt lat="43.37347" lon="6.68574">
        <ele>196.567</ele>
        <time>2019-10-12T13:18:01Z</time>
      </trkpt>
      <trkpt lat="43.37367" lon="6.68582">
        <ele>198.476</ele>
        <time>2019-10-12T13:18:09Z</time>
      </trkpt>
      <trkpt lat="43.37391" lon="6.68611">
        <ele>200.655</ele>
        <time>2019-10-12T13:18:33Z</time>
      </trkpt>
      <trkpt lat="43.37393" lon="6.68617">
        <ele>200.229</ele>
        <time>2019-10-12T13:18:37Z</time>
      </trkpt>
      <trkpt lat="43.37425" lon="6.68641">
        <ele>201.336</ele>
        <time>2019-10-12T13:19:00Z</time>
      </trkpt>
      <trkpt lat="43.37492" lon="6.6866">
        <ele>208.605</ele>
        <time>2019-10-12T13:19:24Z</time>
      </trkpt>
      <trkpt lat="43.3753" lon="6.68694">
        <ele>210.418</ele>
        <time>2019-10-12T13:19:44Z</time>
      </trkpt>
      <trkpt lat="43.37564" lon="6.68694">
        <ele>217.687</ele>
        <time>2019-10-12T13:20:01Z</time>
      </trkpt>
      <trkpt lat="43.37589" lon="6.687">
        <ele>220.752</ele>
        <time>2019-10-12T13:20:15Z</time>
      </trkpt>
      <trkpt lat="43.37616" lon="6.68723">
        <ele>222.096</ele>
        <time>2019-10-12T13:20:32Z</time>
      </trkpt>
      <trkpt lat="43.37654" lon="6.68797">
        <ele>224.901</ele>
        <time>2019-10-12T13:20:56Z</time>
      </trkpt>
      <trkpt lat="43.37669" lon="6.68843">
        <ele>225.23</ele>
        <time>2019-10-12T13:21:10Z</time>
      </trkpt>
      <trkpt lat="43.37703" lon="6.68923">
        <ele>231.662</ele>
        <time>2019-10-12T13:21:39Z</time>
      </trkpt>
      <trkpt lat="43.3771" lon="6.68957">
        <ele>231.562</ele>
        <time>2019-10-12T13:21:48Z</time>
      </trkpt>
      <trkpt lat="43.37711" lon="6.68985">
        <ele>230.98</ele>
        <time>2019-10-12T13:21:55Z</time>
      </trkpt>
      <trkpt lat="43.37722" lon="6.6902">
        <ele>231.598</ele>
        <time>2019-10-12T13:22:05Z</time>
      </trkpt>
      <trkpt lat="43.37741" lon="6.69055">
        <ele>233.51</ele>
        <time>2019-10-12T13:22:17Z</time>
      </trkpt>
      <trkpt lat="43.378" lon="6.69112">
        <ele>236.406</ele>
        <time>2019-10-12T13:24:03Z</time>
      </trkpt>
      <trkpt lat="43.37798" lon="6.6912">
        <ele>235.884</ele>
        <time>2019-10-12T13:25:09Z</time>
      </trkpt>
      <trkpt lat="43.37809" lon="6.69163">
        <ele>235.3</ele>
        <time>2019-10-12T13:25:19Z</time>
      </trkpt>
      <trkpt lat="43.37814" lon="6.69205">
        <ele>233.85</ele>
        <time>2019-10-12T13:25:26Z</time>
      </trkpt>
      <trkpt lat="43.3783" lon="6.69235">
        <ele>233.428</ele>
        <time>2019-10-12T13:25:33Z</time>
      </trkpt>
      <trkpt lat="43.37856" lon="6.69249">
        <ele>234.172</ele>
        <time>2019-10-12T13:25:41Z</time>
      </trkpt>
      <trkpt lat="43.37891" lon="6.69245">
        <ele>238.455</ele>
        <time>2019-10-12T13:25:51Z</time>
      </trkpt>
      <trkpt lat="43.37895" lon="6.69247">
        <ele>238.664</ele>
        <time>2019-10-12T13:25:53Z</time>
      </trkpt>
      <trkpt lat="43.37896" lon="6.69253">
        <ele>238.009</ele>
        <time>2019-10-12T13:25:55Z</time>
      </trkpt>
      <trkpt lat="43.37882" lon="6.69258">
        <ele>235.797</ele>
        <time>2019-10-12T13:25:59Z</time>
      </trkpt>
      <trkpt lat="43.37854" lon="6.69286">
        <ele>225.365</ele>
        <time>2019-10-12T13:26:05Z</time>
      </trkpt>
      <trkpt lat="43.37831" lon="6.69304">
        <ele>218.908</ele>
        <time>2019-10-12T13:26:09Z</time>
      </trkpt>
      <trkpt lat="43.37805" lon="6.69339">
        <ele>211.836</ele>
        <time>2019-10-12T13:26:14Z</time>
      </trkpt>
      <trkpt lat="43.37789" lon="6.69375">
        <ele>208.195</ele>
        <time>2019-10-12T13:26:18Z</time>
      </trkpt>
      <trkpt lat="43.37775" lon="6.69474">
        <ele>202.514</ele>
        <time>2019-10-12T13:26:27Z</time>
      </trkpt>
      <trkpt lat="43.37777" lon="6.69572">
        <ele>192.757</ele>
        <time>2019-10-12T13:26:36Z</time>
      </trkpt>
      <trkpt lat="43.37782" lon="6.69591">
        <ele>190.966</ele>
        <time>2019-10-12T13:26:38Z</time>
      </trkpt>
      <trkpt lat="43.37795" lon="6.69611">
        <ele>187.891</ele>
        <time>2019-10-12T13:26:41Z</time>
      </trkpt>
      <trkpt lat="43.37801" lon="6.69627">
        <ele>186.467</ele>
        <time>2019-10-12T13:26:43Z</time>
      </trkpt>
      <trkpt lat="43.37823" lon="6.69829">
        <ele>162.316</ele>
        <time>2019-10-12T13:27:14Z</time>
      </trkpt>
      <trkpt lat="43.37817" lon="6.6987">
        <ele>156.451</ele>
        <time>2019-10-12T13:27:20Z</time>
      </trkpt>
      <trkpt lat="43.37823" lon="6.69929">
        <ele>146.705</ele>
        <time>2019-10-12T13:27:29Z</time>
      </trkpt>
      <trkpt lat="43.37829" lon="6.69945">
        <ele>144.647</ele>
        <time>2019-10-12T13:27:32Z</time>
      </trkpt>
      <trkpt lat="43.37842" lon="6.69961">
        <ele>143.371</ele>
        <time>2019-10-12T13:27:36Z</time>
      </trkpt>
      <trkpt lat="43.37854" lon="6.69985">
        <ele>138.545</ele>
        <time>2019-10-12T13:27:40Z</time>
      </trkpt>
      <trkpt lat="43.37863" lon="6.70014">
        <ele>133.598</ele>
        <time>2019-10-12T13:27:44Z</time>
      </trkpt>
      <trkpt lat="43.37902" lon="6.7009">
        <ele>125.662</ele>
        <time>2019-10-12T13:27:56Z</time>
      </trkpt>
      <trkpt lat="43.37901" lon="6.70103">
        <ele>125.585</ele>
        <time>2019-10-12T13:27:59Z</time>
      </trkpt>
      <trkpt lat="43.37907" lon="6.70126">
        <ele>125.566</ele>
        <time>2019-10-12T13:28:04Z</time>
      </trkpt>
      <trkpt lat="43.37921" lon="6.70147">
        <ele>126.982</ele>
        <time>2019-10-12T13:28:12Z</time>
      </trkpt>
      <trkpt lat="43.3794" lon="6.7016">
        <ele>128.246</ele>
        <time>2019-10-12T13:28:19Z</time>
      </trkpt>
      <trkpt lat="43.37956" lon="6.70158">
        <ele>128.061</ele>
        <time>2019-10-12T13:28:25Z</time>
      </trkpt>
      <trkpt lat="43.37987" lon="6.70129">
        <ele>124.297</ele>
        <time>2019-10-12T13:28:48Z</time>
      </trkpt>
      <trkpt lat="43.38069" lon="6.70073">
        <ele>112.07</ele>
        <time>2019-10-12T13:29:02Z</time>
      </trkpt>
      <trkpt lat="43.38092" lon="6.70067">
        <ele>109.298</ele>
        <time>2019-10-12T13:29:07Z</time>
      </trkpt>
      <trkpt lat="43.38161" lon="6.70075">
        <ele>100.687</ele>
        <time>2019-10-12T13:29:21Z</time>
      </trkpt>
      <trkpt lat="43.38197" lon="6.70073">
        <ele>96.086</ele>
        <time>2019-10-12T13:29:29Z</time>
      </trkpt>
      <trkpt lat="43.38199" lon="6.70076">
        <ele>95.813</ele>
        <time>2019-10-12T13:29:30Z</time>
      </trkpt>
      <trkpt lat="43.38198" lon="6.70088">
        <ele>95.825</ele>
        <time>2019-10-12T13:29:33Z</time>
      </trkpt>
      <trkpt lat="43.38202" lon="6.701">
        <ele>97.364</ele>
        <time>2019-10-12T13:29:36Z</time>
      </trkpt>
      <trkpt lat="43.38284" lon="6.70179">
        <ele>95.229</ele>
        <time>2019-10-12T13:30:14Z</time>
      </trkpt>
      <trkpt lat="43.38298" lon="6.70202">
        <ele>95.111</ele>
        <time>2019-10-12T13:30:20Z</time>
      </trkpt>
      <trkpt lat="43.3831" lon="6.70264">
        <ele>101.076</ele>
        <time>2019-10-12T13:30:35Z</time>
      </trkpt>
      <trkpt lat="43.38311" lon="6.70297">
        <ele>106.673</ele>
        <time>2019-10-12T13:30:43Z</time>
      </trkpt>
      <trkpt lat="43.3832" lon="6.70306">
        <ele>105.837</ele>
        <time>2019-10-12T13:30:49Z</time>
      </trkpt>
      <trkpt lat="43.38337" lon="6.70314">
        <ele>103.724</ele>
        <time>2019-10-12T13:30:55Z</time>
      </trkpt>
      <trkpt lat="43.38346" lon="6.70328">
        <ele>104.847</ele>
        <time>2019-10-12T13:31:00Z</time>
      </trkpt>
      <trkpt lat="43.38348" lon="6.70339">
        <ele>106.679</ele>
        <time>2019-10-12T13:31:04Z</time>
      </trkpt>
      <trkpt lat="43.38374" lon="6.70363">
        <ele>107.691</ele>
        <time>2019-10-12T13:31:19Z</time>
      </trkpt>
      <trkpt lat="43.38384" lon="6.70364">
        <ele>107.467</ele>
        <time>2019-10-12T13:31:25Z</time>
      </trkpt>
      <trkpt lat="43.38399" lon="6.70356">
        <ele>105.909</ele>
        <time>2019-10-12T13:31:34Z</time>
      </trkpt>
      <trkpt lat="43.38414" lon="6.70365">
        <ele>106.816</ele>
        <time>2019-10-12T13:31:46Z</time>
      </trkpt>
      <trkpt lat="43.38423" lon="6.70375">
        <ele>107.623</ele>
        <time>2019-10-12T13:31:54Z</time>
      </trkpt>
      <trkpt lat="43.38426" lon="6.70385">
        <ele>108.6</ele>
        <time>2019-10-12T13:31:59Z</time>
      </trkpt>
      <trkpt lat="43.38438" lon="6.70403">
        <ele>109.547</ele>
        <time>2019-10-12T13:32:09Z</time>
      </trkpt>
      <trkpt lat="43.38432" lon="6.70408">
        <ele>110.676</ele>
        <time>2019-10-12T13:32:13Z</time>
      </trkpt>
      <trkpt lat="43.38414" lon="6.70442">
        <ele>115.238</ele>
        <time>2019-10-12T13:32:31Z</time>
      </trkpt>
      <trkpt lat="43.38406" lon="6.70466">
        <ele>118.452</ele>
        <time>2019-10-12T13:32:41Z</time>
      </trkpt>
      <trkpt lat="43.38415" lon="6.70538">
        <ele>116.197</ele>
        <time>2019-10-12T13:32:57Z</time>
      </trkpt>
      <trkpt lat="43.38441" lon="6.70578">
        <ele>109.536</ele>
        <time>2019-10-12T13:33:03Z</time>
      </trkpt>
      <trkpt lat="43.38447" lon="6.70582">
        <ele>108.66</ele>
        <time>2019-10-12T13:33:04Z</time>
      </trkpt>
      <trkpt lat="43.38487" lon="6.70584">
        <ele>103.967</ele>
        <time>2019-10-12T13:33:09Z</time>
      </trkpt>
      <trkpt lat="43.38492" lon="6.70587">
        <ele>103.564</ele>
        <time>2019-10-12T13:33:10Z</time>
      </trkpt>
      <trkpt lat="43.3853" lon="6.70648">
        <ele>101.788</ele>
        <time>2019-10-12T13:33:19Z</time>
      </trkpt>
      <trkpt lat="43.38562" lon="6.70707">
        <ele>104.637</ele>
        <time>2019-10-12T13:33:40Z</time>
      </trkpt>
      <trkpt lat="43.38572" lon="6.70719">
        <ele>105.107</ele>
        <time>2019-10-12T13:33:46Z</time>
      </trkpt>
      <trkpt lat="43.38601" lon="6.70732">
        <ele>104.7</ele>
        <time>2019-10-12T13:34:01Z</time>
      </trkpt>
      <trkpt lat="43.38643" lon="6.70739">
        <ele>103.501</ele>
        <time>2019-10-12T13:34:17Z</time>
      </trkpt>
      <trkpt lat="43.3865" lon="6.70737">
        <ele>103.16</ele>
        <time>2019-10-12T13:34:21Z</time>
      </trkpt>
      <trkpt lat="43.38658" lon="6.70724">
        <ele>102.238</ele>
        <time>2019-10-12T13:34:26Z</time>
      </trkpt>
      <trkpt lat="43.38675" lon="6.70732">
        <ele>102.4</ele>
        <time>2019-10-12T13:34:31Z</time>
      </trkpt>
      <trkpt lat="43.38685" lon="6.70729">
        <ele>102.291</ele>
        <time>2019-10-12T13:34:34Z</time>
      </trkpt>
      <trkpt lat="43.38694" lon="6.70719">
        <ele>101.934</ele>
        <time>2019-10-12T13:34:41Z</time>
      </trkpt>
      <trkpt lat="43.38697" lon="6.70723">
        <ele>102.116</ele>
        <time>2019-10-12T13:34:44Z</time>
      </trkpt>
      <trkpt lat="43.38724" lon="6.70723">
        <ele>102.636</ele>
        <time>2019-10-12T13:35:18Z</time>
      </trkpt>
      <trkpt lat="43.38744" lon="6.70716">
        <ele>103.07</ele>
        <time>2019-10-12T13:35:27Z</time>
      </trkpt>
      <trkpt lat="43.38773" lon="6.70695">
        <ele>102.801</ele>
        <time>2019-10-12T13:35:34Z</time>
      </trkpt>
      <trkpt lat="43.38791" lon="6.70688">
        <ele>102.19</ele>
        <time>2019-10-12T13:35:37Z</time>
      </trkpt>
      <trkpt lat="43.38819" lon="6.70671">
        <ele>99.086</ele>
        <time>2019-10-12T13:35:42Z</time>
      </trkpt>
      <trkpt lat="43.38835" lon="6.70668">
        <ele>98.238</ele>
        <time>2019-10-12T13:35:45Z</time>
      </trkpt>
      <trkpt lat="43.38871" lon="6.70644">
        <ele>95.115</ele>
        <time>2019-10-12T13:35:52Z</time>
      </trkpt>
      <trkpt lat="43.38881" lon="6.70624">
        <ele>93.758</ele>
        <time>2019-10-12T13:35:58Z</time>
      </trkpt>
      <trkpt lat="43.38886" lon="6.70607">
        <ele>92.949</ele>
        <time>2019-10-12T13:36:07Z</time>
      </trkpt>
      <trkpt lat="43.38892" lon="6.70599">
        <ele>92.714</ele>
        <time>2019-10-12T13:36:16Z</time>
      </trkpt>
      <trkpt lat="43.38909" lon="6.70602">
        <ele>92.503</ele>
        <time>2019-10-12T13:36:29Z</time>
      </trkpt>
      <trkpt lat="43.38938" lon="6.70572">
        <ele>90.86</ele>
        <time>2019-10-12T13:36:44Z</time>
      </trkpt>
      <trkpt lat="43.38956" lon="6.70559">
        <ele>88.437</ele>
        <time>2019-10-12T13:36:50Z</time>
      </trkpt>
      <trkpt lat="43.38969" lon="6.7057">
        <ele>87.069</ele>
        <time>2019-10-12T13:36:57Z</time>
      </trkpt>
      <trkpt lat="43.38979" lon="6.7057">
        <ele>85.844</ele>
        <time>2019-10-12T13:37:00Z</time>
      </trkpt>
      <trkpt lat="43.38984" lon="6.70564">
        <ele>84.92</ele>
        <time>2019-10-12T13:37:02Z</time>
      </trkpt>
      <trkpt lat="43.38994" lon="6.70543">
        <ele>82.321</ele>
        <time>2019-10-12T13:37:07Z</time>
      </trkpt>
      <trkpt lat="43.39012" lon="6.70533">
        <ele>77.589</ele>
        <time>2019-10-12T13:37:12Z</time>
      </trkpt>
      <trkpt lat="43.39024" lon="6.70534">
        <ele>74.303</ele>
        <time>2019-10-12T13:37:16Z</time>
      </trkpt>
      <trkpt lat="43.39027" lon="6.7053">
        <ele>73.383</ele>
        <time>2019-10-12T13:37:18Z</time>
      </trkpt>
      <trkpt lat="43.39025" lon="6.70523">
        <ele>73.514</ele>
        <time>2019-10-12T13:37:30Z</time>
      </trkpt>
      <trkpt lat="43.39027" lon="6.70514">
        <ele>72.058</ele>
        <time>2019-10-12T13:37:48Z</time>
      </trkpt>
      <trkpt lat="43.39036" lon="6.70513">
        <ele>69.413</ele>
        <time>2019-10-12T13:37:53Z</time>
      </trkpt>
      <trkpt lat="43.39053" lon="6.70531">
        <ele>65.514</ele>
        <time>2019-10-12T13:38:08Z</time>
      </trkpt>
      <trkpt lat="43.39056" lon="6.70564">
        <ele>66.889</ele>
        <time>2019-10-12T13:38:15Z</time>
      </trkpt>
      <trkpt lat="43.39063" lon="6.70582">
        <ele>66.402</ele>
        <time>2019-10-12T13:38:20Z</time>
      </trkpt>
      <trkpt lat="43.3908" lon="6.70603">
        <ele>63.007</ele>
        <time>2019-10-12T13:39:11Z</time>
      </trkpt>
      <trkpt lat="43.39077" lon="6.70602">
        <ele>63.591</ele>
        <time>2019-10-12T13:41:38Z</time>
      </trkpt>
      <trkpt lat="43.39083" lon="6.70601">
        <ele>62.07</ele>
        <time>2019-10-12T13:43:06Z</time>
      </trkpt>
      <trkpt lat="43.3909" lon="6.70607">
        <ele>60.85</ele>
        <time>2019-10-12T13:43:22Z</time>
      </trkpt>
      <trkpt lat="43.39091" lon="6.70604">
        <ele>60.301</ele>
        <time>2019-10-12T13:44:50Z</time>
      </trkpt>
      <trkpt lat="43.391" lon="6.70603">
        <ele>58.226</ele>
        <time>2019-10-12T13:44:53Z</time>
      </trkpt>
      <trkpt lat="43.3911" lon="6.70609">
        <ele>56.285</ele>
        <time>2019-10-12T13:44:55Z</time>
      </trkpt>
      <trkpt lat="43.39125" lon="6.7063">
        <ele>54.821</ele>
        <time>2019-10-12T13:44:58Z</time>
      </trkpt>
      <trkpt lat="43.39139" lon="6.70639">
        <ele>53.063</ele>
        <time>2019-10-12T13:45:01Z</time>
      </trkpt>
      <trkpt lat="43.39148" lon="6.70663">
        <ele>53.455</ele>
        <time>2019-10-12T13:45:05Z</time>
      </trkpt>
      <trkpt lat="43.39164" lon="6.70675">
        <ele>52.112</ele>
        <time>2019-10-12T13:45:09Z</time>
      </trkpt>
      <trkpt lat="43.3918" lon="6.70675">
        <ele>50.436</ele>
        <time>2019-10-12T13:45:12Z</time>
      </trkpt>
      <trkpt lat="43.39244" lon="6.70701">
        <ele>46.7</ele>
        <time>2019-10-12T13:45:32Z</time>
      </trkpt>
      <trkpt lat="43.39264" lon="6.70702">
        <ele>44.45</ele>
        <time>2019-10-12T13:45:43Z</time>
      </trkpt>
      <trkpt lat="43.39268" lon="6.70699">
        <ele>43.617</ele>
        <time>2019-10-12T13:45:48Z</time>
      </trkpt>
      <trkpt lat="43.39259" lon="6.70668">
        <ele>38.961</ele>
        <time>2019-10-12T13:45:57Z</time>
      </trkpt>
      <trkpt lat="43.39262" lon="6.70661">
        <ele>38.187</ele>
        <time>2019-10-12T13:45:59Z</time>
      </trkpt>
      <trkpt lat="43.39278" lon="6.70661">
        <ele>38.331</ele>
        <time>2019-10-12T13:46:10Z</time>
      </trkpt>
      <trkpt lat="43.39301" lon="6.70655">
        <ele>39.534</ele>
        <time>2019-10-12T13:46:53Z</time>
      </trkpt>
      <trkpt lat="43.39328" lon="6.70658">
        <ele>40.403</ele>
        <time>2019-10-12T13:47:31Z</time>
      </trkpt>
      <trkpt lat="43.39355" lon="6.70655">
        <ele>43.532</ele>
        <time>2019-10-12T13:47:54Z</time>
      </trkpt>
      <trkpt lat="43.39389" lon="6.70674">
        <ele>43.943</ele>
        <time>2019-10-12T13:48:06Z</time>
      </trkpt>
      <trkpt lat="43.39393" lon="6.70673">
        <ele>44.981</ele>
        <time>2019-10-12T13:48:08Z</time>
      </trkpt>
      <trkpt lat="43.39405" lon="6.70681">
        <ele>45.767</ele>
        <time>2019-10-12T13:48:15Z</time>
      </trkpt>
      <trkpt lat="43.39436" lon="6.70681">
        <ele>51.318</ele>
        <time>2019-10-12T13:48:32Z</time>
      </trkpt>
      <trkpt lat="43.39456" lon="6.70688">
        <ele>50.488</ele>
        <time>2019-10-12T13:49:14Z</time>
      </trkpt>
      <trkpt lat="43.39461" lon="6.70682">
        <ele>52.083</ele>
        <time>2019-10-12T13:49:17Z</time>
      </trkpt>
      <trkpt lat="43.3946" lon="6.70674">
        <ele>53.663</ele>
        <time>2019-10-12T13:49:20Z</time>
      </trkpt>
      <trkpt lat="43.39496" lon="6.70664">
        <ele>53.517</ele>
        <time>2019-10-12T13:49:37Z</time>
      </trkpt>
      <trkpt lat="43.39498" lon="6.70639">
        <ele>57.684</ele>
        <time>2019-10-12T13:49:46Z</time>
      </trkpt>
      <trkpt lat="43.39508" lon="6.70623">
        <ele>59.408</ele>
        <time>2019-10-12T13:49:53Z</time>
      </trkpt>
      <trkpt lat="43.39515" lon="6.70607">
        <ele>60.53</ele>
        <time>2019-10-12T13:50:01Z</time>
      </trkpt>
      <trkpt lat="43.39528" lon="6.70601">
        <ele>59.534</ele>
        <time>2019-10-12T13:50:11Z</time>
      </trkpt>
      <trkpt lat="43.3954" lon="6.70602">
        <ele>58.359</ele>
        <time>2019-10-12T13:50:16Z</time>
      </trkpt>
      <trkpt lat="43.39544" lon="6.70607">
        <ele>57.62</ele>
        <time>2019-10-12T13:50:18Z</time>
      </trkpt>
      <trkpt lat="43.39544" lon="6.70619">
        <ele>56.703</ele>
        <time>2019-10-12T13:50:22Z</time>
      </trkpt>
      <trkpt lat="43.3955" lon="6.70635">
        <ele>53.883</ele>
        <time>2019-10-12T13:50:27Z</time>
      </trkpt>
      <trkpt lat="43.39554" lon="6.70635">
        <ele>53.575</ele>
        <time>2019-10-12T13:50:29Z</time>
      </trkpt>
      <trkpt lat="43.39566" lon="6.70626">
        <ele>54.216</ele>
        <time>2019-10-12T13:50:33Z</time>
      </trkpt>
      <trkpt lat="43.39572" lon="6.70606">
        <ele>55.332</ele>
        <time>2019-10-12T13:50:37Z</time>
      </trkpt>
      <trkpt lat="43.39577" lon="6.706">
        <ele>56.088</ele>
        <time>2019-10-12T13:50:40Z</time>
      </trkpt>
      <trkpt lat="43.39585" lon="6.706">
        <ele>56.793</ele>
        <time>2019-10-12T13:50:44Z</time>
      </trkpt>
      <trkpt lat="43.3959" lon="6.70605">
        <ele>57.056</ele>
        <time>2019-10-12T13:50:47Z</time>
      </trkpt>
      <trkpt lat="43.39602" lon="6.70635">
        <ele>57.042</ele>
        <time>2019-10-12T13:50:57Z</time>
      </trkpt>
      <trkpt lat="43.39605" lon="6.70648">
        <ele>56.575</ele>
        <time>2019-10-12T13:51:04Z</time>
      </trkpt>
      <trkpt lat="43.39604" lon="6.70665">
        <ele>55.249</ele>
        <time>2019-10-12T13:51:11Z</time>
      </trkpt>
      <trkpt lat="43.39614" lon="6.70686">
        <ele>56.289</ele>
        <time>2019-10-12T13:51:21Z</time>
      </trkpt>
      <trkpt lat="43.39657" lon="6.70674">
        <ele>62.772</ele>
        <time>2019-10-12T13:51:52Z</time>
      </trkpt>
      <trkpt lat="43.39674" lon="6.70656">
        <ele>64.228</ele>
        <time>2019-10-12T13:52:03Z</time>
      </trkpt>
      <trkpt lat="43.39705" lon="6.70645">
        <ele>65.498</ele>
        <time>2019-10-12T13:52:12Z</time>
      </trkpt>
      <trkpt lat="43.39721" lon="6.70647">
        <ele>64.787</ele>
        <time>2019-10-12T13:52:16Z</time>
      </trkpt>
      <trkpt lat="43.39732" lon="6.70658">
        <ele>63.944</ele>
        <time>2019-10-12T13:52:19Z</time>
      </trkpt>
      <trkpt lat="43.3974" lon="6.70656">
        <ele>63.748</ele>
        <time>2019-10-12T13:52:21Z</time>
      </trkpt>
      <trkpt lat="43.39771" lon="6.70593">
        <ele>62.586</ele>
        <time>2019-10-12T13:52:34Z</time>
      </trkpt>
      <trkpt lat="43.39775" lon="6.70574">
        <ele>62.79</ele>
        <time>2019-10-12T13:52:37Z</time>
      </trkpt>
      <trkpt lat="43.39798" lon="6.70546">
        <ele>62.884</ele>
        <time>2019-10-12T13:52:46Z</time>
      </trkpt>
      <trkpt lat="43.39804" lon="6.70529">
        <ele>64.194</ele>
        <time>2019-10-12T13:52:50Z</time>
      </trkpt>
      <trkpt lat="43.39806" lon="6.70518">
        <ele>65.214</ele>
        <time>2019-10-12T13:52:52Z</time>
      </trkpt>
      <trkpt lat="43.3982" lon="6.70504">
        <ele>66.95</ele>
        <time>2019-10-12T13:52:56Z</time>
      </trkpt>
      <trkpt lat="43.3983" lon="6.70483">
        <ele>69.734</ele>
        <time>2019-10-12T13:53:01Z</time>
      </trkpt>
      <trkpt lat="43.39835" lon="6.70483">
        <ele>69.919</ele>
        <time>2019-10-12T13:53:03Z</time>
      </trkpt>
      <trkpt lat="43.39848" lon="6.70506">
        <ele>67.476</ele>
        <time>2019-10-12T13:53:15Z</time>
      </trkpt>
      <trkpt lat="43.39854" lon="6.7051">
        <ele>67.852</ele>
        <time>2019-10-12T13:53:19Z</time>
      </trkpt>
      <trkpt lat="43.39858" lon="6.70516">
        <ele>67.645</ele>
        <time>2019-10-12T13:53:22Z</time>
      </trkpt>
      <trkpt lat="43.39868" lon="6.7055">
        <ele>65.76</ele>
        <time>2019-10-12T13:53:31Z</time>
      </trkpt>
      <trkpt lat="43.39891" lon="6.70583">
        <ele>64.655</ele>
        <time>2019-10-12T13:53:39Z</time>
      </trkpt>
      <trkpt lat="43.39899" lon="6.70589">
        <ele>64.228</ele>
        <time>2019-10-12T13:53:41Z</time>
      </trkpt>
      <trkpt lat="43.39917" lon="6.70592">
        <ele>64.423</ele>
        <time>2019-10-12T13:53:45Z</time>
      </trkpt>
      <trkpt lat="43.39927" lon="6.70587">
        <ele>65.283</ele>
        <time>2019-10-12T13:53:48Z</time>
      </trkpt>
      <trkpt lat="43.39945" lon="6.70569">
        <ele>66.771</ele>
        <time>2019-10-12T13:53:56Z</time>
      </trkpt>
      <trkpt lat="43.39979" lon="6.70546">
        <ele>67.503</ele>
        <time>2019-10-12T13:54:11Z</time>
      </trkpt>
      <trkpt lat="43.39987" lon="6.70523">
        <ele>68.566</ele>
        <time>2019-10-12T13:54:17Z</time>
      </trkpt>
      <trkpt lat="43.39987" lon="6.70497">
        <ele>71.273</ele>
        <time>2019-10-12T13:54:22Z</time>
      </trkpt>
      <trkpt lat="43.40002" lon="6.70449">
        <ele>73.085</ele>
        <time>2019-10-12T13:54:33Z</time>
      </trkpt>
      <trkpt lat="43.40003" lon="6.7043">
        <ele>75.34</ele>
        <time>2019-10-12T13:54:36Z</time>
      </trkpt>
      <trkpt lat="43.40007" lon="6.70426">
        <ele>75.028</ele>
        <time>2019-10-12T13:54:37Z</time>
      </trkpt>
      <trkpt lat="43.40043" lon="6.70426">
        <ele>69.402</ele>
        <time>2019-10-12T13:54:53Z</time>
      </trkpt>
      <trkpt lat="43.40056" lon="6.70418">
        <ele>69.372</ele>
        <time>2019-10-12T13:55:03Z</time>
      </trkpt>
      <trkpt lat="43.40075" lon="6.70421">
        <ele>67.644</ele>
        <time>2019-10-12T13:55:09Z</time>
      </trkpt>
      <trkpt lat="43.40077" lon="6.70424">
        <ele>67.329</ele>
        <time>2019-10-12T13:55:16Z</time>
      </trkpt>
      <trkpt lat="43.40078" lon="6.70441">
        <ele>66.327</ele>
        <time>2019-10-12T13:55:52Z</time>
      </trkpt>
      <trkpt lat="43.40083" lon="6.7045">
        <ele>65.8</ele>
        <time>2019-10-12T13:55:54Z</time>
      </trkpt>
      <trkpt lat="43.40086" lon="6.70471">
        <ele>64.957</ele>
        <time>2019-10-12T13:55:58Z</time>
      </trkpt>
      <trkpt lat="43.40093" lon="6.7047">
        <ele>65.182</ele>
        <time>2019-10-12T13:56:01Z</time>
      </trkpt>
      <trkpt lat="43.40102" lon="6.70477">
        <ele>65.382</ele>
        <time>2019-10-12T13:56:05Z</time>
      </trkpt>
      <trkpt lat="43.40105" lon="6.70496">
        <ele>64.981</ele>
        <time>2019-10-12T13:56:10Z</time>
      </trkpt>
      <trkpt lat="43.40114" lon="6.70518">
        <ele>65.339</ele>
        <time>2019-10-12T13:56:17Z</time>
      </trkpt>
      <trkpt lat="43.40116" lon="6.70542">
        <ele>64.96</ele>
        <time>2019-10-12T13:56:22Z</time>
      </trkpt>
      <trkpt lat="43.40118" lon="6.70546">
        <ele>64.543</ele>
        <time>2019-10-12T13:56:23Z</time>
      </trkpt>
      <trkpt lat="43.40133" lon="6.70549">
        <ele>63.913</ele>
        <time>2019-10-12T13:56:29Z</time>
      </trkpt>
      <trkpt lat="43.40136" lon="6.70564">
        <ele>61.976</ele>
        <time>2019-10-12T13:56:34Z</time>
      </trkpt>
      <trkpt lat="43.40142" lon="6.70576">
        <ele>60.864</ele>
        <time>2019-10-12T13:56:39Z</time>
      </trkpt>
      <trkpt lat="43.40152" lon="6.70586">
        <ele>60.432</ele>
        <time>2019-10-12T13:56:43Z</time>
      </trkpt>
      <trkpt lat="43.40168" lon="6.70626">
        <ele>56.063</ele>
        <time>2019-10-12T13:56:49Z</time>
      </trkpt>
      <trkpt lat="43.40183" lon="6.70647">
        <ele>53.59</ele>
        <time>2019-10-12T13:56:53Z</time>
      </trkpt>
      <trkpt lat="43.40204" lon="6.70705">
        <ele>50.327</ele>
        <time>2019-10-12T13:57:04Z</time>
      </trkpt>
      <trkpt lat="43.40212" lon="6.70716">
        <ele>49.863</ele>
        <time>2019-10-12T13:57:07Z</time>
      </trkpt>
      <trkpt lat="43.40213" lon="6.70727">
        <ele>49.576</ele>
        <time>2019-10-12T13:57:09Z</time>
      </trkpt>
      <trkpt lat="43.40208" lon="6.70767">
        <ele>48.635</ele>
        <time>2019-10-12T13:57:16Z</time>
      </trkpt>
      <trkpt lat="43.40198" lon="6.70809">
        <ele>47.227</ele>
        <time>2019-10-12T13:57:53Z</time>
      </trkpt>
      <trkpt lat="43.40172" lon="6.70844">
        <ele>43.748</ele>
        <time>2019-10-12T13:58:02Z</time>
      </trkpt>
      <trkpt lat="43.4015" lon="6.70886">
        <ele>39.213</ele>
        <time>2019-10-12T13:58:10Z</time>
      </trkpt>
      <trkpt lat="43.40133" lon="6.70973">
        <ele>25.805</ele>
        <time>2019-10-12T13:58:29Z</time>
      </trkpt>
      <trkpt lat="43.40135" lon="6.71034">
        <ele>19.354</ele>
        <time>2019-10-12T13:58:39Z</time>
      </trkpt>
      <trkpt lat="43.40139" lon="6.71055">
        <ele>16.808</ele>
        <time>2019-10-12T13:58:44Z</time>
      </trkpt>
      <trkpt lat="43.40141" lon="6.71082">
        <ele>13.338</ele>
        <time>2019-10-12T13:58:49Z</time>
      </trkpt>
      <trkpt lat="43.40139" lon="6.71122">
        <ele>9.523</ele>
        <time>2019-10-12T13:58:55Z</time>
      </trkpt>
      <trkpt lat="43.40147" lon="6.71218">
        <ele>5.75</ele>
        <time>2019-10-12T14:01:25Z</time>
      </trkpt>
      <trkpt lat="43.40146" lon="6.71253">
        <ele>5.178</ele>
        <time>2019-10-12T14:01:32Z</time>
      </trkpt>
      <trkpt lat="43.40135" lon="6.71271">
        <ele>5.106</ele>
        <time>2019-10-12T14:01:37Z</time>
      </trkpt>
      <trkpt lat="43.40049" lon="6.71347">
        <ele>4.615</ele>
        <time>2019-10-12T14:02:01Z</time>
      </trkpt>
      <trkpt lat="43.39979" lon="6.71489">
        <ele>3.367</ele>
        <time>2019-10-12T14:02:34Z</time>
      </trkpt>
      <trkpt lat="43.39979" lon="6.71509">
        <ele>3.365</ele>
        <time>2019-10-12T14:02:38Z</time>
      </trkpt>
      <trkpt lat="43.39991" lon="6.71585">
        <ele>3.87</ele>
        <time>2019-10-12T14:02:52Z</time>
      </trkpt>
      <trkpt lat="43.39979" lon="6.7163">
        <ele>6.37</ele>
        <time>2019-10-12T14:03:02Z</time>
      </trkpt>
      <trkpt lat="43.39981" lon="6.71651">
        <ele>6.983</ele>
        <time>2019-10-12T14:03:07Z</time>
      </trkpt>
      <trkpt lat="43.39987" lon="6.71666">
        <ele>6.834</ele>
        <time>2019-10-12T14:03:15Z</time>
      </trkpt>
      <trkpt lat="43.39985" lon="6.7166">
        <ele>6.854</ele>
        <time>2019-10-11T13:56:45Z</time>
      </trkpt>
      <trkpt lat="43.39991" lon="6.71668">
        <ele>6.609</ele>
        <time>2019-10-11T13:56:53Z</time>
      </trkpt>
      <trkpt lat="43.39995" lon="6.71669">
        <ele>6.386</ele>
        <time>2019-10-11T13:57:01Z</time>
      </trkpt>
      <trkpt lat="43.39995" lon="6.71677">
        <ele>6.579</ele>
        <time>2019-10-11T13:57:07Z</time>
      </trkpt>
      <trkpt lat="43.39974" lon="6.71739">
        <ele>8.036</ele>
        <time>2019-10-11T13:57:25Z</time>
      </trkpt>
      <trkpt lat="43.3995" lon="6.71777">
        <ele>8.424</ele>
        <time>2019-10-11T13:57:38Z</time>
      </trkpt>
      <trkpt lat="43.39956" lon="6.71802">
        <ele>8.15</ele>
        <time>2019-10-11T13:57:46Z</time>
      </trkpt>
      <trkpt lat="43.39937" lon="6.71846">
        <ele>8</ele>
        <time>2019-10-11T13:57:55Z</time>
      </trkpt>
      <trkpt lat="43.399" lon="6.71875">
        <ele>8.085</ele>
        <time>2019-10-11T13:58:00Z</time>
      </trkpt>
      <trkpt lat="43.39892" lon="6.71858">
        <ele>8.313</ele>
        <time>2019-10-11T13:58:06Z</time>
      </trkpt>
      <trkpt lat="43.39891" lon="6.7184">
        <ele>8.551</ele>
        <time>2019-10-11T13:58:15Z</time>
      </trkpt>
      <trkpt lat="43.39774" lon="6.71878">
        <ele>9.211</ele>
        <time>2019-10-11T13:58:24Z</time>
      </trkpt>
      <trkpt lat="43.3971" lon="6.71895">
        <ele>9.523</ele>
        <time>2019-10-11T13:58:38Z</time>
      </trkpt>
      <trkpt lat="43.39617" lon="6.71883">
        <ele>8.543</ele>
        <time>2019-05-28T13:32:17Z</time>
      </trkpt>
      <trkpt lat="43.39291" lon="6.71816">
        <ele>10.181</ele>
        <time>2019-05-28T13:33:26Z</time>
      </trkpt>
      <trkpt lat="43.39256" lon="6.7182">
        <ele>10.643</ele>
        <time>2019-05-28T13:33:34Z</time>
      </trkpt>
      <trkpt lat="43.39213" lon="6.71845">
        <ele>10.41</ele>
        <time>2019-05-28T13:33:44Z</time>
      </trkpt>
      <trkpt lat="43.39181" lon="6.71873">
        <ele>10.296</ele>
        <time>2019-05-28T13:33:53Z</time>
      </trkpt>
      <trkpt lat="43.39172" lon="6.719">
        <ele>9.405</ele>
        <time>2019-05-28T13:33:58Z</time>
      </trkpt>
      <trkpt lat="43.39168" lon="6.71904">
        <ele>9.35</ele>
        <time>2019-05-28T13:33:59Z</time>
      </trkpt>
      <trkpt lat="43.39155" lon="6.71908">
        <ele>9.607</ele>
        <time>2019-05-28T13:34:02Z</time>
      </trkpt>
      <trkpt lat="43.39121" lon="6.71985">
        <ele>8.936</ele>
        <time>2019-05-28T13:34:14Z</time>
      </trkpt>
      <trkpt lat="43.39098" lon="6.72022">
        <ele>8.404</ele>
        <time>2019-05-28T13:34:21Z</time>
      </trkpt>
      <trkpt lat="43.39093" lon="6.72036">
        <ele>8.532</ele>
        <time>2019-05-28T13:34:23Z</time>
      </trkpt>
      <trkpt lat="43.39077" lon="6.72117">
        <ele>8.917</ele>
        <time>2019-05-28T13:34:33Z</time>
      </trkpt>
      <trkpt lat="43.39076" lon="6.72137">
        <ele>9.422</ele>
        <time>2019-05-28T13:34:36Z</time>
      </trkpt>
      <trkpt lat="43.39082" lon="6.72156">
        <ele>10.194</ele>
        <time>2019-05-28T13:34:39Z</time>
      </trkpt>
      <trkpt lat="43.39091" lon="6.72169">
        <ele>10.209</ele>
        <time>2019-05-28T13:34:42Z</time>
      </trkpt>
      <trkpt lat="43.39123" lon="6.72229">
        <ele>9.774</ele>
        <time>2019-05-28T13:34:55Z</time>
      </trkpt>
      <trkpt lat="43.39143" lon="6.72292">
        <ele>7.96</ele>
        <time>2019-05-28T13:35:06Z</time>
      </trkpt>
      <trkpt lat="43.39149" lon="6.72322">
        <ele>7.662</ele>
        <time>2019-05-28T13:35:10Z</time>
      </trkpt>
      <trkpt lat="43.39162" lon="6.72488">
        <ele>9.733</ele>
        <time>2019-05-28T13:35:35Z</time>
      </trkpt>
      <trkpt lat="43.3916" lon="6.72504">
        <ele>10.211</ele>
        <time>2019-05-28T13:35:38Z</time>
      </trkpt>
      <trkpt lat="43.39124" lon="6.72574">
        <ele>12.023</ele>
        <time>2019-05-28T13:35:54Z</time>
      </trkpt>
      <trkpt lat="43.39129" lon="6.7259">
        <ele>11.297</ele>
        <time>2019-05-28T13:35:57Z</time>
      </trkpt>
      <trkpt lat="43.3915" lon="6.72628">
        <ele>9.545</ele>
        <time>2019-05-28T13:36:03Z</time>
      </trkpt>
      <trkpt lat="43.39152" lon="6.72637">
        <ele>9.586</ele>
        <time>2019-05-28T13:36:04Z</time>
      </trkpt>
      <trkpt lat="43.39152" lon="6.72663">
        <ele>9.995</ele>
        <time>2019-05-28T13:36:07Z</time>
      </trkpt>
      <trkpt lat="43.39147" lon="6.72691">
        <ele>10.55</ele>
        <time>2019-05-28T13:36:11Z</time>
      </trkpt>
      <trkpt lat="43.39141" lon="6.7274">
        <ele>11.623</ele>
        <time>2019-05-28T13:36:22Z</time>
      </trkpt>
      <trkpt lat="43.39149" lon="6.72778">
        <ele>11.414</ele>
        <time>2019-05-28T13:36:27Z</time>
      </trkpt>
      <trkpt lat="43.39149" lon="6.72801">
        <ele>11.487</ele>
        <time>2019-05-28T13:36:30Z</time>
      </trkpt>
      <trkpt lat="43.39147" lon="6.72809">
        <ele>11.711</ele>
        <time>2019-05-28T13:36:31Z</time>
      </trkpt>
      <trkpt lat="43.39133" lon="6.72828">
        <ele>12.784</ele>
        <time>2019-05-28T13:36:35Z</time>
      </trkpt>
      <trkpt lat="43.39071" lon="6.72883">
        <ele>13.849</ele>
        <time>2019-05-28T13:36:51Z</time>
      </trkpt>
      <trkpt lat="43.39063" lon="6.72887">
        <ele>13.954</ele>
        <time>2019-05-28T13:36:53Z</time>
      </trkpt>
      <trkpt lat="43.39028" lon="6.72872">
        <ele>14.925</ele>
        <time>2019-05-28T13:37:02Z</time>
      </trkpt>
      <trkpt lat="43.38912" lon="6.7279">
        <ele>17.493</ele>
        <time>2019-05-28T13:37:39Z</time>
      </trkpt>
      <trkpt lat="43.38888" lon="6.72778">
        <ele>17.237</ele>
        <time>2019-05-28T13:37:47Z</time>
      </trkpt>
      <trkpt lat="43.38885" lon="6.72781">
        <ele>17.081</ele>
        <time>2019-05-28T13:37:48Z</time>
      </trkpt>
      <trkpt lat="43.38811" lon="6.72993">
        <ele>5.564</ele>
        <time>2019-05-28T13:38:14Z</time>
      </trkpt>
      <trkpt lat="43.38799" lon="6.73018">
        <ele>2.608</ele>
        <time>2019-05-28T13:38:18Z</time>
      </trkpt>
      <trkpt lat="43.38796" lon="6.73021">
        <ele>2.25</ele>
        <time>2019-05-28T13:38:29Z</time>
      </trkpt>
      <trkpt lat="43.38806" lon="6.73032">
        <ele>1.5</ele>
        <time>2019-05-28T13:38:36Z</time>
      </trkpt>
      <trkpt lat="43.38818" lon="6.73052">
        <ele>1.099</ele>
        <time>2019-05-28T13:38:42Z</time>
      </trkpt>
      <trkpt lat="43.38824" lon="6.73056">
        <ele>1.099</ele>
        <time>2019-05-28T13:38:44Z</time>
      </trkpt>
      <trkpt lat="43.38835" lon="6.73049">
        <ele>1.492</ele>
        <time>2019-05-28T13:38:48Z</time>
      </trkpt>
      <trkpt lat="43.38841" lon="6.7302">
        <ele>3.94</ele>
        <time>2019-05-28T13:38:55Z</time>
      </trkpt>
      <trkpt lat="43.38847" lon="6.73019">
        <ele>4.357</ele>
        <time>2019-05-28T13:38:58Z</time>
      </trkpt>
      <trkpt lat="43.38861" lon="6.73043">
        <ele>2.677</ele>
        <time>2019-05-28T13:39:23Z</time>
      </trkpt>
      <trkpt lat="43.38902" lon="6.73062">
        <ele>4.008</ele>
        <time>2019-05-28T13:39:36Z</time>
      </trkpt>
      <trkpt lat="43.38918" lon="6.7306">
        <ele>5.585</ele>
        <time>2019-05-28T13:39:41Z</time>
      </trkpt>
      <trkpt lat="43.38924" lon="6.73055">
        <ele>6.423</ele>
        <time>2019-05-28T13:39:43Z</time>
      </trkpt>
      <trkpt lat="43.38931" lon="6.7306">
        <ele>6.734</ele>
        <time>2019-05-28T13:39:46Z</time>
      </trkpt>
      <trkpt lat="43.38931" lon="6.73067">
        <ele>6.185</ele>
        <time>2019-05-28T13:39:49Z</time>
      </trkpt>
      <trkpt lat="43.38925" lon="6.73092">
        <ele>3.758</ele>
        <time>2019-05-28T13:40:09Z</time>
      </trkpt>
      <trkpt lat="43.38927" lon="6.731">
        <ele>3.255</ele>
        <time>2019-05-28T13:40:12Z</time>
      </trkpt>
      <trkpt lat="43.38934" lon="6.73115">
        <ele>3.313</ele>
        <time>2019-05-28T13:40:18Z</time>
      </trkpt>
      <trkpt lat="43.38942" lon="6.73119">
        <ele>4.192</ele>
        <time>2019-05-28T13:40:22Z</time>
      </trkpt>
      <trkpt lat="43.38971" lon="6.73162">
        <ele>3.066</ele>
        <time>2019-05-28T13:40:34Z</time>
      </trkpt>
      <trkpt lat="43.38972" lon="6.73177">
        <ele>1.85</ele>
        <time>2019-05-28T13:40:39Z</time>
      </trkpt>
      <trkpt lat="43.38975" lon="6.73177">
        <ele>2.059</ele>
        <time>2019-05-28T13:40:42Z</time>
      </trkpt>
      <trkpt lat="43.38983" lon="6.73166">
        <ele>3.426</ele>
        <time>2019-05-28T13:40:47Z</time>
      </trkpt>
      <trkpt lat="43.38987" lon="6.73169">
        <ele>3.402</ele>
        <time>2019-05-28T13:40:49Z</time>
      </trkpt>
      <trkpt lat="43.39004" lon="6.73199">
        <ele>2.442</ele>
        <time>2019-05-28T13:41:00Z</time>
      </trkpt>
      <trkpt lat="43.39015" lon="6.73204">
        <ele>2.619</ele>
        <time>2019-05-28T13:41:05Z</time>
      </trkpt>
      <trkpt lat="43.39033" lon="6.73195">
        <ele>3.431</ele>
        <time>2019-05-28T13:41:11Z</time>
      </trkpt>
      <trkpt lat="43.3904" lon="6.73181">
        <ele>4.581</ele>
        <time>2019-05-28T13:41:17Z</time>
      </trkpt>
      <trkpt lat="43.3905" lon="6.73179">
        <ele>4.806</ele>
        <time>2019-05-28T13:41:24Z</time>
      </trkpt>
      <trkpt lat="43.3907" lon="6.73194">
        <ele>3.278</ele>
        <time>2019-05-28T13:41:39Z</time>
      </trkpt>
      <trkpt lat="43.39093" lon="6.7319">
        <ele>2.427</ele>
        <time>2019-05-28T13:41:45Z</time>
      </trkpt>
      <trkpt lat="43.39119" lon="6.73162">
        <ele>2.228</ele>
        <time>2019-05-28T13:41:52Z</time>
      </trkpt>
      <trkpt lat="43.39122" lon="6.7314">
        <ele>2.793</ele>
        <time>2019-05-28T13:41:57Z</time>
      </trkpt>
      <trkpt lat="43.39119" lon="6.73105">
        <ele>4.573</ele>
        <time>2019-05-28T13:42:03Z</time>
      </trkpt>
      <trkpt lat="43.39121" lon="6.73083">
        <ele>5.424</ele>
        <time>2019-05-28T13:42:07Z</time>
      </trkpt>
      <trkpt lat="43.39126" lon="6.73056">
        <ele>5.741</ele>
        <time>2019-05-28T13:42:12Z</time>
      </trkpt>
      <trkpt lat="43.39139" lon="6.73035">
        <ele>3.967</ele>
        <time>2019-05-28T13:42:16Z</time>
      </trkpt>
      <trkpt lat="43.39152" lon="6.72998">
        <ele>2.342</ele>
        <time>2019-05-28T13:42:21Z</time>
      </trkpt>
      <trkpt lat="43.39201" lon="6.72924">
        <ele>3.168</ele>
        <time>2019-05-28T13:42:38Z</time>
      </trkpt>
      <trkpt lat="43.39217" lon="6.72923">
        <ele>2.069</ele>
        <time>2019-05-28T13:42:43Z</time>
      </trkpt>
      <trkpt lat="43.39222" lon="6.72874">
        <ele>4.573</ele>
        <time>2019-05-28T13:42:54Z</time>
      </trkpt>
      <trkpt lat="43.39229" lon="6.72848">
        <ele>4.385</ele>
        <time>2019-05-28T13:43:02Z</time>
      </trkpt>
      <trkpt lat="43.39223" lon="6.72822">
        <ele>5.215</ele>
        <time>2019-05-28T13:43:24Z</time>
      </trkpt>
      <trkpt lat="43.39267" lon="6.72819">
        <ele>2.604</ele>
        <time>2019-05-28T13:43:42Z</time>
      </trkpt>
      <trkpt lat="43.39354" lon="6.72823">
        <ele>1.204</ele>
        <time>2019-05-28T13:44:07Z</time>
      </trkpt>
      <trkpt lat="43.39363" lon="6.72821">
        <ele>1.249</ele>
        <time>2019-05-28T13:44:09Z</time>
      </trkpt>
      <trkpt lat="43.3937" lon="6.72815">
        <ele>1.392</ele>
        <time>2019-05-28T13:44:11Z</time>
      </trkpt>
      <trkpt lat="43.39383" lon="6.72785">
        <ele>1.939</ele>
        <time>2019-05-28T13:44:16Z</time>
      </trkpt>
      <trkpt lat="43.39392" lon="6.72782">
        <ele>1.845</ele>
        <time>2019-05-28T13:44:18Z</time>
      </trkpt>
      <trkpt lat="43.39804" lon="6.72934">
        <ele>0.876</ele>
        <time>2019-05-28T13:45:37Z</time>
      </trkpt>
      <trkpt lat="43.39846" lon="6.72945">
        <ele>0.81</ele>
        <time>2019-05-28T13:45:45Z</time>
      </trkpt>
      <trkpt lat="43.39902" lon="6.72965">
        <ele>1</ele>
        <time>2019-05-28T13:45:56Z</time>
      </trkpt>
      <trkpt lat="43.39955" lon="6.72977">
        <ele>1</ele>
        <time>2019-05-28T13:46:06Z</time>
      </trkpt>
      <trkpt lat="43.40163" lon="6.7299">
        <ele>2.123</ele>
        <time>2019-05-28T13:46:45Z</time>
      </trkpt>
      <trkpt lat="43.4023" lon="6.7299">
        <ele>2.493</ele>
        <time>2019-05-28T13:46:57Z</time>
      </trkpt>
      <trkpt lat="43.40252" lon="6.72986">
        <ele>2.589</ele>
        <time>2019-05-28T13:47:01Z</time>
      </trkpt>
      <trkpt lat="43.40309" lon="6.72968">
        <ele>2.961</ele>
        <time>2019-05-28T13:47:11Z</time>
      </trkpt>
      <trkpt lat="43.40356" lon="6.72945">
        <ele>2.66</ele>
        <time>2019-05-28T13:47:20Z</time>
      </trkpt>
      <trkpt lat="43.40379" lon="6.72928">
        <ele>2.681</ele>
        <time>2019-05-28T13:47:25Z</time>
      </trkpt>
      <trkpt lat="43.40393" lon="6.72905">
        <ele>3</ele>
        <time>2019-05-28T13:47:29Z</time>
      </trkpt>
      <trkpt lat="43.40475" lon="6.72821">
        <ele>3.494</ele>
        <time>2019-05-28T13:47:49Z</time>
      </trkpt>
      <trkpt lat="43.40538" lon="6.72761">
        <ele>3.337</ele>
        <time>2019-05-28T13:48:04Z</time>
      </trkpt>
      <trkpt lat="43.40576" lon="6.7273">
        <ele>2.76</ele>
        <time>2019-05-28T13:48:13Z</time>
      </trkpt>
      <trkpt lat="43.4058" lon="6.72718">
        <ele>2.665</ele>
        <time>2019-05-28T13:48:15Z</time>
      </trkpt>
      <trkpt lat="43.40588" lon="6.7266">
        <ele>2.54</ele>
        <time>2019-05-28T13:48:24Z</time>
      </trkpt>
      <trkpt lat="43.40596" lon="6.72646">
        <ele>2.38</ele>
        <time>2019-05-28T13:48:27Z</time>
      </trkpt>
      <trkpt lat="43.40642" lon="6.7264">
        <ele>1.801</ele>
        <time>2019-05-28T13:48:37Z</time>
      </trkpt>
      <trkpt lat="43.40683" lon="6.72615">
        <ele>1.545</ele>
        <time>2019-05-28T13:48:47Z</time>
      </trkpt>
      <trkpt lat="43.40756" lon="6.72542">
        <ele>2</ele>
        <time>2019-05-28T13:49:07Z</time>
      </trkpt>
      <trkpt lat="43.4085" lon="6.7244">
        <ele>3.013</ele>
        <time>2019-05-28T13:49:34Z</time>
      </trkpt>
      <trkpt lat="43.40876" lon="6.72404">
        <ele>3.495</ele>
        <time>2019-05-28T13:49:42Z</time>
      </trkpt>
      <trkpt lat="43.40884" lon="6.72399">
        <ele>3.7</ele>
        <time>2019-05-28T13:49:44Z</time>
      </trkpt>
      <trkpt lat="43.40907" lon="6.724">
        <ele>3.93</ele>
        <time>2019-05-28T13:49:51Z</time>
      </trkpt>
      <trkpt lat="43.40926" lon="6.72422">
        <ele>3.893</ele>
        <time>2019-05-28T13:50:00Z</time>
      </trkpt>
      <trkpt lat="43.40981" lon="6.72413">
        <ele>4</ele>
        <time>2019-05-28T13:50:12Z</time>
      </trkpt>
      <trkpt lat="43.4103" lon="6.72418">
        <ele>4</ele>
        <time>2019-05-28T13:50:22Z</time>
      </trkpt>
      <trkpt lat="43.41049" lon="6.72425">
        <ele>4</ele>
        <time>2019-05-28T13:50:26Z</time>
      </trkpt>
      <trkpt lat="43.41066" lon="6.72437">
        <ele>4</ele>
        <time>2019-05-28T13:50:30Z</time>
      </trkpt>
      <trkpt lat="43.41085" lon="6.72458">
        <ele>4.054</ele>
        <time>2019-05-28T13:50:36Z</time>
      </trkpt>
      <trkpt lat="43.41167" lon="6.72509">
        <ele>4.459</ele>
        <time>2019-05-28T13:50:54Z</time>
      </trkpt>
      <trkpt lat="43.41177" lon="6.72507">
        <ele>4.496</ele>
        <time>2019-05-28T13:50:56Z</time>
      </trkpt>
      <trkpt lat="43.4119" lon="6.72496">
        <ele>4.699</ele>
        <time>2019-05-28T13:50:59Z</time>
      </trkpt>
      <trkpt lat="43.41197" lon="6.72479">
        <ele>4.973</ele>
        <time>2019-05-28T13:51:02Z</time>
      </trkpt>
      <trkpt lat="43.41204" lon="6.72473">
        <ele>5</ele>
        <time>2019-05-28T13:51:04Z</time>
      </trkpt>
      <trkpt lat="43.4122" lon="6.72478">
        <ele>4.683</ele>
        <time>2019-05-28T13:51:08Z</time>
      </trkpt>
      <trkpt lat="43.41243" lon="6.72478">
        <ele>4.199</ele>
        <time>2019-05-28T13:51:13Z</time>
      </trkpt>
      <trkpt lat="43.41277" lon="6.72472">
        <ele>4.076</ele>
        <time>2019-05-28T13:51:20Z</time>
      </trkpt>
      <trkpt lat="43.4131" lon="6.72459">
        <ele>4</ele>
        <time>2019-05-28T13:51:26Z</time>
      </trkpt>
      <trkpt lat="43.41339" lon="6.72454">
        <ele>4</ele>
        <time>2019-05-28T13:51:32Z</time>
      </trkpt>
      <trkpt lat="43.41354" lon="6.72462">
        <ele>4</ele>
        <time>2019-05-28T13:51:35Z</time>
      </trkpt>
      <trkpt lat="43.41387" lon="6.72496">
        <ele>3.94</ele>
        <time>2019-05-28T13:51:43Z</time>
      </trkpt>
      <trkpt lat="43.41405" lon="6.72521">
        <ele>3.53</ele>
        <time>2019-05-28T13:51:48Z</time>
      </trkpt>
      <trkpt lat="43.41411" lon="6.72547">
        <ele>3.357</ele>
        <time>2019-05-28T13:51:52Z</time>
      </trkpt>
      <trkpt lat="43.41426" lon="6.7258">
        <ele>3.002</ele>
        <time>2019-05-28T13:51:58Z</time>
      </trkpt>
      <trkpt lat="43.41438" lon="6.72616">
        <ele>3</ele>
        <time>2019-05-28T13:52:05Z</time>
      </trkpt>
      <trkpt lat="43.41477" lon="6.72642">
        <ele>2.554</ele>
        <time>2019-05-28T13:52:15Z</time>
      </trkpt>
      <trkpt lat="43.41537" lon="6.72662">
        <ele>2</ele>
        <time>2019-05-28T13:52:30Z</time>
      </trkpt>
      <trkpt lat="43.41521" lon="6.7269">
        <ele>2</ele>
        <time>2019-05-28T13:52:42Z</time>
      </trkpt>
      <trkpt lat="43.41564" lon="6.72712">
        <ele>2.067</ele>
        <time>2019-05-28T13:52:55Z</time>
      </trkpt>
      <trkpt lat="43.4157" lon="6.72708">
        <ele>2.086</ele>
        <time>2019-05-28T13:52:57Z</time>
      </trkpt>
      <trkpt lat="43.41576" lon="6.72696">
        <ele>2.032</ele>
        <time>2019-05-28T13:53:00Z</time>
      </trkpt>
      <trkpt lat="43.41584" lon="6.72688">
        <ele>2</ele>
        <time>2019-05-28T13:53:03Z</time>
      </trkpt>
      <trkpt lat="43.41586" lon="6.7269">
        <ele>2</ele>
        <time>2019-05-28T13:53:04Z</time>
      </trkpt>
      <trkpt lat="43.41572" lon="6.72726">
        <ele>2.209</ele>
        <time>2019-05-28T13:53:12Z</time>
      </trkpt>
      <trkpt lat="43.41576" lon="6.72739">
        <ele>2.37</ele>
        <time>2019-05-28T13:53:15Z</time>
      </trkpt>
      <trkpt lat="43.41588" lon="6.72748">
        <ele>2.686</ele>
        <time>2019-05-28T13:53:19Z</time>
      </trkpt>
      <trkpt lat="43.41589" lon="6.72753">
        <ele>2.759</ele>
        <time>2019-05-28T13:53:21Z</time>
      </trkpt>
      <trkpt lat="43.41584" lon="6.72765">
        <ele>2.855</ele>
        <time>2019-05-28T13:53:29Z</time>
      </trkpt>
      <trkpt lat="43.41585" lon="6.7278">
        <ele>3.131</ele>
        <time>2019-05-28T13:53:38Z</time>
      </trkpt>
      <trkpt lat="43.41579" lon="6.72791">
        <ele>3.206</ele>
        <time>2019-05-28T13:53:42Z</time>
      </trkpt>
      <trkpt lat="43.41564" lon="6.72805">
        <ele>3.118</ele>
        <time>2019-05-28T13:53:46Z</time>
      </trkpt>
      <trkpt lat="43.41557" lon="6.7282">
        <ele>3.218</ele>
        <time>2019-05-28T13:53:49Z</time>
      </trkpt>
      <trkpt lat="43.41562" lon="6.72828">
        <ele>3.412</ele>
        <time>2019-05-28T13:53:51Z</time>
      </trkpt>
      <trkpt lat="43.4157" lon="6.7283">
        <ele>3.558</ele>
        <time>2019-05-28T13:53:53Z</time>
      </trkpt>
      <trkpt lat="43.4161" lon="6.72815">
        <ele>3.959</ele>
        <time>2019-05-28T13:54:02Z</time>
      </trkpt>
      <trkpt lat="43.41638" lon="6.72822">
        <ele>4.022</ele>
        <time>2019-05-28T13:54:08Z</time>
      </trkpt>
      <trkpt lat="43.41643" lon="6.72833">
        <ele>4.202</ele>
        <time>2019-05-28T13:54:10Z</time>
      </trkpt>
      <trkpt lat="43.41641" lon="6.72846">
        <ele>4.423</ele>
        <time>2019-05-28T13:54:12Z</time>
      </trkpt>
      <trkpt lat="43.41635" lon="6.72856">
        <ele>4.528</ele>
        <time>2019-05-28T13:54:14Z</time>
      </trkpt>
      <trkpt lat="43.41583" lon="6.72904">
        <ele>4.434</ele>
        <time>2019-05-28T13:54:29Z</time>
      </trkpt>
      <trkpt lat="43.41585" lon="6.72919">
        <ele>4.673</ele>
        <time>2019-05-28T13:54:32Z</time>
      </trkpt>
      <trkpt lat="43.41582" lon="6.72946">
        <ele>5</ele>
        <time>2019-05-28T13:54:36Z</time>
      </trkpt>
      <trkpt lat="43.41564" lon="6.72961">
        <ele>5</ele>
        <time>2019-05-28T13:54:41Z</time>
      </trkpt>
      <trkpt lat="43.41551" lon="6.72976">
        <ele>5</ele>
        <time>2019-05-28T13:54:45Z</time>
      </trkpt>
      <trkpt lat="43.41499" lon="6.72982">
        <ele>4.799</ele>
        <time>2019-05-28T13:54:55Z</time>
      </trkpt>
      <trkpt lat="43.4149" lon="6.73033">
        <ele>5</ele>
        <time>2019-05-28T13:55:03Z</time>
      </trkpt>
      <trkpt lat="43.41478" lon="6.73044">
        <ele>5</ele>
        <time>2019-05-28T13:55:06Z</time>
      </trkpt>
      <trkpt lat="43.41469" lon="6.73045">
        <ele>5</ele>
        <time>2019-05-28T13:55:08Z</time>
      </trkpt>
      <trkpt lat="43.41444" lon="6.73035">
        <ele>4.81</ele>
        <time>2019-05-28T13:55:14Z</time>
      </trkpt>
      <trkpt lat="43.41437" lon="6.73041">
        <ele>4.668</ele>
        <time>2019-05-28T13:55:16Z</time>
      </trkpt>
      <trkpt lat="43.41436" lon="6.73053">
        <ele>4.626</ele>
        <time>2019-05-28T13:55:18Z</time>
      </trkpt>
      <trkpt lat="43.41438" lon="6.73071">
        <ele>4.494</ele>
        <time>2019-05-28T13:55:21Z</time>
      </trkpt>
      <trkpt lat="43.41438" lon="6.731">
        <ele>4.161</ele>
        <time>2019-05-28T13:55:26Z</time>
      </trkpt>
      <trkpt lat="43.41443" lon="6.73121">
        <ele>3.985</ele>
        <time>2019-05-28T13:55:30Z</time>
      </trkpt>
      <trkpt lat="43.41438" lon="6.7314">
        <ele>3.907</ele>
        <time>2019-05-28T13:55:33Z</time>
      </trkpt>
      <trkpt lat="43.41445" lon="6.73175">
        <ele>3.958</ele>
        <time>2019-05-28T13:55:39Z</time>
      </trkpt>
      <trkpt lat="43.41449" lon="6.73188">
        <ele>3.824</ele>
        <time>2019-05-28T13:55:41Z</time>
      </trkpt>
      <trkpt lat="43.41448" lon="6.73214">
        <ele>3.418</ele>
        <time>2019-05-28T13:55:45Z</time>
      </trkpt>
      <trkpt lat="43.41442" lon="6.73221">
        <ele>3.243</ele>
        <time>2019-05-28T13:55:47Z</time>
      </trkpt>
      <trkpt lat="43.41423" lon="6.73224">
        <ele>3.098</ele>
        <time>2019-05-28T13:55:52Z</time>
      </trkpt>
      <trkpt lat="43.41364" lon="6.73214">
        <ele>3</ele>
        <time>2019-05-28T13:56:02Z</time>
      </trkpt>
      <trkpt lat="43.41351" lon="6.73202">
        <ele>3</ele>
        <time>2019-05-28T13:56:05Z</time>
      </trkpt>
      <trkpt lat="43.41338" lon="6.73184">
        <ele>3</ele>
        <time>2019-05-28T13:56:09Z</time>
      </trkpt>
      <trkpt lat="43.41329" lon="6.73179">
        <ele>3</ele>
        <time>2019-05-28T13:56:11Z</time>
      </trkpt>
      <trkpt lat="43.41324" lon="6.73182">
        <ele>3</ele>
        <time>2019-05-28T13:56:12Z</time>
      </trkpt>
      <trkpt lat="43.41313" lon="6.73229">
        <ele>3</ele>
        <time>2019-05-28T13:56:19Z</time>
      </trkpt>
      <trkpt lat="43.41281" lon="6.73271">
        <ele>3</ele>
        <time>2019-05-28T13:56:27Z</time>
      </trkpt>
      <trkpt lat="43.41257" lon="6.7333">
        <ele>2.945</ele>
        <time>2019-05-28T13:56:37Z</time>
      </trkpt>
      <trkpt lat="43.41248" lon="6.73364">
        <ele>2.528</ele>
        <time>2019-05-28T13:56:42Z</time>
      </trkpt>
      <trkpt lat="43.41245" lon="6.73387">
        <ele>2.238</ele>
        <time>2019-05-28T13:56:45Z</time>
      </trkpt>
      <trkpt lat="43.41249" lon="6.73463">
        <ele>2</ele>
        <time>2019-05-28T13:56:56Z</time>
      </trkpt>
      <trkpt lat="43.41244" lon="6.73507">
        <ele>1.38</ele>
        <time>2019-05-28T13:57:02Z</time>
      </trkpt>
      <trkpt lat="43.41243" lon="6.73558">
        <ele>1</ele>
        <time>2019-05-28T13:57:09Z</time>
      </trkpt>
      <trkpt lat="43.41261" lon="6.73579">
        <ele>1.061</ele>
        <time>2019-05-28T13:57:16Z</time>
      </trkpt>
      <trkpt lat="43.41278" lon="6.73581">
        <ele>1.139</ele>
        <time>2019-05-28T13:57:21Z</time>
      </trkpt>
      <trkpt lat="43.41297" lon="6.73601">
        <ele>1.07</ele>
        <time>2019-05-28T13:57:28Z</time>
      </trkpt>
      <trkpt lat="43.41346" lon="6.73635">
        <ele>2</ele>
        <time>2019-05-28T13:57:41Z</time>
      </trkpt>
      <trkpt lat="43.41353" lon="6.73648">
        <ele>2</ele>
        <time>2019-05-28T13:57:43Z</time>
      </trkpt>
      <trkpt lat="43.41362" lon="6.73681">
        <ele>2</ele>
        <time>2019-05-28T13:57:48Z</time>
      </trkpt>
      <trkpt lat="43.41358" lon="6.73699">
        <ele>2</ele>
        <time>2019-05-28T13:57:51Z</time>
      </trkpt>
      <trkpt lat="43.41334" lon="6.73734">
        <ele>2</ele>
        <time>2019-05-28T13:57:59Z</time>
      </trkpt>
      <trkpt lat="43.41325" lon="6.73772">
        <ele>1.83</ele>
        <time>2019-05-28T13:58:05Z</time>
      </trkpt>
      <trkpt lat="43.41298" lon="6.73818">
        <ele>1.12</ele>
        <time>2019-05-28T13:58:14Z</time>
      </trkpt>
      <trkpt lat="43.4128" lon="6.73879">
        <ele>1</ele>
        <time>2019-05-28T13:58:23Z</time>
      </trkpt>
      <trkpt lat="43.41279" lon="6.73893">
        <ele>1</ele>
        <time>2019-05-28T13:58:25Z</time>
      </trkpt>
      <trkpt lat="43.41282" lon="6.73907">
        <ele>1</ele>
        <time>2019-05-28T13:58:27Z</time>
      </trkpt>
      <trkpt lat="43.41325" lon="6.73978">
        <ele>0.855</ele>
        <time>2019-05-28T13:58:39Z</time>
      </trkpt>
      <trkpt lat="43.41359" lon="6.74019">
        <ele>0.851</ele>
        <time>2019-05-28T13:58:47Z</time>
      </trkpt>
      <trkpt lat="43.41545" lon="6.74218">
        <ele>1</ele>
        <time>2019-05-28T13:59:27Z</time>
      </trkpt>
      <trkpt lat="43.41637" lon="6.74331">
        <ele>1</ele>
        <time>2019-05-28T13:59:48Z</time>
      </trkpt>
      <trkpt lat="43.41762" lon="6.74032">
        <ele>2.407</ele>
        <time>2019-05-28T13:59:50Z</time>
      </trkpt>
      <trkpt lat="43.41898" lon="6.74124">
        <ele>3</ele>
        <time>2019-05-28T13:59:56Z</time>
      </trkpt>
      <trkpt lat="43.42073" lon="6.73882">
        <ele>5</ele>
        <time>2019-05-28T13:59:57Z</time>
      </trkpt>
      <trkpt lat="43.42256" lon="6.73787">
        <ele>6.062</ele>
        <time>2019-05-28T14:00:08Z</time>
      </trkpt>
      <trkpt lat="43.42442" lon="6.73729">
        <ele>7.179</ele>
        <time>2019-05-28T14:00:16Z</time>
      </trkpt>
      <trkpt lat="43.42483" lon="6.73693">
        <ele>7.955</ele>
        <time>2019-05-28T14:00:28Z</time>
      </trkpt>
    </trkseg>
  </trk>
</gpx>